<?xml version="1.0" encoding="UTF-8" standalone="no" ?>
<gpx xmlns="http://www.topografix.com/GPX/1/1" xmlns:xsi="http://www.w3.org/2001/XMLSchema-instance" xsi:schemaLocation="http://www.topografix.com/GPX/1/1 http://www.topografix.com/GPX/1/1/gpx.xsd" version="1.1" creator="VisuGPX - https://www.visugpx.com">
  <metadata>
    <name>Marche JMK Ciergnon</name>
    <desc><![CDATA[Marche du 30 avril 2017 à Ciergnon avec Jean-Marie Keymolen]]></desc>
  </metadata>
  <trk>
    <name><![CDATA[2017-04-30 17:34:54]]></name>
    <trkseg>
      <trkpt lat="50.16556" lon="5.09248">
        <ele>135.68</ele>
        <time>2017-04-30T08:55:23Z</time>
      </trkpt>
      <trkpt lat="50.16556" lon="5.09248">
        <ele>135.68</ele>
        <time>2017-04-30T08:55:24Z</time>
      </trkpt>
      <trkpt lat="50.16557" lon="5.09249">
        <ele>137.61</ele>
        <time>2017-04-30T08:55:28Z</time>
      </trkpt>
      <trkpt lat="50.16558" lon="5.09245">
        <ele>137.61</ele>
        <time>2017-04-30T08:55:50Z</time>
      </trkpt>
      <trkpt lat="50.16555" lon="5.09244">
        <ele>137.13</ele>
        <time>2017-04-30T08:56:27Z</time>
      </trkpt>
      <trkpt lat="50.16555" lon="5.09246">
        <ele>137.13</ele>
        <time>2017-04-30T08:57:00Z</time>
      </trkpt>
      <trkpt lat="50.16555" lon="5.09244">
        <ele>136.64</ele>
        <time>2017-04-30T08:57:26Z</time>
      </trkpt>
      <trkpt lat="50.16554" lon="5.09244">
        <ele>138.09</ele>
        <time>2017-04-30T08:57:30Z</time>
      </trkpt>
      <trkpt lat="50.16553" lon="5.09245">
        <ele>138.09</ele>
        <time>2017-04-30T08:58:02Z</time>
      </trkpt>
      <trkpt lat="50.16554" lon="5.09246">
        <ele>138.09</ele>
        <time>2017-04-30T08:58:30Z</time>
      </trkpt>
      <trkpt lat="50.16554" lon="5.09246">
        <ele>138.09</ele>
        <time>2017-04-30T08:58:48Z</time>
      </trkpt>
      <trkpt lat="50.16556" lon="5.09245">
        <ele>138.09</ele>
        <time>2017-04-30T08:59:07Z</time>
      </trkpt>
      <trkpt lat="50.16555" lon="5.09245">
        <ele>138.09</ele>
        <time>2017-04-30T08:59:18Z</time>
      </trkpt>
      <trkpt lat="50.16555" lon="5.09239">
        <ele>139.05</ele>
        <time>2017-04-30T08:59:35Z</time>
      </trkpt>
      <trkpt lat="50.16555" lon="5.09234">
        <ele>137.61</ele>
        <time>2017-04-30T08:59:41Z</time>
      </trkpt>
      <trkpt lat="50.16556" lon="5.09228">
        <ele>137.13</ele>
        <time>2017-04-30T08:59:56Z</time>
      </trkpt>
      <trkpt lat="50.16557" lon="5.09227">
        <ele>137.61</ele>
        <time>2017-04-30T08:59:57Z</time>
      </trkpt>
      <trkpt lat="50.16558" lon="5.09221">
        <ele>137.13</ele>
        <time>2017-04-30T09:00:01Z</time>
      </trkpt>
      <trkpt lat="50.16564" lon="5.09198">
        <ele>137.13</ele>
        <time>2017-04-30T09:00:15Z</time>
      </trkpt>
      <trkpt lat="50.16569" lon="5.09172">
        <ele>137.13</ele>
        <time>2017-04-30T09:00:31Z</time>
      </trkpt>
      <trkpt lat="50.1657" lon="5.09165">
        <ele>137.13</ele>
        <time>2017-04-30T09:00:37Z</time>
      </trkpt>
      <trkpt lat="50.16573" lon="5.09137">
        <ele>137.13</ele>
        <time>2017-04-30T09:00:53Z</time>
      </trkpt>
      <trkpt lat="50.16574" lon="5.0913">
        <ele>137.13</ele>
        <time>2017-04-30T09:00:57Z</time>
      </trkpt>
      <trkpt lat="50.16578" lon="5.09126">
        <ele>137.13</ele>
        <time>2017-04-30T09:01:03Z</time>
      </trkpt>
      <trkpt lat="50.1658" lon="5.09122">
        <ele>138.57</ele>
        <time>2017-04-30T09:01:06Z</time>
      </trkpt>
      <trkpt lat="50.16582" lon="5.0912">
        <ele>138.57</ele>
        <time>2017-04-30T09:01:08Z</time>
      </trkpt>
      <trkpt lat="50.16585" lon="5.09117">
        <ele>139.53</ele>
        <time>2017-04-30T09:01:11Z</time>
      </trkpt>
      <trkpt lat="50.16599" lon="5.09112">
        <ele>141.45</ele>
        <time>2017-04-30T09:01:26Z</time>
      </trkpt>
      <trkpt lat="50.16614" lon="5.09108">
        <ele>143.85</ele>
        <time>2017-04-30T09:01:42Z</time>
      </trkpt>
      <trkpt lat="50.16627" lon="5.09105">
        <ele>144.34</ele>
        <time>2017-04-30T09:01:55Z</time>
      </trkpt>
      <trkpt lat="50.16643" lon="5.09098">
        <ele>146.74</ele>
        <time>2017-04-30T09:02:12Z</time>
      </trkpt>
      <trkpt lat="50.16659" lon="5.09095">
        <ele>149.62</ele>
        <time>2017-04-30T09:02:29Z</time>
      </trkpt>
      <trkpt lat="50.16674" lon="5.09094">
        <ele>151.06</ele>
        <time>2017-04-30T09:02:45Z</time>
      </trkpt>
      <trkpt lat="50.16678" lon="5.09092">
        <ele>151.54</ele>
        <time>2017-04-30T09:02:49Z</time>
      </trkpt>
      <trkpt lat="50.16682" lon="5.09085">
        <ele>151.54</ele>
        <time>2017-04-30T09:02:55Z</time>
      </trkpt>
      <trkpt lat="50.16683" lon="5.09077">
        <ele>152.03</ele>
        <time>2017-04-30T09:03:00Z</time>
      </trkpt>
      <trkpt lat="50.16684" lon="5.09068">
        <ele>152.03</ele>
        <time>2017-04-30T09:03:05Z</time>
      </trkpt>
      <trkpt lat="50.1669" lon="5.09045">
        <ele>152.03</ele>
        <time>2017-04-30T09:03:19Z</time>
      </trkpt>
      <trkpt lat="50.16707" lon="5.09031">
        <ele>152.03</ele>
        <time>2017-04-30T09:03:35Z</time>
      </trkpt>
      <trkpt lat="50.16718" lon="5.09022">
        <ele>152.51</ele>
        <time>2017-04-30T09:03:48Z</time>
      </trkpt>
      <trkpt lat="50.16733" lon="5.0901">
        <ele>152.51</ele>
        <time>2017-04-30T09:04:05Z</time>
      </trkpt>
      <trkpt lat="50.16739" lon="5.09">
        <ele>152.51</ele>
        <time>2017-04-30T09:04:15Z</time>
      </trkpt>
      <trkpt lat="50.1674" lon="5.08995">
        <ele>152.99</ele>
        <time>2017-04-30T09:04:18Z</time>
      </trkpt>
      <trkpt lat="50.16744" lon="5.08983">
        <ele>152.03</ele>
        <time>2017-04-30T09:04:26Z</time>
      </trkpt>
      <trkpt lat="50.16746" lon="5.08978">
        <ele>152.03</ele>
        <time>2017-04-30T09:04:29Z</time>
      </trkpt>
      <trkpt lat="50.16761" lon="5.08955">
        <ele>150.1</ele>
        <time>2017-04-30T09:04:47Z</time>
      </trkpt>
      <trkpt lat="50.16765" lon="5.08954">
        <ele>150.1</ele>
        <time>2017-04-30T09:05:03Z</time>
      </trkpt>
      <trkpt lat="50.16775" lon="5.08939">
        <ele>149.62</ele>
        <time>2017-04-30T09:05:16Z</time>
      </trkpt>
      <trkpt lat="50.16774" lon="5.08936">
        <ele>149.62</ele>
        <time>2017-04-30T09:05:30Z</time>
      </trkpt>
      <trkpt lat="50.16773" lon="5.08932">
        <ele>149.62</ele>
        <time>2017-04-30T09:05:52Z</time>
      </trkpt>
      <trkpt lat="50.16776" lon="5.0893">
        <ele>149.62</ele>
        <time>2017-04-30T09:06:09Z</time>
      </trkpt>
      <trkpt lat="50.16781" lon="5.08924">
        <ele>149.62</ele>
        <time>2017-04-30T09:06:27Z</time>
      </trkpt>
      <trkpt lat="50.16789" lon="5.08916">
        <ele>149.62</ele>
        <time>2017-04-30T09:06:41Z</time>
      </trkpt>
      <trkpt lat="50.16796" lon="5.08907">
        <ele>150.58</ele>
        <time>2017-04-30T09:06:53Z</time>
      </trkpt>
      <trkpt lat="50.16798" lon="5.08906">
        <ele>150.58</ele>
        <time>2017-04-30T09:07:03Z</time>
      </trkpt>
      <trkpt lat="50.16811" lon="5.08892">
        <ele>151.06</ele>
        <time>2017-04-30T09:07:20Z</time>
      </trkpt>
      <trkpt lat="50.16813" lon="5.0889">
        <ele>151.06</ele>
        <time>2017-04-30T09:07:22Z</time>
      </trkpt>
      <trkpt lat="50.16816" lon="5.08888">
        <ele>151.54</ele>
        <time>2017-04-30T09:07:26Z</time>
      </trkpt>
      <trkpt lat="50.16832" lon="5.08878">
        <ele>152.99</ele>
        <time>2017-04-30T09:07:41Z</time>
      </trkpt>
      <trkpt lat="50.16848" lon="5.08877">
        <ele>152.51</ele>
        <time>2017-04-30T09:07:56Z</time>
      </trkpt>
      <trkpt lat="50.16863" lon="5.08895">
        <ele>153.47</ele>
        <time>2017-04-30T09:08:12Z</time>
      </trkpt>
      <trkpt lat="50.16871" lon="5.08919">
        <ele>153.95</ele>
        <time>2017-04-30T09:08:27Z</time>
      </trkpt>
      <trkpt lat="50.16884" lon="5.0894">
        <ele>153.95</ele>
        <time>2017-04-30T09:08:43Z</time>
      </trkpt>
      <trkpt lat="50.16897" lon="5.08955">
        <ele>154.43</ele>
        <time>2017-04-30T09:08:58Z</time>
      </trkpt>
      <trkpt lat="50.16913" lon="5.08968">
        <ele>154.43</ele>
        <time>2017-04-30T09:09:14Z</time>
      </trkpt>
      <trkpt lat="50.16917" lon="5.08972">
        <ele>154.43</ele>
        <time>2017-04-30T09:09:18Z</time>
      </trkpt>
      <trkpt lat="50.16936" lon="5.08989">
        <ele>154.91</ele>
        <time>2017-04-30T09:09:37Z</time>
      </trkpt>
      <trkpt lat="50.16951" lon="5.09004">
        <ele>155.39</ele>
        <time>2017-04-30T09:09:53Z</time>
      </trkpt>
      <trkpt lat="50.16962" lon="5.09019">
        <ele>155.39</ele>
        <time>2017-04-30T09:10:06Z</time>
      </trkpt>
      <trkpt lat="50.16975" lon="5.09042">
        <ele>153.95</ele>
        <time>2017-04-30T09:10:22Z</time>
      </trkpt>
      <trkpt lat="50.16981" lon="5.09053">
        <ele>154.91</ele>
        <time>2017-04-30T09:10:30Z</time>
      </trkpt>
      <trkpt lat="50.1699" lon="5.09074">
        <ele>156.35</ele>
        <time>2017-04-30T09:10:45Z</time>
      </trkpt>
      <trkpt lat="50.16991" lon="5.09076">
        <ele>156.35</ele>
        <time>2017-04-30T09:10:46Z</time>
      </trkpt>
      <trkpt lat="50.16995" lon="5.09084">
        <ele>156.35</ele>
        <time>2017-04-30T09:10:53Z</time>
      </trkpt>
      <trkpt lat="50.17004" lon="5.09103">
        <ele>157.31</ele>
        <time>2017-04-30T09:11:05Z</time>
      </trkpt>
      <trkpt lat="50.17012" lon="5.0913">
        <ele>158.27</ele>
        <time>2017-04-30T09:11:21Z</time>
      </trkpt>
      <trkpt lat="50.1702" lon="5.09151">
        <ele>158.75</ele>
        <time>2017-04-30T09:11:35Z</time>
      </trkpt>
      <trkpt lat="50.17027" lon="5.0917">
        <ele>158.75</ele>
        <time>2017-04-30T09:11:48Z</time>
      </trkpt>
      <trkpt lat="50.17037" lon="5.09193">
        <ele>159.72</ele>
        <time>2017-04-30T09:12:03Z</time>
      </trkpt>
      <trkpt lat="50.17047" lon="5.09213">
        <ele>161.16</ele>
        <time>2017-04-30T09:12:17Z</time>
      </trkpt>
      <trkpt lat="50.17058" lon="5.09235">
        <ele>162.12</ele>
        <time>2017-04-30T09:12:32Z</time>
      </trkpt>
      <trkpt lat="50.1707" lon="5.09252">
        <ele>162.6</ele>
        <time>2017-04-30T09:12:47Z</time>
      </trkpt>
      <trkpt lat="50.17083" lon="5.09271">
        <ele>164.04</ele>
        <time>2017-04-30T09:13:03Z</time>
      </trkpt>
      <trkpt lat="50.17094" lon="5.0929">
        <ele>165.48</ele>
        <time>2017-04-30T09:13:17Z</time>
      </trkpt>
      <trkpt lat="50.17098" lon="5.09295">
        <ele>165.48</ele>
        <time>2017-04-30T09:13:21Z</time>
      </trkpt>
      <trkpt lat="50.17111" lon="5.09312">
        <ele>166.93</ele>
        <time>2017-04-30T09:13:36Z</time>
      </trkpt>
      <trkpt lat="50.17127" lon="5.09333">
        <ele>167.41</ele>
        <time>2017-04-30T09:13:53Z</time>
      </trkpt>
      <trkpt lat="50.17143" lon="5.09349">
        <ele>169.33</ele>
        <time>2017-04-30T09:14:11Z</time>
      </trkpt>
      <trkpt lat="50.17159" lon="5.0936">
        <ele>169.81</ele>
        <time>2017-04-30T09:14:27Z</time>
      </trkpt>
      <trkpt lat="50.17164" lon="5.09365">
        <ele>170.77</ele>
        <time>2017-04-30T09:14:32Z</time>
      </trkpt>
      <trkpt lat="50.17182" lon="5.09383">
        <ele>171.73</ele>
        <time>2017-04-30T09:14:52Z</time>
      </trkpt>
      <trkpt lat="50.17197" lon="5.09399">
        <ele>173.17</ele>
        <time>2017-04-30T09:15:09Z</time>
      </trkpt>
      <trkpt lat="50.17216" lon="5.09408">
        <ele>175.1</ele>
        <time>2017-04-30T09:15:27Z</time>
      </trkpt>
      <trkpt lat="50.17235" lon="5.09412">
        <ele>177.5</ele>
        <time>2017-04-30T09:15:46Z</time>
      </trkpt>
      <trkpt lat="50.17249" lon="5.09416">
        <ele>178.94</ele>
        <time>2017-04-30T09:16:01Z</time>
      </trkpt>
      <trkpt lat="50.17265" lon="5.09425">
        <ele>181.35</ele>
        <time>2017-04-30T09:16:19Z</time>
      </trkpt>
      <trkpt lat="50.17285" lon="5.09436">
        <ele>182.31</ele>
        <time>2017-04-30T09:16:37Z</time>
      </trkpt>
      <trkpt lat="50.17304" lon="5.09444">
        <ele>184.23</ele>
        <time>2017-04-30T09:16:56Z</time>
      </trkpt>
      <trkpt lat="50.17313" lon="5.09449">
        <ele>186.15</ele>
        <time>2017-04-30T09:17:05Z</time>
      </trkpt>
      <trkpt lat="50.17317" lon="5.09452">
        <ele>184.71</ele>
        <time>2017-04-30T09:17:09Z</time>
      </trkpt>
      <trkpt lat="50.17324" lon="5.09454">
        <ele>186.15</ele>
        <time>2017-04-30T09:17:15Z</time>
      </trkpt>
      <trkpt lat="50.17342" lon="5.09465">
        <ele>187.11</ele>
        <time>2017-04-30T09:17:34Z</time>
      </trkpt>
      <trkpt lat="50.1736" lon="5.0948">
        <ele>189.52</ele>
        <time>2017-04-30T09:17:52Z</time>
      </trkpt>
      <trkpt lat="50.17377" lon="5.09494">
        <ele>190.96</ele>
        <time>2017-04-30T09:18:09Z</time>
      </trkpt>
      <trkpt lat="50.17391" lon="5.0951">
        <ele>192.88</ele>
        <time>2017-04-30T09:18:26Z</time>
      </trkpt>
      <trkpt lat="50.17406" lon="5.09523">
        <ele>193.84</ele>
        <time>2017-04-30T09:18:42Z</time>
      </trkpt>
      <trkpt lat="50.1742" lon="5.09538">
        <ele>194.8</ele>
        <time>2017-04-30T09:18:59Z</time>
      </trkpt>
      <trkpt lat="50.17436" lon="5.09556">
        <ele>195.77</ele>
        <time>2017-04-30T09:19:17Z</time>
      </trkpt>
      <trkpt lat="50.17453" lon="5.09572">
        <ele>197.21</ele>
        <time>2017-04-30T09:19:34Z</time>
      </trkpt>
      <trkpt lat="50.17466" lon="5.09583">
        <ele>197.69</ele>
        <time>2017-04-30T09:19:48Z</time>
      </trkpt>
      <trkpt lat="50.17481" lon="5.09594">
        <ele>199.13</ele>
        <time>2017-04-30T09:20:02Z</time>
      </trkpt>
      <trkpt lat="50.17497" lon="5.09603">
        <ele>201.05</ele>
        <time>2017-04-30T09:20:18Z</time>
      </trkpt>
      <trkpt lat="50.17513" lon="5.09611">
        <ele>202.49</ele>
        <time>2017-04-30T09:20:34Z</time>
      </trkpt>
      <trkpt lat="50.17531" lon="5.09623">
        <ele>203.94</ele>
        <time>2017-04-30T09:20:52Z</time>
      </trkpt>
      <trkpt lat="50.17547" lon="5.09631">
        <ele>205.38</ele>
        <time>2017-04-30T09:21:07Z</time>
      </trkpt>
      <trkpt lat="50.17564" lon="5.09637">
        <ele>206.34</ele>
        <time>2017-04-30T09:21:22Z</time>
      </trkpt>
      <trkpt lat="50.17581" lon="5.09646">
        <ele>208.26</ele>
        <time>2017-04-30T09:21:39Z</time>
      </trkpt>
      <trkpt lat="50.176" lon="5.09652">
        <ele>210.67</ele>
        <time>2017-04-30T09:21:58Z</time>
      </trkpt>
      <trkpt lat="50.17616" lon="5.09657">
        <ele>212.11</ele>
        <time>2017-04-30T09:22:14Z</time>
      </trkpt>
      <trkpt lat="50.17632" lon="5.09665">
        <ele>214.03</ele>
        <time>2017-04-30T09:22:31Z</time>
      </trkpt>
      <trkpt lat="50.17645" lon="5.09673">
        <ele>214.51</ele>
        <time>2017-04-30T09:22:43Z</time>
      </trkpt>
      <trkpt lat="50.17664" lon="5.09684">
        <ele>215.95</ele>
        <time>2017-04-30T09:23:01Z</time>
      </trkpt>
      <trkpt lat="50.17675" lon="5.09692">
        <ele>216.43</ele>
        <time>2017-04-30T09:23:14Z</time>
      </trkpt>
      <trkpt lat="50.17689" lon="5.09702">
        <ele>217.4</ele>
        <time>2017-04-30T09:23:29Z</time>
      </trkpt>
      <trkpt lat="50.17703" lon="5.09713">
        <ele>218.84</ele>
        <time>2017-04-30T09:23:43Z</time>
      </trkpt>
      <trkpt lat="50.17715" lon="5.09719">
        <ele>219.8</ele>
        <time>2017-04-30T09:23:59Z</time>
      </trkpt>
      <trkpt lat="50.17727" lon="5.09729">
        <ele>220.28</ele>
        <time>2017-04-30T09:24:10Z</time>
      </trkpt>
      <trkpt lat="50.17733" lon="5.09736">
        <ele>220.28</ele>
        <time>2017-04-30T09:24:15Z</time>
      </trkpt>
      <trkpt lat="50.17736" lon="5.09737">
        <ele>220.76</ele>
        <time>2017-04-30T09:24:17Z</time>
      </trkpt>
      <trkpt lat="50.17753" lon="5.09752">
        <ele>221.72</ele>
        <time>2017-04-30T09:24:34Z</time>
      </trkpt>
      <trkpt lat="50.17766" lon="5.09764">
        <ele>222.2</ele>
        <time>2017-04-30T09:24:49Z</time>
      </trkpt>
      <trkpt lat="50.17779" lon="5.09776">
        <ele>223.64</ele>
        <time>2017-04-30T09:25:03Z</time>
      </trkpt>
      <trkpt lat="50.17795" lon="5.09792">
        <ele>225.57</ele>
        <time>2017-04-30T09:25:19Z</time>
      </trkpt>
      <trkpt lat="50.17813" lon="5.09806">
        <ele>226.53</ele>
        <time>2017-04-30T09:25:35Z</time>
      </trkpt>
      <trkpt lat="50.1783" lon="5.09818">
        <ele>227.49</ele>
        <time>2017-04-30T09:25:50Z</time>
      </trkpt>
      <trkpt lat="50.17847" lon="5.09834">
        <ele>228.45</ele>
        <time>2017-04-30T09:26:08Z</time>
      </trkpt>
      <trkpt lat="50.17859" lon="5.09851">
        <ele>229.89</ele>
        <time>2017-04-30T09:26:23Z</time>
      </trkpt>
      <trkpt lat="50.17874" lon="5.09865">
        <ele>230.85</ele>
        <time>2017-04-30T09:26:39Z</time>
      </trkpt>
      <trkpt lat="50.17893" lon="5.09887">
        <ele>233.26</ele>
        <time>2017-04-30T09:27:01Z</time>
      </trkpt>
      <trkpt lat="50.17907" lon="5.09901">
        <ele>234.7</ele>
        <time>2017-04-30T09:27:16Z</time>
      </trkpt>
      <trkpt lat="50.17924" lon="5.09913">
        <ele>236.14</ele>
        <time>2017-04-30T09:27:32Z</time>
      </trkpt>
      <trkpt lat="50.17934" lon="5.09917">
        <ele>237.58</ele>
        <time>2017-04-30T09:27:45Z</time>
      </trkpt>
      <trkpt lat="50.1795" lon="5.0993">
        <ele>237.58</ele>
        <time>2017-04-30T09:28:03Z</time>
      </trkpt>
      <trkpt lat="50.17967" lon="5.09948">
        <ele>238.06</ele>
        <time>2017-04-30T09:28:20Z</time>
      </trkpt>
      <trkpt lat="50.17987" lon="5.09966">
        <ele>239.99</ele>
        <time>2017-04-30T09:28:39Z</time>
      </trkpt>
      <trkpt lat="50.18004" lon="5.09987">
        <ele>240.47</ele>
        <time>2017-04-30T09:28:57Z</time>
      </trkpt>
      <trkpt lat="50.18018" lon="5.10007">
        <ele>240.95</ele>
        <time>2017-04-30T09:29:14Z</time>
      </trkpt>
      <trkpt lat="50.18033" lon="5.10026">
        <ele>240.95</ele>
        <time>2017-04-30T09:29:32Z</time>
      </trkpt>
      <trkpt lat="50.18049" lon="5.10047">
        <ele>241.91</ele>
        <time>2017-04-30T09:29:51Z</time>
      </trkpt>
      <trkpt lat="50.18069" lon="5.10066">
        <ele>241.91</ele>
        <time>2017-04-30T09:30:09Z</time>
      </trkpt>
      <trkpt lat="50.18091" lon="5.10091">
        <ele>242.87</ele>
        <time>2017-04-30T09:30:31Z</time>
      </trkpt>
      <trkpt lat="50.18108" lon="5.10113">
        <ele>243.35</ele>
        <time>2017-04-30T09:30:49Z</time>
      </trkpt>
      <trkpt lat="50.18122" lon="5.10135">
        <ele>244.31</ele>
        <time>2017-04-30T09:31:06Z</time>
      </trkpt>
      <trkpt lat="50.18128" lon="5.10145">
        <ele>244.31</ele>
        <time>2017-04-30T09:31:13Z</time>
      </trkpt>
      <trkpt lat="50.18142" lon="5.10167">
        <ele>244.79</ele>
        <time>2017-04-30T09:31:30Z</time>
      </trkpt>
      <trkpt lat="50.18154" lon="5.1019">
        <ele>245.75</ele>
        <time>2017-04-30T09:31:46Z</time>
      </trkpt>
      <trkpt lat="50.18165" lon="5.10211">
        <ele>246.23</ele>
        <time>2017-04-30T09:32:02Z</time>
      </trkpt>
      <trkpt lat="50.1818" lon="5.10231">
        <ele>247.2</ele>
        <time>2017-04-30T09:32:19Z</time>
      </trkpt>
      <trkpt lat="50.18194" lon="5.10252">
        <ele>247.68</ele>
        <time>2017-04-30T09:32:34Z</time>
      </trkpt>
      <trkpt lat="50.18205" lon="5.1027">
        <ele>248.16</ele>
        <time>2017-04-30T09:32:48Z</time>
      </trkpt>
      <trkpt lat="50.18217" lon="5.10292">
        <ele>248.16</ele>
        <time>2017-04-30T09:33:04Z</time>
      </trkpt>
      <trkpt lat="50.18229" lon="5.10314">
        <ele>248.64</ele>
        <time>2017-04-30T09:33:21Z</time>
      </trkpt>
      <trkpt lat="50.18241" lon="5.10336">
        <ele>248.16</ele>
        <time>2017-04-30T09:33:37Z</time>
      </trkpt>
      <trkpt lat="50.18253" lon="5.10359">
        <ele>249.6</ele>
        <time>2017-04-30T09:33:53Z</time>
      </trkpt>
      <trkpt lat="50.18266" lon="5.10383">
        <ele>249.6</ele>
        <time>2017-04-30T09:34:10Z</time>
      </trkpt>
      <trkpt lat="50.18277" lon="5.10405">
        <ele>250.56</ele>
        <time>2017-04-30T09:34:26Z</time>
      </trkpt>
      <trkpt lat="50.1829" lon="5.10427">
        <ele>250.56</ele>
        <time>2017-04-30T09:34:42Z</time>
      </trkpt>
      <trkpt lat="50.18295" lon="5.10437">
        <ele>251.52</ele>
        <time>2017-04-30T09:34:49Z</time>
      </trkpt>
      <trkpt lat="50.18308" lon="5.1046">
        <ele>251.52</ele>
        <time>2017-04-30T09:35:06Z</time>
      </trkpt>
      <trkpt lat="50.18319" lon="5.10483">
        <ele>252</ele>
        <time>2017-04-30T09:35:22Z</time>
      </trkpt>
      <trkpt lat="50.18332" lon="5.10504">
        <ele>252.48</ele>
        <time>2017-04-30T09:35:37Z</time>
      </trkpt>
      <trkpt lat="50.18342" lon="5.10524">
        <ele>252.48</ele>
        <time>2017-04-30T09:35:51Z</time>
      </trkpt>
      <trkpt lat="50.18345" lon="5.1053">
        <ele>252.48</ele>
        <time>2017-04-30T09:35:56Z</time>
      </trkpt>
      <trkpt lat="50.18357" lon="5.10546">
        <ele>252.96</ele>
        <time>2017-04-30T09:36:09Z</time>
      </trkpt>
      <trkpt lat="50.18375" lon="5.10567">
        <ele>252.96</ele>
        <time>2017-04-30T09:36:28Z</time>
      </trkpt>
      <trkpt lat="50.1839" lon="5.10586">
        <ele>253.93</ele>
        <time>2017-04-30T09:36:45Z</time>
      </trkpt>
      <trkpt lat="50.18405" lon="5.10607">
        <ele>253.93</ele>
        <time>2017-04-30T09:37:01Z</time>
      </trkpt>
      <trkpt lat="50.18423" lon="5.10633">
        <ele>255.85</ele>
        <time>2017-04-30T09:37:20Z</time>
      </trkpt>
      <trkpt lat="50.18435" lon="5.10651">
        <ele>255.37</ele>
        <time>2017-04-30T09:37:36Z</time>
      </trkpt>
      <trkpt lat="50.18445" lon="5.10665">
        <ele>256.81</ele>
        <time>2017-04-30T09:37:49Z</time>
      </trkpt>
      <trkpt lat="50.18458" lon="5.10693">
        <ele>257.29</ele>
        <time>2017-04-30T09:38:07Z</time>
      </trkpt>
      <trkpt lat="50.18467" lon="5.1071">
        <ele>257.77</ele>
        <time>2017-04-30T09:38:20Z</time>
      </trkpt>
      <trkpt lat="50.18477" lon="5.10733">
        <ele>258.73</ele>
        <time>2017-04-30T09:38:34Z</time>
      </trkpt>
      <trkpt lat="50.18487" lon="5.10758">
        <ele>259.21</ele>
        <time>2017-04-30T09:38:49Z</time>
      </trkpt>
      <trkpt lat="50.18497" lon="5.10781">
        <ele>260.17</ele>
        <time>2017-04-30T09:39:06Z</time>
      </trkpt>
      <trkpt lat="50.18508" lon="5.10808">
        <ele>260.65</ele>
        <time>2017-04-30T09:39:24Z</time>
      </trkpt>
      <trkpt lat="50.18518" lon="5.10841">
        <ele>261.62</ele>
        <time>2017-04-30T09:39:43Z</time>
      </trkpt>
      <trkpt lat="50.18528" lon="5.10871">
        <ele>261.14</ele>
        <time>2017-04-30T09:40:00Z</time>
      </trkpt>
      <trkpt lat="50.18536" lon="5.10898">
        <ele>261.14</ele>
        <time>2017-04-30T09:40:15Z</time>
      </trkpt>
      <trkpt lat="50.18544" lon="5.10923">
        <ele>261.14</ele>
        <time>2017-04-30T09:40:31Z</time>
      </trkpt>
      <trkpt lat="50.18548" lon="5.10932">
        <ele>262.58</ele>
        <time>2017-04-30T09:40:38Z</time>
      </trkpt>
      <trkpt lat="50.18549" lon="5.10935">
        <ele>262.58</ele>
        <time>2017-04-30T09:40:40Z</time>
      </trkpt>
      <trkpt lat="50.18561" lon="5.10963">
        <ele>263.54</ele>
        <time>2017-04-30T09:40:59Z</time>
      </trkpt>
      <trkpt lat="50.18572" lon="5.10989">
        <ele>263.54</ele>
        <time>2017-04-30T09:41:15Z</time>
      </trkpt>
      <trkpt lat="50.18583" lon="5.11013">
        <ele>263.54</ele>
        <time>2017-04-30T09:41:31Z</time>
      </trkpt>
      <trkpt lat="50.18585" lon="5.1102">
        <ele>263.54</ele>
        <time>2017-04-30T09:41:36Z</time>
      </trkpt>
      <trkpt lat="50.18595" lon="5.11047">
        <ele>263.54</ele>
        <time>2017-04-30T09:41:51Z</time>
      </trkpt>
      <trkpt lat="50.18603" lon="5.11063">
        <ele>264.5</ele>
        <time>2017-04-30T09:42:05Z</time>
      </trkpt>
      <trkpt lat="50.18599" lon="5.11061">
        <ele>264.5</ele>
        <time>2017-04-30T09:42:21Z</time>
      </trkpt>
      <trkpt lat="50.18596" lon="5.11064">
        <ele>264.5</ele>
        <time>2017-04-30T09:42:41Z</time>
      </trkpt>
      <trkpt lat="50.18603" lon="5.11065">
        <ele>264.02</ele>
        <time>2017-04-30T09:43:03Z</time>
      </trkpt>
      <trkpt lat="50.18603" lon="5.11064">
        <ele>264.02</ele>
        <time>2017-04-30T09:43:22Z</time>
      </trkpt>
      <trkpt lat="50.18604" lon="5.1106">
        <ele>263.06</ele>
        <time>2017-04-30T09:43:48Z</time>
      </trkpt>
      <trkpt lat="50.18603" lon="5.11058">
        <ele>264.02</ele>
        <time>2017-04-30T09:44:07Z</time>
      </trkpt>
      <trkpt lat="50.18602" lon="5.11057">
        <ele>260.17</ele>
        <time>2017-04-30T09:44:10Z</time>
      </trkpt>
      <trkpt lat="50.18602" lon="5.11056">
        <ele>261.62</ele>
        <time>2017-04-30T09:44:11Z</time>
      </trkpt>
      <trkpt lat="50.18602" lon="5.11055">
        <ele>266.42</ele>
        <time>2017-04-30T09:44:12Z</time>
      </trkpt>
      <trkpt lat="50.18602" lon="5.11055">
        <ele>263.54</ele>
        <time>2017-04-30T09:44:13Z</time>
      </trkpt>
      <trkpt lat="50.18601" lon="5.1106">
        <ele>263.06</ele>
        <time>2017-04-30T09:44:32Z</time>
      </trkpt>
      <trkpt lat="50.18601" lon="5.11065">
        <ele>262.58</ele>
        <time>2017-04-30T09:44:47Z</time>
      </trkpt>
      <trkpt lat="50.18604" lon="5.11064">
        <ele>264.02</ele>
        <time>2017-04-30T09:45:11Z</time>
      </trkpt>
      <trkpt lat="50.18602" lon="5.11063">
        <ele>264.02</ele>
        <time>2017-04-30T09:45:27Z</time>
      </trkpt>
      <trkpt lat="50.186" lon="5.11063">
        <ele>264.02</ele>
        <time>2017-04-30T09:45:44Z</time>
      </trkpt>
      <trkpt lat="50.18602" lon="5.11064">
        <ele>264.02</ele>
        <time>2017-04-30T09:46:07Z</time>
      </trkpt>
      <trkpt lat="50.18603" lon="5.11064">
        <ele>263.54</ele>
        <time>2017-04-30T09:46:26Z</time>
      </trkpt>
      <trkpt lat="50.18602" lon="5.1106">
        <ele>263.54</ele>
        <time>2017-04-30T09:46:48Z</time>
      </trkpt>
      <trkpt lat="50.186" lon="5.11058">
        <ele>264.5</ele>
        <time>2017-04-30T09:47:10Z</time>
      </trkpt>
      <trkpt lat="50.18599" lon="5.11065">
        <ele>263.54</ele>
        <time>2017-04-30T09:47:40Z</time>
      </trkpt>
      <trkpt lat="50.186" lon="5.11064">
        <ele>263.54</ele>
        <time>2017-04-30T09:48:12Z</time>
      </trkpt>
      <trkpt lat="50.18605" lon="5.1106">
        <ele>263.54</ele>
        <time>2017-04-30T09:48:34Z</time>
      </trkpt>
      <trkpt lat="50.18609" lon="5.11065">
        <ele>263.54</ele>
        <time>2017-04-30T09:48:59Z</time>
      </trkpt>
      <trkpt lat="50.18613" lon="5.11074">
        <ele>264.98</ele>
        <time>2017-04-30T09:49:21Z</time>
      </trkpt>
      <trkpt lat="50.18611" lon="5.11078">
        <ele>264.98</ele>
        <time>2017-04-30T09:49:33Z</time>
      </trkpt>
      <trkpt lat="50.18617" lon="5.11097">
        <ele>265.46</ele>
        <time>2017-04-30T09:49:47Z</time>
      </trkpt>
      <trkpt lat="50.18619" lon="5.11105">
        <ele>264.02</ele>
        <time>2017-04-30T09:49:53Z</time>
      </trkpt>
      <trkpt lat="50.18628" lon="5.11135">
        <ele>264.02</ele>
        <time>2017-04-30T09:50:11Z</time>
      </trkpt>
      <trkpt lat="50.18636" lon="5.11152">
        <ele>264.02</ele>
        <time>2017-04-30T09:50:24Z</time>
      </trkpt>
      <trkpt lat="50.18648" lon="5.11181">
        <ele>263.54</ele>
        <time>2017-04-30T09:50:43Z</time>
      </trkpt>
      <trkpt lat="50.18664" lon="5.11211">
        <ele>263.06</ele>
        <time>2017-04-30T09:51:03Z</time>
      </trkpt>
      <trkpt lat="50.18676" lon="5.1124">
        <ele>263.06</ele>
        <time>2017-04-30T09:51:20Z</time>
      </trkpt>
      <trkpt lat="50.18679" lon="5.11248">
        <ele>264.5</ele>
        <time>2017-04-30T09:51:25Z</time>
      </trkpt>
      <trkpt lat="50.1869" lon="5.11276">
        <ele>264.02</ele>
        <time>2017-04-30T09:51:43Z</time>
      </trkpt>
      <trkpt lat="50.18701" lon="5.113">
        <ele>263.06</ele>
        <time>2017-04-30T09:51:59Z</time>
      </trkpt>
      <trkpt lat="50.18713" lon="5.11323">
        <ele>264.02</ele>
        <time>2017-04-30T09:52:14Z</time>
      </trkpt>
      <trkpt lat="50.18726" lon="5.11351">
        <ele>264.02</ele>
        <time>2017-04-30T09:52:32Z</time>
      </trkpt>
      <trkpt lat="50.1874" lon="5.11379">
        <ele>264.02</ele>
        <time>2017-04-30T09:52:49Z</time>
      </trkpt>
      <trkpt lat="50.18757" lon="5.11403">
        <ele>264.02</ele>
        <time>2017-04-30T09:53:08Z</time>
      </trkpt>
      <trkpt lat="50.1876" lon="5.11407">
        <ele>264.02</ele>
        <time>2017-04-30T09:53:11Z</time>
      </trkpt>
      <trkpt lat="50.18776" lon="5.11431">
        <ele>264.02</ele>
        <time>2017-04-30T09:53:29Z</time>
      </trkpt>
      <trkpt lat="50.1879" lon="5.11453">
        <ele>264.02</ele>
        <time>2017-04-30T09:53:45Z</time>
      </trkpt>
      <trkpt lat="50.18803" lon="5.11477">
        <ele>264.5</ele>
        <time>2017-04-30T09:54:01Z</time>
      </trkpt>
      <trkpt lat="50.18815" lon="5.11509">
        <ele>264.98</ele>
        <time>2017-04-30T09:54:21Z</time>
      </trkpt>
      <trkpt lat="50.18824" lon="5.11536">
        <ele>265.94</ele>
        <time>2017-04-30T09:54:39Z</time>
      </trkpt>
      <trkpt lat="50.18835" lon="5.11566">
        <ele>266.42</ele>
        <time>2017-04-30T09:54:57Z</time>
      </trkpt>
      <trkpt lat="50.18844" lon="5.11596">
        <ele>266.42</ele>
        <time>2017-04-30T09:55:13Z</time>
      </trkpt>
      <trkpt lat="50.18852" lon="5.11627">
        <ele>266.9</ele>
        <time>2017-04-30T09:55:30Z</time>
      </trkpt>
      <trkpt lat="50.18861" lon="5.11657">
        <ele>267.86</ele>
        <time>2017-04-30T09:55:46Z</time>
      </trkpt>
      <trkpt lat="50.18869" lon="5.11684">
        <ele>268.35</ele>
        <time>2017-04-30T09:56:03Z</time>
      </trkpt>
      <trkpt lat="50.18873" lon="5.1169">
        <ele>268.83</ele>
        <time>2017-04-30T09:56:07Z</time>
      </trkpt>
      <trkpt lat="50.18879" lon="5.11718">
        <ele>269.31</ele>
        <time>2017-04-30T09:56:22Z</time>
      </trkpt>
      <trkpt lat="50.18876" lon="5.11744">
        <ele>269.31</ele>
        <time>2017-04-30T09:56:37Z</time>
      </trkpt>
      <trkpt lat="50.18868" lon="5.11771">
        <ele>270.27</ele>
        <time>2017-04-30T09:56:54Z</time>
      </trkpt>
      <trkpt lat="50.18863" lon="5.11791">
        <ele>268.83</ele>
        <time>2017-04-30T09:57:07Z</time>
      </trkpt>
      <trkpt lat="50.18857" lon="5.11829">
        <ele>268.83</ele>
        <time>2017-04-30T09:57:26Z</time>
      </trkpt>
      <trkpt lat="50.18856" lon="5.11867">
        <ele>267.86</ele>
        <time>2017-04-30T09:57:45Z</time>
      </trkpt>
      <trkpt lat="50.18855" lon="5.11904">
        <ele>266.9</ele>
        <time>2017-04-30T09:58:02Z</time>
      </trkpt>
      <trkpt lat="50.18855" lon="5.11937">
        <ele>264.98</ele>
        <time>2017-04-30T09:58:19Z</time>
      </trkpt>
      <trkpt lat="50.18856" lon="5.11973">
        <ele>264.5</ele>
        <time>2017-04-30T09:58:36Z</time>
      </trkpt>
      <trkpt lat="50.18857" lon="5.12001">
        <ele>263.54</ele>
        <time>2017-04-30T09:58:52Z</time>
      </trkpt>
      <trkpt lat="50.18857" lon="5.12033">
        <ele>262.58</ele>
        <time>2017-04-30T09:59:06Z</time>
      </trkpt>
      <trkpt lat="50.1886" lon="5.1206">
        <ele>261.62</ele>
        <time>2017-04-30T09:59:24Z</time>
      </trkpt>
      <trkpt lat="50.18861" lon="5.12083">
        <ele>260.65</ele>
        <time>2017-04-30T09:59:40Z</time>
      </trkpt>
      <trkpt lat="50.18866" lon="5.12105">
        <ele>260.17</ele>
        <time>2017-04-30T09:59:56Z</time>
      </trkpt>
      <trkpt lat="50.18871" lon="5.1213">
        <ele>259.69</ele>
        <time>2017-04-30T10:00:12Z</time>
      </trkpt>
      <trkpt lat="50.18874" lon="5.12151">
        <ele>258.73</ele>
        <time>2017-04-30T10:00:25Z</time>
      </trkpt>
      <trkpt lat="50.18879" lon="5.12171">
        <ele>258.73</ele>
        <time>2017-04-30T10:00:39Z</time>
      </trkpt>
      <trkpt lat="50.18885" lon="5.12193">
        <ele>258.73</ele>
        <time>2017-04-30T10:00:52Z</time>
      </trkpt>
      <trkpt lat="50.18891" lon="5.12215">
        <ele>258.25</ele>
        <time>2017-04-30T10:01:06Z</time>
      </trkpt>
      <trkpt lat="50.18897" lon="5.12239">
        <ele>257.29</ele>
        <time>2017-04-30T10:01:21Z</time>
      </trkpt>
      <trkpt lat="50.189" lon="5.12263">
        <ele>256.81</ele>
        <time>2017-04-30T10:01:33Z</time>
      </trkpt>
      <trkpt lat="50.18906" lon="5.12285">
        <ele>256.81</ele>
        <time>2017-04-30T10:01:47Z</time>
      </trkpt>
      <trkpt lat="50.1891" lon="5.12314">
        <ele>255.85</ele>
        <time>2017-04-30T10:02:03Z</time>
      </trkpt>
      <trkpt lat="50.18915" lon="5.12343">
        <ele>255.37</ele>
        <time>2017-04-30T10:02:18Z</time>
      </trkpt>
      <trkpt lat="50.18917" lon="5.12371">
        <ele>253.44</ele>
        <time>2017-04-30T10:02:34Z</time>
      </trkpt>
      <trkpt lat="50.18918" lon="5.12385">
        <ele>252.96</ele>
        <time>2017-04-30T10:02:41Z</time>
      </trkpt>
      <trkpt lat="50.1892" lon="5.12414">
        <ele>252</ele>
        <time>2017-04-30T10:02:55Z</time>
      </trkpt>
      <trkpt lat="50.18923" lon="5.12439">
        <ele>251.52</ele>
        <time>2017-04-30T10:03:09Z</time>
      </trkpt>
      <trkpt lat="50.18927" lon="5.12462">
        <ele>250.08</ele>
        <time>2017-04-30T10:03:24Z</time>
      </trkpt>
      <trkpt lat="50.18922" lon="5.12473">
        <ele>250.56</ele>
        <time>2017-04-30T10:03:41Z</time>
      </trkpt>
      <trkpt lat="50.18921" lon="5.12475">
        <ele>250.56</ele>
        <time>2017-04-30T10:03:44Z</time>
      </trkpt>
      <trkpt lat="50.18919" lon="5.12493">
        <ele>250.56</ele>
        <time>2017-04-30T10:03:55Z</time>
      </trkpt>
      <trkpt lat="50.18919" lon="5.12511">
        <ele>249.6</ele>
        <time>2017-04-30T10:04:11Z</time>
      </trkpt>
      <trkpt lat="50.18917" lon="5.12536">
        <ele>247.2</ele>
        <time>2017-04-30T10:04:26Z</time>
      </trkpt>
      <trkpt lat="50.18916" lon="5.12566">
        <ele>245.75</ele>
        <time>2017-04-30T10:04:44Z</time>
      </trkpt>
      <trkpt lat="50.18915" lon="5.12595">
        <ele>244.31</ele>
        <time>2017-04-30T10:04:59Z</time>
      </trkpt>
      <trkpt lat="50.18916" lon="5.12606">
        <ele>244.31</ele>
        <time>2017-04-30T10:05:04Z</time>
      </trkpt>
      <trkpt lat="50.18917" lon="5.12632">
        <ele>242.87</ele>
        <time>2017-04-30T10:05:18Z</time>
      </trkpt>
      <trkpt lat="50.18918" lon="5.12659">
        <ele>241.91</ele>
        <time>2017-04-30T10:05:32Z</time>
      </trkpt>
      <trkpt lat="50.1892" lon="5.12685">
        <ele>240.95</ele>
        <time>2017-04-30T10:05:47Z</time>
      </trkpt>
      <trkpt lat="50.18921" lon="5.12701">
        <ele>240.47</ele>
        <time>2017-04-30T10:05:55Z</time>
      </trkpt>
      <trkpt lat="50.18922" lon="5.12733">
        <ele>238.54</ele>
        <time>2017-04-30T10:06:11Z</time>
      </trkpt>
      <trkpt lat="50.18925" lon="5.1276">
        <ele>237.58</ele>
        <time>2017-04-30T10:06:25Z</time>
      </trkpt>
      <trkpt lat="50.18926" lon="5.12792">
        <ele>237.1</ele>
        <time>2017-04-30T10:06:41Z</time>
      </trkpt>
      <trkpt lat="50.18927" lon="5.12819">
        <ele>235.66</ele>
        <time>2017-04-30T10:06:55Z</time>
      </trkpt>
      <trkpt lat="50.18929" lon="5.12849">
        <ele>235.18</ele>
        <time>2017-04-30T10:07:10Z</time>
      </trkpt>
      <trkpt lat="50.18929" lon="5.12869">
        <ele>234.22</ele>
        <time>2017-04-30T10:07:21Z</time>
      </trkpt>
      <trkpt lat="50.18932" lon="5.129">
        <ele>232.3</ele>
        <time>2017-04-30T10:07:39Z</time>
      </trkpt>
      <trkpt lat="50.18935" lon="5.12931">
        <ele>230.85</ele>
        <time>2017-04-30T10:07:56Z</time>
      </trkpt>
      <trkpt lat="50.18936" lon="5.12961">
        <ele>229.41</ele>
        <time>2017-04-30T10:08:12Z</time>
      </trkpt>
      <trkpt lat="50.18937" lon="5.12993">
        <ele>228.45</ele>
        <time>2017-04-30T10:08:28Z</time>
      </trkpt>
      <trkpt lat="50.18939" lon="5.1302">
        <ele>227.49</ele>
        <time>2017-04-30T10:08:44Z</time>
      </trkpt>
      <trkpt lat="50.18943" lon="5.13021">
        <ele>228.45</ele>
        <time>2017-04-30T10:09:02Z</time>
      </trkpt>
      <trkpt lat="50.18943" lon="5.13025">
        <ele>228.45</ele>
        <time>2017-04-30T10:09:19Z</time>
      </trkpt>
      <trkpt lat="50.18944" lon="5.13023">
        <ele>228.45</ele>
        <time>2017-04-30T10:09:38Z</time>
      </trkpt>
      <trkpt lat="50.18942" lon="5.13025">
        <ele>228.45</ele>
        <time>2017-04-30T10:09:50Z</time>
      </trkpt>
      <trkpt lat="50.1894" lon="5.13019">
        <ele>228.93</ele>
        <time>2017-04-30T10:10:11Z</time>
      </trkpt>
      <trkpt lat="50.18938" lon="5.13023">
        <ele>228.93</ele>
        <time>2017-04-30T10:10:26Z</time>
      </trkpt>
      <trkpt lat="50.18939" lon="5.13019">
        <ele>228.93</ele>
        <time>2017-04-30T10:10:43Z</time>
      </trkpt>
      <trkpt lat="50.18939" lon="5.13018">
        <ele>227.49</ele>
        <time>2017-04-30T10:10:53Z</time>
      </trkpt>
      <trkpt lat="50.18937" lon="5.13024">
        <ele>227.01</ele>
        <time>2017-04-30T10:11:00Z</time>
      </trkpt>
      <trkpt lat="50.18933" lon="5.13038">
        <ele>226.53</ele>
        <time>2017-04-30T10:11:14Z</time>
      </trkpt>
      <trkpt lat="50.18931" lon="5.13055">
        <ele>226.53</ele>
        <time>2017-04-30T10:11:27Z</time>
      </trkpt>
      <trkpt lat="50.18931" lon="5.13079">
        <ele>226.05</ele>
        <time>2017-04-30T10:11:41Z</time>
      </trkpt>
      <trkpt lat="50.18927" lon="5.13096">
        <ele>224.61</ele>
        <time>2017-04-30T10:11:55Z</time>
      </trkpt>
      <trkpt lat="50.18928" lon="5.13106">
        <ele>224.61</ele>
        <time>2017-04-30T10:12:01Z</time>
      </trkpt>
      <trkpt lat="50.18925" lon="5.13139">
        <ele>224.61</ele>
        <time>2017-04-30T10:12:19Z</time>
      </trkpt>
      <trkpt lat="50.18919" lon="5.13168">
        <ele>222.68</ele>
        <time>2017-04-30T10:12:35Z</time>
      </trkpt>
      <trkpt lat="50.18914" lon="5.13195">
        <ele>221.72</ele>
        <time>2017-04-30T10:12:51Z</time>
      </trkpt>
      <trkpt lat="50.18908" lon="5.13219">
        <ele>220.76</ele>
        <time>2017-04-30T10:13:07Z</time>
      </trkpt>
      <trkpt lat="50.18902" lon="5.13244">
        <ele>219.8</ele>
        <time>2017-04-30T10:13:20Z</time>
      </trkpt>
      <trkpt lat="50.189" lon="5.13268">
        <ele>219.8</ele>
        <time>2017-04-30T10:13:35Z</time>
      </trkpt>
      <trkpt lat="50.18894" lon="5.13287">
        <ele>219.32</ele>
        <time>2017-04-30T10:13:50Z</time>
      </trkpt>
      <trkpt lat="50.18883" lon="5.13306">
        <ele>218.84</ele>
        <time>2017-04-30T10:14:08Z</time>
      </trkpt>
      <trkpt lat="50.18865" lon="5.13317">
        <ele>218.84</ele>
        <time>2017-04-30T10:14:24Z</time>
      </trkpt>
      <trkpt lat="50.1885" lon="5.13319">
        <ele>219.8</ele>
        <time>2017-04-30T10:14:38Z</time>
      </trkpt>
      <trkpt lat="50.18832" lon="5.13324">
        <ele>219.8</ele>
        <time>2017-04-30T10:14:54Z</time>
      </trkpt>
      <trkpt lat="50.18813" lon="5.13325">
        <ele>220.28</ele>
        <time>2017-04-30T10:15:10Z</time>
      </trkpt>
      <trkpt lat="50.18796" lon="5.13326">
        <ele>220.76</ele>
        <time>2017-04-30T10:15:24Z</time>
      </trkpt>
      <trkpt lat="50.18775" lon="5.13336">
        <ele>220.76</ele>
        <time>2017-04-30T10:15:40Z</time>
      </trkpt>
      <trkpt lat="50.18764" lon="5.13336">
        <ele>220.76</ele>
        <time>2017-04-30T10:15:53Z</time>
      </trkpt>
      <trkpt lat="50.18749" lon="5.1335">
        <ele>218.84</ele>
        <time>2017-04-30T10:16:07Z</time>
      </trkpt>
      <trkpt lat="50.18744" lon="5.13357">
        <ele>218.36</ele>
        <time>2017-04-30T10:16:14Z</time>
      </trkpt>
      <trkpt lat="50.18729" lon="5.13371">
        <ele>217.88</ele>
        <time>2017-04-30T10:16:28Z</time>
      </trkpt>
      <trkpt lat="50.18715" lon="5.13389">
        <ele>217.88</ele>
        <time>2017-04-30T10:16:43Z</time>
      </trkpt>
      <trkpt lat="50.18702" lon="5.13414">
        <ele>216.43</ele>
        <time>2017-04-30T10:17:00Z</time>
      </trkpt>
      <trkpt lat="50.1869" lon="5.13435">
        <ele>214.51</ele>
        <time>2017-04-30T10:17:16Z</time>
      </trkpt>
      <trkpt lat="50.18683" lon="5.13452">
        <ele>213.07</ele>
        <time>2017-04-30T10:17:30Z</time>
      </trkpt>
      <trkpt lat="50.18679" lon="5.13458">
        <ele>213.07</ele>
        <time>2017-04-30T10:17:35Z</time>
      </trkpt>
      <trkpt lat="50.18668" lon="5.13483">
        <ele>212.59</ele>
        <time>2017-04-30T10:17:50Z</time>
      </trkpt>
      <trkpt lat="50.18658" lon="5.13507">
        <ele>211.63</ele>
        <time>2017-04-30T10:18:05Z</time>
      </trkpt>
      <trkpt lat="50.18646" lon="5.1353">
        <ele>211.63</ele>
        <time>2017-04-30T10:18:21Z</time>
      </trkpt>
      <trkpt lat="50.1863" lon="5.13551">
        <ele>211.15</ele>
        <time>2017-04-30T10:18:37Z</time>
      </trkpt>
      <trkpt lat="50.18617" lon="5.13569">
        <ele>210.67</ele>
        <time>2017-04-30T10:18:52Z</time>
      </trkpt>
      <trkpt lat="50.18601" lon="5.13586">
        <ele>210.67</ele>
        <time>2017-04-30T10:19:07Z</time>
      </trkpt>
      <trkpt lat="50.18589" lon="5.13603">
        <ele>210.67</ele>
        <time>2017-04-30T10:19:22Z</time>
      </trkpt>
      <trkpt lat="50.18581" lon="5.13625">
        <ele>211.63</ele>
        <time>2017-04-30T10:19:36Z</time>
      </trkpt>
      <trkpt lat="50.18575" lon="5.13652">
        <ele>212.11</ele>
        <time>2017-04-30T10:19:53Z</time>
      </trkpt>
      <trkpt lat="50.18568" lon="5.13677">
        <ele>213.07</ele>
        <time>2017-04-30T10:20:08Z</time>
      </trkpt>
      <trkpt lat="50.18561" lon="5.13701">
        <ele>213.55</ele>
        <time>2017-04-30T10:20:24Z</time>
      </trkpt>
      <trkpt lat="50.18553" lon="5.13721">
        <ele>214.99</ele>
        <time>2017-04-30T10:20:39Z</time>
      </trkpt>
      <trkpt lat="50.18545" lon="5.13744">
        <ele>216.43</ele>
        <time>2017-04-30T10:20:54Z</time>
      </trkpt>
      <trkpt lat="50.18539" lon="5.13768">
        <ele>217.4</ele>
        <time>2017-04-30T10:21:09Z</time>
      </trkpt>
      <trkpt lat="50.18532" lon="5.13788">
        <ele>217.4</ele>
        <time>2017-04-30T10:21:24Z</time>
      </trkpt>
      <trkpt lat="50.18525" lon="5.13817">
        <ele>215.47</ele>
        <time>2017-04-30T10:21:42Z</time>
      </trkpt>
      <trkpt lat="50.18517" lon="5.13852">
        <ele>214.51</ele>
        <time>2017-04-30T10:22:01Z</time>
      </trkpt>
      <trkpt lat="50.1851" lon="5.13881">
        <ele>213.07</ele>
        <time>2017-04-30T10:22:18Z</time>
      </trkpt>
      <trkpt lat="50.18503" lon="5.13905">
        <ele>210.67</ele>
        <time>2017-04-30T10:22:34Z</time>
      </trkpt>
      <trkpt lat="50.18495" lon="5.13932">
        <ele>209.22</ele>
        <time>2017-04-30T10:22:50Z</time>
      </trkpt>
      <trkpt lat="50.18489" lon="5.13957">
        <ele>207.3</ele>
        <time>2017-04-30T10:23:06Z</time>
      </trkpt>
      <trkpt lat="50.1848" lon="5.13977">
        <ele>206.82</ele>
        <time>2017-04-30T10:23:24Z</time>
      </trkpt>
      <trkpt lat="50.18477" lon="5.13987">
        <ele>205.38</ele>
        <time>2017-04-30T10:23:32Z</time>
      </trkpt>
      <trkpt lat="50.18467" lon="5.14017">
        <ele>202.01</ele>
        <time>2017-04-30T10:23:51Z</time>
      </trkpt>
      <trkpt lat="50.18458" lon="5.14044">
        <ele>201.53</ele>
        <time>2017-04-30T10:24:07Z</time>
      </trkpt>
      <trkpt lat="50.18452" lon="5.14071">
        <ele>200.09</ele>
        <time>2017-04-30T10:24:23Z</time>
      </trkpt>
      <trkpt lat="50.18443" lon="5.14101">
        <ele>198.65</ele>
        <time>2017-04-30T10:24:41Z</time>
      </trkpt>
      <trkpt lat="50.18441" lon="5.1411">
        <ele>198.65</ele>
        <time>2017-04-30T10:24:47Z</time>
      </trkpt>
      <trkpt lat="50.18431" lon="5.14137">
        <ele>197.69</ele>
        <time>2017-04-30T10:25:04Z</time>
      </trkpt>
      <trkpt lat="50.18425" lon="5.14158">
        <ele>196.25</ele>
        <time>2017-04-30T10:25:18Z</time>
      </trkpt>
      <trkpt lat="50.18419" lon="5.14177">
        <ele>194.8</ele>
        <time>2017-04-30T10:25:30Z</time>
      </trkpt>
      <trkpt lat="50.1841" lon="5.14202">
        <ele>193.36</ele>
        <time>2017-04-30T10:25:48Z</time>
      </trkpt>
      <trkpt lat="50.18401" lon="5.14231">
        <ele>191.92</ele>
        <time>2017-04-30T10:26:07Z</time>
      </trkpt>
      <trkpt lat="50.18393" lon="5.14255">
        <ele>190.48</ele>
        <time>2017-04-30T10:26:23Z</time>
      </trkpt>
      <trkpt lat="50.18381" lon="5.1427">
        <ele>189.04</ele>
        <time>2017-04-30T10:26:39Z</time>
      </trkpt>
      <trkpt lat="50.18378" lon="5.14278">
        <ele>188.56</ele>
        <time>2017-04-30T10:26:54Z</time>
      </trkpt>
      <trkpt lat="50.18371" lon="5.14284">
        <ele>188.56</ele>
        <time>2017-04-30T10:27:08Z</time>
      </trkpt>
      <trkpt lat="50.18358" lon="5.14294">
        <ele>186.63</ele>
        <time>2017-04-30T10:27:24Z</time>
      </trkpt>
      <trkpt lat="50.18356" lon="5.14295">
        <ele>186.63</ele>
        <time>2017-04-30T10:27:26Z</time>
      </trkpt>
      <trkpt lat="50.18335" lon="5.14302">
        <ele>186.15</ele>
        <time>2017-04-30T10:27:44Z</time>
      </trkpt>
      <trkpt lat="50.18331" lon="5.14303">
        <ele>186.15</ele>
        <time>2017-04-30T10:27:47Z</time>
      </trkpt>
      <trkpt lat="50.18313" lon="5.14309">
        <ele>184.71</ele>
        <time>2017-04-30T10:28:04Z</time>
      </trkpt>
      <trkpt lat="50.18293" lon="5.14316">
        <ele>184.71</ele>
        <time>2017-04-30T10:28:20Z</time>
      </trkpt>
      <trkpt lat="50.18284" lon="5.14313">
        <ele>184.71</ele>
        <time>2017-04-30T10:28:28Z</time>
      </trkpt>
      <trkpt lat="50.1828" lon="5.14313">
        <ele>184.71</ele>
        <time>2017-04-30T10:28:32Z</time>
      </trkpt>
      <trkpt lat="50.18262" lon="5.14302">
        <ele>184.23</ele>
        <time>2017-04-30T10:28:48Z</time>
      </trkpt>
      <trkpt lat="50.18245" lon="5.14295">
        <ele>182.31</ele>
        <time>2017-04-30T10:29:04Z</time>
      </trkpt>
      <trkpt lat="50.18234" lon="5.14295">
        <ele>182.31</ele>
        <time>2017-04-30T10:29:14Z</time>
      </trkpt>
      <trkpt lat="50.18229" lon="5.14296">
        <ele>182.31</ele>
        <time>2017-04-30T10:29:19Z</time>
      </trkpt>
      <trkpt lat="50.18225" lon="5.14296">
        <ele>182.31</ele>
        <time>2017-04-30T10:29:22Z</time>
      </trkpt>
      <trkpt lat="50.1821" lon="5.14303">
        <ele>180.87</ele>
        <time>2017-04-30T10:29:37Z</time>
      </trkpt>
      <trkpt lat="50.18209" lon="5.14299">
        <ele>180.87</ele>
        <time>2017-04-30T10:29:48Z</time>
      </trkpt>
      <trkpt lat="50.18207" lon="5.14296">
        <ele>180.87</ele>
        <time>2017-04-30T10:30:02Z</time>
      </trkpt>
      <trkpt lat="50.18203" lon="5.14302">
        <ele>180.87</ele>
        <time>2017-04-30T10:30:20Z</time>
      </trkpt>
      <trkpt lat="50.182" lon="5.14303">
        <ele>180.87</ele>
        <time>2017-04-30T10:30:24Z</time>
      </trkpt>
      <trkpt lat="50.18198" lon="5.14305">
        <ele>178.94</ele>
        <time>2017-04-30T10:30:26Z</time>
      </trkpt>
      <trkpt lat="50.18185" lon="5.14309">
        <ele>178.94</ele>
        <time>2017-04-30T10:30:38Z</time>
      </trkpt>
      <trkpt lat="50.18169" lon="5.14315">
        <ele>177.98</ele>
        <time>2017-04-30T10:30:52Z</time>
      </trkpt>
      <trkpt lat="50.18167" lon="5.14316">
        <ele>177.5</ele>
        <time>2017-04-30T10:30:54Z</time>
      </trkpt>
      <trkpt lat="50.18148" lon="5.14328">
        <ele>175.58</ele>
        <time>2017-04-30T10:31:10Z</time>
      </trkpt>
      <trkpt lat="50.18141" lon="5.14332">
        <ele>175.1</ele>
        <time>2017-04-30T10:31:20Z</time>
      </trkpt>
      <trkpt lat="50.18124" lon="5.14346">
        <ele>173.17</ele>
        <time>2017-04-30T10:31:36Z</time>
      </trkpt>
      <trkpt lat="50.18107" lon="5.1436">
        <ele>169.81</ele>
        <time>2017-04-30T10:31:52Z</time>
      </trkpt>
      <trkpt lat="50.18096" lon="5.14369">
        <ele>170.29</ele>
        <time>2017-04-30T10:32:04Z</time>
      </trkpt>
      <trkpt lat="50.18088" lon="5.14375">
        <ele>168.85</ele>
        <time>2017-04-30T10:32:12Z</time>
      </trkpt>
      <trkpt lat="50.18074" lon="5.14386">
        <ele>166.45</ele>
        <time>2017-04-30T10:32:26Z</time>
      </trkpt>
      <trkpt lat="50.1806" lon="5.14398">
        <ele>164.52</ele>
        <time>2017-04-30T10:32:41Z</time>
      </trkpt>
      <trkpt lat="50.18048" lon="5.1441">
        <ele>163.56</ele>
        <time>2017-04-30T10:32:56Z</time>
      </trkpt>
      <trkpt lat="50.18033" lon="5.14421">
        <ele>162.6</ele>
        <time>2017-04-30T10:33:11Z</time>
      </trkpt>
      <trkpt lat="50.18017" lon="5.1443">
        <ele>161.16</ele>
        <time>2017-04-30T10:33:26Z</time>
      </trkpt>
      <trkpt lat="50.18002" lon="5.14436">
        <ele>159.72</ele>
        <time>2017-04-30T10:33:40Z</time>
      </trkpt>
      <trkpt lat="50.17981" lon="5.14443">
        <ele>157.79</ele>
        <time>2017-04-30T10:33:58Z</time>
      </trkpt>
      <trkpt lat="50.17968" lon="5.14444">
        <ele>155.87</ele>
        <time>2017-04-30T10:34:13Z</time>
      </trkpt>
      <trkpt lat="50.17954" lon="5.14444">
        <ele>154.43</ele>
        <time>2017-04-30T10:34:27Z</time>
      </trkpt>
      <trkpt lat="50.17944" lon="5.14447">
        <ele>152.51</ele>
        <time>2017-04-30T10:34:38Z</time>
      </trkpt>
      <trkpt lat="50.17929" lon="5.14466">
        <ele>151.06</ele>
        <time>2017-04-30T10:34:56Z</time>
      </trkpt>
      <trkpt lat="50.17915" lon="5.14485">
        <ele>148.18</ele>
        <time>2017-04-30T10:35:14Z</time>
      </trkpt>
      <trkpt lat="50.17896" lon="5.14496">
        <ele>146.74</ele>
        <time>2017-04-30T10:35:29Z</time>
      </trkpt>
      <trkpt lat="50.1788" lon="5.14497">
        <ele>146.26</ele>
        <time>2017-04-30T10:35:43Z</time>
      </trkpt>
      <trkpt lat="50.17865" lon="5.14477">
        <ele>146.74</ele>
        <time>2017-04-30T10:35:59Z</time>
      </trkpt>
      <trkpt lat="50.17854" lon="5.14465">
        <ele>147.7</ele>
        <time>2017-04-30T10:36:11Z</time>
      </trkpt>
      <trkpt lat="50.17842" lon="5.14454">
        <ele>148.66</ele>
        <time>2017-04-30T10:36:30Z</time>
      </trkpt>
      <trkpt lat="50.17842" lon="5.14429">
        <ele>150.58</ele>
        <time>2017-04-30T10:36:47Z</time>
      </trkpt>
      <trkpt lat="50.17848" lon="5.14398">
        <ele>153.47</ele>
        <time>2017-04-30T10:37:06Z</time>
      </trkpt>
      <trkpt lat="50.17847" lon="5.1438">
        <ele>154.43</ele>
        <time>2017-04-30T10:37:19Z</time>
      </trkpt>
      <trkpt lat="50.1784" lon="5.14349">
        <ele>156.35</ele>
        <time>2017-04-30T10:37:36Z</time>
      </trkpt>
      <trkpt lat="50.17836" lon="5.14326">
        <ele>157.31</ele>
        <time>2017-04-30T10:37:50Z</time>
      </trkpt>
      <trkpt lat="50.17831" lon="5.14304">
        <ele>160.2</ele>
        <time>2017-04-30T10:38:07Z</time>
      </trkpt>
      <trkpt lat="50.17826" lon="5.14281">
        <ele>159.72</ele>
        <time>2017-04-30T10:38:22Z</time>
      </trkpt>
      <trkpt lat="50.17817" lon="5.1426">
        <ele>159.72</ele>
        <time>2017-04-30T10:38:38Z</time>
      </trkpt>
      <trkpt lat="50.17812" lon="5.14246">
        <ele>159.72</ele>
        <time>2017-04-30T10:38:48Z</time>
      </trkpt>
      <trkpt lat="50.17805" lon="5.14229">
        <ele>159.72</ele>
        <time>2017-04-30T10:38:59Z</time>
      </trkpt>
      <trkpt lat="50.17803" lon="5.14224">
        <ele>158.27</ele>
        <time>2017-04-30T10:39:02Z</time>
      </trkpt>
      <trkpt lat="50.17795" lon="5.14201">
        <ele>156.83</ele>
        <time>2017-04-30T10:39:18Z</time>
      </trkpt>
      <trkpt lat="50.17794" lon="5.14198">
        <ele>158.27</ele>
        <time>2017-04-30T10:39:20Z</time>
      </trkpt>
      <trkpt lat="50.17786" lon="5.14177">
        <ele>157.79</ele>
        <time>2017-04-30T10:39:35Z</time>
      </trkpt>
      <trkpt lat="50.17785" lon="5.14176">
        <ele>157.79</ele>
        <time>2017-04-30T10:39:36Z</time>
      </trkpt>
      <trkpt lat="50.17779" lon="5.14154">
        <ele>156.83</ele>
        <time>2017-04-30T10:39:49Z</time>
      </trkpt>
      <trkpt lat="50.1777" lon="5.14128">
        <ele>155.87</ele>
        <time>2017-04-30T10:40:04Z</time>
      </trkpt>
      <trkpt lat="50.17754" lon="5.14102">
        <ele>155.39</ele>
        <time>2017-04-30T10:40:22Z</time>
      </trkpt>
      <trkpt lat="50.17737" lon="5.14092">
        <ele>153.95</ele>
        <time>2017-04-30T10:40:38Z</time>
      </trkpt>
      <trkpt lat="50.17719" lon="5.14081">
        <ele>152.99</ele>
        <time>2017-04-30T10:40:54Z</time>
      </trkpt>
      <trkpt lat="50.17708" lon="5.14074">
        <ele>152.51</ele>
        <time>2017-04-30T10:41:10Z</time>
      </trkpt>
      <trkpt lat="50.17703" lon="5.14072">
        <ele>153.47</ele>
        <time>2017-04-30T10:41:15Z</time>
      </trkpt>
      <trkpt lat="50.17696" lon="5.14068">
        <ele>152.51</ele>
        <time>2017-04-30T10:41:22Z</time>
      </trkpt>
      <trkpt lat="50.17676" lon="5.14059">
        <ele>151.06</ele>
        <time>2017-04-30T10:41:39Z</time>
      </trkpt>
      <trkpt lat="50.17661" lon="5.14053">
        <ele>150.1</ele>
        <time>2017-04-30T10:41:56Z</time>
      </trkpt>
      <trkpt lat="50.17643" lon="5.14046">
        <ele>149.62</ele>
        <time>2017-04-30T10:42:11Z</time>
      </trkpt>
      <trkpt lat="50.17624" lon="5.14034">
        <ele>149.62</ele>
        <time>2017-04-30T10:42:28Z</time>
      </trkpt>
      <trkpt lat="50.17609" lon="5.1402">
        <ele>149.62</ele>
        <time>2017-04-30T10:42:44Z</time>
      </trkpt>
      <trkpt lat="50.17595" lon="5.13999">
        <ele>149.62</ele>
        <time>2017-04-30T10:43:00Z</time>
      </trkpt>
      <trkpt lat="50.17583" lon="5.13978">
        <ele>150.58</ele>
        <time>2017-04-30T10:43:16Z</time>
      </trkpt>
      <trkpt lat="50.17572" lon="5.13953">
        <ele>151.06</ele>
        <time>2017-04-30T10:43:32Z</time>
      </trkpt>
      <trkpt lat="50.17562" lon="5.13926">
        <ele>151.06</ele>
        <time>2017-04-30T10:43:48Z</time>
      </trkpt>
      <trkpt lat="50.17553" lon="5.13897">
        <ele>151.54</ele>
        <time>2017-04-30T10:44:05Z</time>
      </trkpt>
      <trkpt lat="50.17552" lon="5.13894">
        <ele>151.54</ele>
        <time>2017-04-30T10:44:07Z</time>
      </trkpt>
      <trkpt lat="50.17544" lon="5.13862">
        <ele>151.54</ele>
        <time>2017-04-30T10:44:25Z</time>
      </trkpt>
      <trkpt lat="50.17537" lon="5.13838">
        <ele>151.54</ele>
        <time>2017-04-30T10:44:40Z</time>
      </trkpt>
      <trkpt lat="50.17527" lon="5.13811">
        <ele>152.03</ele>
        <time>2017-04-30T10:44:57Z</time>
      </trkpt>
      <trkpt lat="50.17517" lon="5.1379">
        <ele>152.03</ele>
        <time>2017-04-30T10:45:13Z</time>
      </trkpt>
      <trkpt lat="50.17501" lon="5.13762">
        <ele>152.03</ele>
        <time>2017-04-30T10:45:32Z</time>
      </trkpt>
      <trkpt lat="50.17487" lon="5.13742">
        <ele>152.51</ele>
        <time>2017-04-30T10:45:48Z</time>
      </trkpt>
      <trkpt lat="50.17473" lon="5.13722">
        <ele>152.51</ele>
        <time>2017-04-30T10:46:06Z</time>
      </trkpt>
      <trkpt lat="50.1746" lon="5.13701">
        <ele>152.51</ele>
        <time>2017-04-30T10:46:21Z</time>
      </trkpt>
      <trkpt lat="50.17459" lon="5.13699">
        <ele>152.51</ele>
        <time>2017-04-30T10:46:22Z</time>
      </trkpt>
      <trkpt lat="50.17445" lon="5.13675">
        <ele>152.51</ele>
        <time>2017-04-30T10:46:39Z</time>
      </trkpt>
      <trkpt lat="50.17428" lon="5.13648">
        <ele>153.47</ele>
        <time>2017-04-30T10:46:59Z</time>
      </trkpt>
      <trkpt lat="50.17416" lon="5.13627">
        <ele>153.47</ele>
        <time>2017-04-30T10:47:15Z</time>
      </trkpt>
      <trkpt lat="50.17401" lon="5.13604">
        <ele>152.03</ele>
        <time>2017-04-30T10:47:32Z</time>
      </trkpt>
      <trkpt lat="50.1739" lon="5.13588">
        <ele>152.99</ele>
        <time>2017-04-30T10:47:45Z</time>
      </trkpt>
      <trkpt lat="50.17375" lon="5.13564">
        <ele>152.99</ele>
        <time>2017-04-30T10:48:02Z</time>
      </trkpt>
      <trkpt lat="50.17359" lon="5.13539">
        <ele>152.03</ele>
        <time>2017-04-30T10:48:21Z</time>
      </trkpt>
      <trkpt lat="50.17353" lon="5.13533">
        <ele>152.99</ele>
        <time>2017-04-30T10:48:27Z</time>
      </trkpt>
      <trkpt lat="50.17346" lon="5.13524">
        <ele>151.06</ele>
        <time>2017-04-30T10:48:35Z</time>
      </trkpt>
      <trkpt lat="50.17343" lon="5.13521">
        <ele>152.51</ele>
        <time>2017-04-30T10:48:38Z</time>
      </trkpt>
      <trkpt lat="50.17328" lon="5.13511">
        <ele>151.06</ele>
        <time>2017-04-30T10:48:51Z</time>
      </trkpt>
      <trkpt lat="50.17316" lon="5.13501">
        <ele>152.03</ele>
        <time>2017-04-30T10:49:02Z</time>
      </trkpt>
      <trkpt lat="50.17297" lon="5.13487">
        <ele>150.58</ele>
        <time>2017-04-30T10:49:20Z</time>
      </trkpt>
      <trkpt lat="50.17276" lon="5.1347">
        <ele>151.06</ele>
        <time>2017-04-30T10:49:39Z</time>
      </trkpt>
      <trkpt lat="50.17257" lon="5.13454">
        <ele>150.1</ele>
        <time>2017-04-30T10:49:58Z</time>
      </trkpt>
      <trkpt lat="50.17241" lon="5.13436">
        <ele>149.14</ele>
        <time>2017-04-30T10:50:15Z</time>
      </trkpt>
      <trkpt lat="50.17226" lon="5.13418">
        <ele>149.14</ele>
        <time>2017-04-30T10:50:30Z</time>
      </trkpt>
      <trkpt lat="50.17212" lon="5.134">
        <ele>149.14</ele>
        <time>2017-04-30T10:50:46Z</time>
      </trkpt>
      <trkpt lat="50.17196" lon="5.13381">
        <ele>148.18</ele>
        <time>2017-04-30T10:51:03Z</time>
      </trkpt>
      <trkpt lat="50.17176" lon="5.13356">
        <ele>147.22</ele>
        <time>2017-04-30T10:51:24Z</time>
      </trkpt>
      <trkpt lat="50.17162" lon="5.1334">
        <ele>147.22</ele>
        <time>2017-04-30T10:51:39Z</time>
      </trkpt>
      <trkpt lat="50.17149" lon="5.13323">
        <ele>146.26</ele>
        <time>2017-04-30T10:51:54Z</time>
      </trkpt>
      <trkpt lat="50.17138" lon="5.13307">
        <ele>146.26</ele>
        <time>2017-04-30T10:52:09Z</time>
      </trkpt>
      <trkpt lat="50.17124" lon="5.13289">
        <ele>146.26</ele>
        <time>2017-04-30T10:52:23Z</time>
      </trkpt>
      <trkpt lat="50.1711" lon="5.13273">
        <ele>146.26</ele>
        <time>2017-04-30T10:52:39Z</time>
      </trkpt>
      <trkpt lat="50.17099" lon="5.13261">
        <ele>146.26</ele>
        <time>2017-04-30T10:52:52Z</time>
      </trkpt>
      <trkpt lat="50.17096" lon="5.13257">
        <ele>147.7</ele>
        <time>2017-04-30T10:52:55Z</time>
      </trkpt>
      <trkpt lat="50.17094" lon="5.13254">
        <ele>147.7</ele>
        <time>2017-04-30T10:52:58Z</time>
      </trkpt>
      <trkpt lat="50.17079" lon="5.13234">
        <ele>148.18</ele>
        <time>2017-04-30T10:53:14Z</time>
      </trkpt>
      <trkpt lat="50.17063" lon="5.13217">
        <ele>148.18</ele>
        <time>2017-04-30T10:53:29Z</time>
      </trkpt>
      <trkpt lat="50.17047" lon="5.132">
        <ele>149.14</ele>
        <time>2017-04-30T10:53:45Z</time>
      </trkpt>
      <trkpt lat="50.17027" lon="5.13177">
        <ele>149.62</ele>
        <time>2017-04-30T10:54:06Z</time>
      </trkpt>
      <trkpt lat="50.17011" lon="5.13157">
        <ele>150.1</ele>
        <time>2017-04-30T10:54:24Z</time>
      </trkpt>
      <trkpt lat="50.16997" lon="5.1314">
        <ele>150.1</ele>
        <time>2017-04-30T10:54:40Z</time>
      </trkpt>
      <trkpt lat="50.16985" lon="5.13125">
        <ele>150.1</ele>
        <time>2017-04-30T10:54:54Z</time>
      </trkpt>
      <trkpt lat="50.16978" lon="5.13116">
        <ele>148.66</ele>
        <time>2017-04-30T10:55:02Z</time>
      </trkpt>
      <trkpt lat="50.16964" lon="5.13097">
        <ele>147.22</ele>
        <time>2017-04-30T10:55:19Z</time>
      </trkpt>
      <trkpt lat="50.1695" lon="5.13081">
        <ele>145.78</ele>
        <time>2017-04-30T10:55:36Z</time>
      </trkpt>
      <trkpt lat="50.16944" lon="5.13078">
        <ele>145.3</ele>
        <time>2017-04-30T10:55:53Z</time>
      </trkpt>
      <trkpt lat="50.1694" lon="5.13068">
        <ele>145.3</ele>
        <time>2017-04-30T10:56:00Z</time>
      </trkpt>
      <trkpt lat="50.16938" lon="5.13061">
        <ele>146.74</ele>
        <time>2017-04-30T10:56:04Z</time>
      </trkpt>
      <trkpt lat="50.16932" lon="5.13042">
        <ele>145.78</ele>
        <time>2017-04-30T10:56:16Z</time>
      </trkpt>
      <trkpt lat="50.16928" lon="5.13021">
        <ele>144.34</ele>
        <time>2017-04-30T10:56:30Z</time>
      </trkpt>
      <trkpt lat="50.16929" lon="5.12993">
        <ele>143.37</ele>
        <time>2017-04-30T10:56:46Z</time>
      </trkpt>
      <trkpt lat="50.16931" lon="5.12967">
        <ele>142.89</ele>
        <time>2017-04-30T10:57:04Z</time>
      </trkpt>
      <trkpt lat="50.16934" lon="5.12943">
        <ele>142.89</ele>
        <time>2017-04-30T10:57:20Z</time>
      </trkpt>
      <trkpt lat="50.16935" lon="5.12909">
        <ele>142.89</ele>
        <time>2017-04-30T10:57:37Z</time>
      </trkpt>
      <trkpt lat="50.16937" lon="5.12879">
        <ele>142.41</ele>
        <time>2017-04-30T10:57:51Z</time>
      </trkpt>
      <trkpt lat="50.16942" lon="5.12854">
        <ele>141.93</ele>
        <time>2017-04-30T10:58:09Z</time>
      </trkpt>
      <trkpt lat="50.1694" lon="5.12825">
        <ele>142.89</ele>
        <time>2017-04-30T10:58:23Z</time>
      </trkpt>
      <trkpt lat="50.16939" lon="5.12798">
        <ele>142.41</ele>
        <time>2017-04-30T10:58:38Z</time>
      </trkpt>
      <trkpt lat="50.1694" lon="5.12774">
        <ele>142.41</ele>
        <time>2017-04-30T10:58:54Z</time>
      </trkpt>
      <trkpt lat="50.16937" lon="5.12748">
        <ele>142.41</ele>
        <time>2017-04-30T10:59:10Z</time>
      </trkpt>
      <trkpt lat="50.16934" lon="5.12723">
        <ele>143.37</ele>
        <time>2017-04-30T10:59:25Z</time>
      </trkpt>
      <trkpt lat="50.16924" lon="5.12692">
        <ele>143.37</ele>
        <time>2017-04-30T10:59:42Z</time>
      </trkpt>
      <trkpt lat="50.16918" lon="5.12667">
        <ele>144.82</ele>
        <time>2017-04-30T10:59:57Z</time>
      </trkpt>
      <trkpt lat="50.16911" lon="5.12651">
        <ele>144.82</ele>
        <time>2017-04-30T11:00:09Z</time>
      </trkpt>
      <trkpt lat="50.16903" lon="5.12631">
        <ele>146.26</ele>
        <time>2017-04-30T11:00:24Z</time>
      </trkpt>
      <trkpt lat="50.16896" lon="5.12611">
        <ele>146.26</ele>
        <time>2017-04-30T11:00:40Z</time>
      </trkpt>
      <trkpt lat="50.16884" lon="5.12584">
        <ele>147.22</ele>
        <time>2017-04-30T11:00:56Z</time>
      </trkpt>
      <trkpt lat="50.16875" lon="5.12562">
        <ele>147.7</ele>
        <time>2017-04-30T11:01:11Z</time>
      </trkpt>
      <trkpt lat="50.16864" lon="5.12536">
        <ele>147.7</ele>
        <time>2017-04-30T11:01:25Z</time>
      </trkpt>
      <trkpt lat="50.1686" lon="5.12528">
        <ele>146.26</ele>
        <time>2017-04-30T11:01:30Z</time>
      </trkpt>
      <trkpt lat="50.1685" lon="5.12509">
        <ele>146.26</ele>
        <time>2017-04-30T11:01:43Z</time>
      </trkpt>
      <trkpt lat="50.16839" lon="5.1249">
        <ele>145.3</ele>
        <time>2017-04-30T11:01:57Z</time>
      </trkpt>
      <trkpt lat="50.16838" lon="5.12487">
        <ele>145.3</ele>
        <time>2017-04-30T11:02:00Z</time>
      </trkpt>
      <trkpt lat="50.16825" lon="5.12472">
        <ele>143.37</ele>
        <time>2017-04-30T11:02:17Z</time>
      </trkpt>
      <trkpt lat="50.16824" lon="5.12472">
        <ele>142.89</ele>
        <time>2017-04-30T11:02:18Z</time>
      </trkpt>
      <trkpt lat="50.16808" lon="5.12457">
        <ele>142.89</ele>
        <time>2017-04-30T11:02:33Z</time>
      </trkpt>
      <trkpt lat="50.16784" lon="5.12437">
        <ele>142.89</ele>
        <time>2017-04-30T11:02:53Z</time>
      </trkpt>
      <trkpt lat="50.16767" lon="5.12421">
        <ele>142.89</ele>
        <time>2017-04-30T11:03:11Z</time>
      </trkpt>
      <trkpt lat="50.16753" lon="5.12408">
        <ele>142.89</ele>
        <time>2017-04-30T11:03:25Z</time>
      </trkpt>
      <trkpt lat="50.1674" lon="5.12394">
        <ele>144.34</ele>
        <time>2017-04-30T11:03:37Z</time>
      </trkpt>
      <trkpt lat="50.16729" lon="5.12376">
        <ele>145.3</ele>
        <time>2017-04-30T11:03:52Z</time>
      </trkpt>
      <trkpt lat="50.16722" lon="5.12363">
        <ele>146.26</ele>
        <time>2017-04-30T11:04:02Z</time>
      </trkpt>
      <trkpt lat="50.16713" lon="5.12337">
        <ele>146.26</ele>
        <time>2017-04-30T11:04:18Z</time>
      </trkpt>
      <trkpt lat="50.16709" lon="5.12325">
        <ele>146.26</ele>
        <time>2017-04-30T11:04:26Z</time>
      </trkpt>
      <trkpt lat="50.16706" lon="5.12316">
        <ele>146.26</ele>
        <time>2017-04-30T11:04:31Z</time>
      </trkpt>
      <trkpt lat="50.16702" lon="5.12309">
        <ele>146.26</ele>
        <time>2017-04-30T11:04:36Z</time>
      </trkpt>
      <trkpt lat="50.16693" lon="5.12291">
        <ele>146.26</ele>
        <time>2017-04-30T11:04:49Z</time>
      </trkpt>
      <trkpt lat="50.16682" lon="5.12265">
        <ele>146.74</ele>
        <time>2017-04-30T11:05:06Z</time>
      </trkpt>
      <trkpt lat="50.16672" lon="5.12243">
        <ele>146.74</ele>
        <time>2017-04-30T11:05:21Z</time>
      </trkpt>
      <trkpt lat="50.1666" lon="5.12216">
        <ele>146.74</ele>
        <time>2017-04-30T11:05:39Z</time>
      </trkpt>
      <trkpt lat="50.16651" lon="5.12197">
        <ele>145.78</ele>
        <time>2017-04-30T11:05:51Z</time>
      </trkpt>
      <trkpt lat="50.16641" lon="5.12172">
        <ele>145.78</ele>
        <time>2017-04-30T11:06:07Z</time>
      </trkpt>
      <trkpt lat="50.16631" lon="5.12147">
        <ele>144.82</ele>
        <time>2017-04-30T11:06:24Z</time>
      </trkpt>
      <trkpt lat="50.16622" lon="5.12125">
        <ele>144.34</ele>
        <time>2017-04-30T11:06:38Z</time>
      </trkpt>
      <trkpt lat="50.16622" lon="5.12124">
        <ele>144.34</ele>
        <time>2017-04-30T11:06:39Z</time>
      </trkpt>
      <trkpt lat="50.16613" lon="5.12103">
        <ele>144.34</ele>
        <time>2017-04-30T11:06:53Z</time>
      </trkpt>
      <trkpt lat="50.16604" lon="5.12081">
        <ele>143.85</ele>
        <time>2017-04-30T11:07:08Z</time>
      </trkpt>
      <trkpt lat="50.16601" lon="5.12075">
        <ele>143.85</ele>
        <time>2017-04-30T11:07:12Z</time>
      </trkpt>
      <trkpt lat="50.16594" lon="5.12051">
        <ele>145.3</ele>
        <time>2017-04-30T11:07:26Z</time>
      </trkpt>
      <trkpt lat="50.16589" lon="5.12037">
        <ele>145.3</ele>
        <time>2017-04-30T11:07:34Z</time>
      </trkpt>
      <trkpt lat="50.16585" lon="5.12027">
        <ele>145.3</ele>
        <time>2017-04-30T11:07:40Z</time>
      </trkpt>
      <trkpt lat="50.16574" lon="5.12005">
        <ele>143.37</ele>
        <time>2017-04-30T11:07:56Z</time>
      </trkpt>
      <trkpt lat="50.16563" lon="5.11984">
        <ele>142.89</ele>
        <time>2017-04-30T11:08:11Z</time>
      </trkpt>
      <trkpt lat="50.16552" lon="5.11962">
        <ele>142.41</ele>
        <time>2017-04-30T11:08:25Z</time>
      </trkpt>
      <trkpt lat="50.16539" lon="5.11944">
        <ele>141.45</ele>
        <time>2017-04-30T11:08:40Z</time>
      </trkpt>
      <trkpt lat="50.16528" lon="5.11922">
        <ele>141.93</ele>
        <time>2017-04-30T11:08:56Z</time>
      </trkpt>
      <trkpt lat="50.16523" lon="5.119">
        <ele>143.37</ele>
        <time>2017-04-30T11:09:10Z</time>
      </trkpt>
      <trkpt lat="50.16519" lon="5.11872">
        <ele>144.82</ele>
        <time>2017-04-30T11:09:27Z</time>
      </trkpt>
      <trkpt lat="50.16515" lon="5.11845">
        <ele>146.26</ele>
        <time>2017-04-30T11:09:44Z</time>
      </trkpt>
      <trkpt lat="50.16515" lon="5.11836">
        <ele>147.22</ele>
        <time>2017-04-30T11:09:49Z</time>
      </trkpt>
      <trkpt lat="50.1651" lon="5.11825">
        <ele>147.22</ele>
        <time>2017-04-30T11:10:02Z</time>
      </trkpt>
      <trkpt lat="50.16507" lon="5.11822">
        <ele>146.74</ele>
        <time>2017-04-30T11:10:06Z</time>
      </trkpt>
      <trkpt lat="50.16505" lon="5.11819">
        <ele>146.74</ele>
        <time>2017-04-30T11:10:09Z</time>
      </trkpt>
      <trkpt lat="50.16493" lon="5.11803">
        <ele>143.85</ele>
        <time>2017-04-30T11:10:24Z</time>
      </trkpt>
      <trkpt lat="50.16488" lon="5.1179">
        <ele>142.89</ele>
        <time>2017-04-30T11:10:33Z</time>
      </trkpt>
      <trkpt lat="50.16482" lon="5.11775">
        <ele>143.37</ele>
        <time>2017-04-30T11:10:43Z</time>
      </trkpt>
      <trkpt lat="50.16465" lon="5.11761">
        <ele>141.45</ele>
        <time>2017-04-30T11:10:59Z</time>
      </trkpt>
      <trkpt lat="50.16453" lon="5.11755">
        <ele>140.97</ele>
        <time>2017-04-30T11:11:12Z</time>
      </trkpt>
      <trkpt lat="50.1645" lon="5.11752">
        <ele>140.01</ele>
        <time>2017-04-30T11:11:15Z</time>
      </trkpt>
      <trkpt lat="50.16439" lon="5.11738">
        <ele>139.53</ele>
        <time>2017-04-30T11:11:30Z</time>
      </trkpt>
      <trkpt lat="50.16428" lon="5.11723">
        <ele>139.53</ele>
        <time>2017-04-30T11:11:43Z</time>
      </trkpt>
      <trkpt lat="50.16425" lon="5.11717">
        <ele>140.49</ele>
        <time>2017-04-30T11:11:50Z</time>
      </trkpt>
      <trkpt lat="50.16415" lon="5.11705">
        <ele>141.45</ele>
        <time>2017-04-30T11:12:05Z</time>
      </trkpt>
      <trkpt lat="50.16402" lon="5.11687">
        <ele>141.93</ele>
        <time>2017-04-30T11:12:20Z</time>
      </trkpt>
      <trkpt lat="50.16385" lon="5.11658">
        <ele>142.41</ele>
        <time>2017-04-30T11:12:36Z</time>
      </trkpt>
      <trkpt lat="50.16379" lon="5.11639">
        <ele>144.34</ele>
        <time>2017-04-30T11:12:51Z</time>
      </trkpt>
      <trkpt lat="50.16378" lon="5.11638">
        <ele>142.89</ele>
        <time>2017-04-30T11:13:02Z</time>
      </trkpt>
      <trkpt lat="50.16378" lon="5.11638">
        <ele>144.34</ele>
        <time>2017-04-30T11:13:06Z</time>
      </trkpt>
      <trkpt lat="50.16378" lon="5.11635">
        <ele>143.37</ele>
        <time>2017-04-30T11:13:28Z</time>
      </trkpt>
      <trkpt lat="50.1638" lon="5.11638">
        <ele>142.89</ele>
        <time>2017-04-30T11:13:50Z</time>
      </trkpt>
      <trkpt lat="50.16378" lon="5.11632">
        <ele>144.34</ele>
        <time>2017-04-30T11:14:12Z</time>
      </trkpt>
      <trkpt lat="50.16377" lon="5.11621">
        <ele>144.34</ele>
        <time>2017-04-30T11:14:19Z</time>
      </trkpt>
      <trkpt lat="50.16375" lon="5.11607">
        <ele>144.34</ele>
        <time>2017-04-30T11:14:32Z</time>
      </trkpt>
      <trkpt lat="50.16369" lon="5.11601">
        <ele>144.34</ele>
        <time>2017-04-30T11:14:44Z</time>
      </trkpt>
      <trkpt lat="50.16361" lon="5.11594">
        <ele>143.37</ele>
        <time>2017-04-30T11:14:53Z</time>
      </trkpt>
      <trkpt lat="50.16346" lon="5.1158">
        <ele>141.93</ele>
        <time>2017-04-30T11:15:06Z</time>
      </trkpt>
      <trkpt lat="50.16332" lon="5.11568">
        <ele>140.01</ele>
        <time>2017-04-30T11:15:21Z</time>
      </trkpt>
      <trkpt lat="50.1632" lon="5.11556">
        <ele>137.61</ele>
        <time>2017-04-30T11:15:37Z</time>
      </trkpt>
      <trkpt lat="50.16312" lon="5.1154">
        <ele>137.61</ele>
        <time>2017-04-30T11:15:53Z</time>
      </trkpt>
      <trkpt lat="50.16301" lon="5.11518">
        <ele>137.13</ele>
        <time>2017-04-30T11:16:12Z</time>
      </trkpt>
      <trkpt lat="50.1629" lon="5.11491">
        <ele>137.13</ele>
        <time>2017-04-30T11:16:27Z</time>
      </trkpt>
      <trkpt lat="50.16281" lon="5.11475">
        <ele>137.13</ele>
        <time>2017-04-30T11:16:47Z</time>
      </trkpt>
      <trkpt lat="50.16277" lon="5.11456">
        <ele>136.64</ele>
        <time>2017-04-30T11:17:03Z</time>
      </trkpt>
      <trkpt lat="50.16268" lon="5.1143">
        <ele>137.61</ele>
        <time>2017-04-30T11:17:21Z</time>
      </trkpt>
      <trkpt lat="50.1626" lon="5.11407">
        <ele>137.61</ele>
        <time>2017-04-30T11:17:36Z</time>
      </trkpt>
      <trkpt lat="50.16254" lon="5.11389">
        <ele>136.16</ele>
        <time>2017-04-30T11:17:50Z</time>
      </trkpt>
      <trkpt lat="50.16245" lon="5.11372">
        <ele>135.68</ele>
        <time>2017-04-30T11:18:05Z</time>
      </trkpt>
      <trkpt lat="50.16245" lon="5.11352">
        <ele>135.2</ele>
        <time>2017-04-30T11:18:20Z</time>
      </trkpt>
      <trkpt lat="50.16244" lon="5.11338">
        <ele>136.64</ele>
        <time>2017-04-30T11:18:37Z</time>
      </trkpt>
      <trkpt lat="50.16239" lon="5.11333">
        <ele>136.64</ele>
        <time>2017-04-30T11:19:01Z</time>
      </trkpt>
      <trkpt lat="50.16239" lon="5.11324">
        <ele>136.64</ele>
        <time>2017-04-30T11:19:28Z</time>
      </trkpt>
      <trkpt lat="50.16236" lon="5.11326">
        <ele>137.13</ele>
        <time>2017-04-30T11:19:52Z</time>
      </trkpt>
      <trkpt lat="50.16235" lon="5.11334">
        <ele>137.13</ele>
        <time>2017-04-30T11:20:13Z</time>
      </trkpt>
      <trkpt lat="50.16227" lon="5.11328">
        <ele>136.64</ele>
        <time>2017-04-30T11:20:34Z</time>
      </trkpt>
      <trkpt lat="50.16228" lon="5.11331">
        <ele>136.64</ele>
        <time>2017-04-30T11:20:52Z</time>
      </trkpt>
      <trkpt lat="50.16228" lon="5.11327">
        <ele>136.64</ele>
        <time>2017-04-30T11:21:09Z</time>
      </trkpt>
      <trkpt lat="50.16233" lon="5.11327">
        <ele>136.16</ele>
        <time>2017-04-30T11:21:31Z</time>
      </trkpt>
      <trkpt lat="50.1624" lon="5.11319">
        <ele>135.2</ele>
        <time>2017-04-30T11:21:47Z</time>
      </trkpt>
      <trkpt lat="50.16253" lon="5.11303">
        <ele>136.16</ele>
        <time>2017-04-30T11:22:02Z</time>
      </trkpt>
      <trkpt lat="50.16273" lon="5.11278">
        <ele>136.16</ele>
        <time>2017-04-30T11:22:24Z</time>
      </trkpt>
      <trkpt lat="50.1629" lon="5.11254">
        <ele>136.16</ele>
        <time>2017-04-30T11:22:43Z</time>
      </trkpt>
      <trkpt lat="50.16308" lon="5.1123">
        <ele>136.16</ele>
        <time>2017-04-30T11:23:02Z</time>
      </trkpt>
      <trkpt lat="50.16326" lon="5.11202">
        <ele>136.16</ele>
        <time>2017-04-30T11:23:22Z</time>
      </trkpt>
      <trkpt lat="50.16344" lon="5.11173">
        <ele>136.16</ele>
        <time>2017-04-30T11:23:40Z</time>
      </trkpt>
      <trkpt lat="50.1636" lon="5.11151">
        <ele>135.68</ele>
        <time>2017-04-30T11:23:59Z</time>
      </trkpt>
      <trkpt lat="50.16377" lon="5.11124">
        <ele>135.68</ele>
        <time>2017-04-30T11:24:18Z</time>
      </trkpt>
      <trkpt lat="50.16391" lon="5.11108">
        <ele>136.16</ele>
        <time>2017-04-30T11:24:33Z</time>
      </trkpt>
      <trkpt lat="50.16412" lon="5.11086">
        <ele>137.13</ele>
        <time>2017-04-30T11:24:53Z</time>
      </trkpt>
      <trkpt lat="50.16425" lon="5.11062">
        <ele>137.61</ele>
        <time>2017-04-30T11:25:12Z</time>
      </trkpt>
      <trkpt lat="50.16426" lon="5.11062">
        <ele>137.61</ele>
        <time>2017-04-30T11:25:16Z</time>
      </trkpt>
      <trkpt lat="50.16436" lon="5.11049">
        <ele>137.61</ele>
        <time>2017-04-30T11:25:27Z</time>
      </trkpt>
      <trkpt lat="50.16443" lon="5.11042">
        <ele>137.61</ele>
        <time>2017-04-30T11:25:33Z</time>
      </trkpt>
      <trkpt lat="50.1645" lon="5.11033">
        <ele>137.61</ele>
        <time>2017-04-30T11:25:40Z</time>
      </trkpt>
      <trkpt lat="50.16464" lon="5.11013">
        <ele>137.61</ele>
        <time>2017-04-30T11:25:55Z</time>
      </trkpt>
      <trkpt lat="50.16475" lon="5.10992">
        <ele>136.64</ele>
        <time>2017-04-30T11:26:11Z</time>
      </trkpt>
      <trkpt lat="50.16487" lon="5.10979">
        <ele>136.16</ele>
        <time>2017-04-30T11:26:30Z</time>
      </trkpt>
      <trkpt lat="50.16501" lon="5.10959">
        <ele>135.68</ele>
        <time>2017-04-30T11:26:48Z</time>
      </trkpt>
      <trkpt lat="50.16514" lon="5.10945">
        <ele>135.68</ele>
        <time>2017-04-30T11:27:03Z</time>
      </trkpt>
      <trkpt lat="50.16516" lon="5.10938">
        <ele>135.68</ele>
        <time>2017-04-30T11:27:20Z</time>
      </trkpt>
      <trkpt lat="50.16518" lon="5.10933">
        <ele>135.68</ele>
        <time>2017-04-30T11:27:44Z</time>
      </trkpt>
      <trkpt lat="50.16515" lon="5.10945">
        <ele>135.68</ele>
        <time>2017-04-30T11:28:09Z</time>
      </trkpt>
      <trkpt lat="50.16514" lon="5.10951">
        <ele>134.72</ele>
        <time>2017-04-30T11:28:40Z</time>
      </trkpt>
      <trkpt lat="50.1652" lon="5.10945">
        <ele>134.72</ele>
        <time>2017-04-30T11:29:05Z</time>
      </trkpt>
      <trkpt lat="50.16524" lon="5.10939">
        <ele>134.72</ele>
        <time>2017-04-30T11:29:30Z</time>
      </trkpt>
      <trkpt lat="50.16526" lon="5.10932">
        <ele>134.72</ele>
        <time>2017-04-30T11:29:45Z</time>
      </trkpt>
      <trkpt lat="50.16529" lon="5.10918">
        <ele>134.72</ele>
        <time>2017-04-30T11:29:58Z</time>
      </trkpt>
      <trkpt lat="50.1653" lon="5.10915">
        <ele>134.72</ele>
        <time>2017-04-30T11:30:01Z</time>
      </trkpt>
      <trkpt lat="50.16535" lon="5.10895">
        <ele>136.16</ele>
        <time>2017-04-30T11:30:15Z</time>
      </trkpt>
      <trkpt lat="50.1654" lon="5.10866">
        <ele>137.13</ele>
        <time>2017-04-30T11:30:33Z</time>
      </trkpt>
      <trkpt lat="50.16542" lon="5.1083">
        <ele>135.68</ele>
        <time>2017-04-30T11:30:51Z</time>
      </trkpt>
      <trkpt lat="50.16546" lon="5.10796">
        <ele>134.72</ele>
        <time>2017-04-30T11:31:10Z</time>
      </trkpt>
      <trkpt lat="50.16552" lon="5.10775">
        <ele>134.24</ele>
        <time>2017-04-30T11:31:25Z</time>
      </trkpt>
      <trkpt lat="50.16557" lon="5.1075">
        <ele>134.72</ele>
        <time>2017-04-30T11:31:42Z</time>
      </trkpt>
      <trkpt lat="50.16563" lon="5.10718">
        <ele>134.24</ele>
        <time>2017-04-30T11:31:58Z</time>
      </trkpt>
      <trkpt lat="50.16569" lon="5.10691">
        <ele>134.24</ele>
        <time>2017-04-30T11:32:14Z</time>
      </trkpt>
      <trkpt lat="50.16578" lon="5.10657">
        <ele>134.24</ele>
        <time>2017-04-30T11:32:32Z</time>
      </trkpt>
      <trkpt lat="50.16581" lon="5.10621">
        <ele>133.76</ele>
        <time>2017-04-30T11:32:49Z</time>
      </trkpt>
      <trkpt lat="50.16583" lon="5.10606">
        <ele>133.76</ele>
        <time>2017-04-30T11:32:58Z</time>
      </trkpt>
      <trkpt lat="50.16586" lon="5.10574">
        <ele>133.28</ele>
        <time>2017-04-30T11:33:16Z</time>
      </trkpt>
      <trkpt lat="50.16588" lon="5.1056">
        <ele>133.28</ele>
        <time>2017-04-30T11:33:24Z</time>
      </trkpt>
      <trkpt lat="50.1659" lon="5.10529">
        <ele>133.28</ele>
        <time>2017-04-30T11:33:40Z</time>
      </trkpt>
      <trkpt lat="50.16591" lon="5.10504">
        <ele>133.28</ele>
        <time>2017-04-30T11:33:51Z</time>
      </trkpt>
      <trkpt lat="50.16592" lon="5.1049">
        <ele>133.28</ele>
        <time>2017-04-30T11:34:01Z</time>
      </trkpt>
      <trkpt lat="50.16594" lon="5.10459">
        <ele>132.8</ele>
        <time>2017-04-30T11:34:18Z</time>
      </trkpt>
      <trkpt lat="50.16595" lon="5.10446">
        <ele>132.8</ele>
        <time>2017-04-30T11:34:25Z</time>
      </trkpt>
      <trkpt lat="50.16598" lon="5.10422">
        <ele>134.24</ele>
        <time>2017-04-30T11:34:38Z</time>
      </trkpt>
      <trkpt lat="50.16599" lon="5.104">
        <ele>133.76</ele>
        <time>2017-04-30T11:34:50Z</time>
      </trkpt>
      <trkpt lat="50.16599" lon="5.10372">
        <ele>133.76</ele>
        <time>2017-04-30T11:35:02Z</time>
      </trkpt>
      <trkpt lat="50.16602" lon="5.10346">
        <ele>133.76</ele>
        <time>2017-04-30T11:35:16Z</time>
      </trkpt>
      <trkpt lat="50.16601" lon="5.1032">
        <ele>134.24</ele>
        <time>2017-04-30T11:35:31Z</time>
      </trkpt>
      <trkpt lat="50.16601" lon="5.10318">
        <ele>134.24</ele>
        <time>2017-04-30T11:35:32Z</time>
      </trkpt>
      <trkpt lat="50.16597" lon="5.10294">
        <ele>134.24</ele>
        <time>2017-04-30T11:35:46Z</time>
      </trkpt>
      <trkpt lat="50.16593" lon="5.10269">
        <ele>134.72</ele>
        <time>2017-04-30T11:35:59Z</time>
      </trkpt>
      <trkpt lat="50.1659" lon="5.10255">
        <ele>134.72</ele>
        <time>2017-04-30T11:36:08Z</time>
      </trkpt>
      <trkpt lat="50.16588" lon="5.10233">
        <ele>135.2</ele>
        <time>2017-04-30T11:36:24Z</time>
      </trkpt>
      <trkpt lat="50.16584" lon="5.10205">
        <ele>133.76</ele>
        <time>2017-04-30T11:36:39Z</time>
      </trkpt>
      <trkpt lat="50.1658" lon="5.10177">
        <ele>132.8</ele>
        <time>2017-04-30T11:36:53Z</time>
      </trkpt>
      <trkpt lat="50.16574" lon="5.10154">
        <ele>131.84</ele>
        <time>2017-04-30T11:37:05Z</time>
      </trkpt>
      <trkpt lat="50.16569" lon="5.10124">
        <ele>131.84</ele>
        <time>2017-04-30T11:37:22Z</time>
      </trkpt>
      <trkpt lat="50.16564" lon="5.10096">
        <ele>131.36</ele>
        <time>2017-04-30T11:37:39Z</time>
      </trkpt>
      <trkpt lat="50.16556" lon="5.1006">
        <ele>131.36</ele>
        <time>2017-04-30T11:37:55Z</time>
      </trkpt>
      <trkpt lat="50.1655" lon="5.10034">
        <ele>131.36</ele>
        <time>2017-04-30T11:38:10Z</time>
      </trkpt>
      <trkpt lat="50.16547" lon="5.10013">
        <ele>130.88</ele>
        <time>2017-04-30T11:38:25Z</time>
      </trkpt>
      <trkpt lat="50.16546" lon="5.09986">
        <ele>130.4</ele>
        <time>2017-04-30T11:38:41Z</time>
      </trkpt>
      <trkpt lat="50.16543" lon="5.09961">
        <ele>130.4</ele>
        <time>2017-04-30T11:38:57Z</time>
      </trkpt>
      <trkpt lat="50.16537" lon="5.09925">
        <ele>128.95</ele>
        <time>2017-04-30T11:39:15Z</time>
      </trkpt>
      <trkpt lat="50.16534" lon="5.09901">
        <ele>127.99</ele>
        <time>2017-04-30T11:39:29Z</time>
      </trkpt>
      <trkpt lat="50.16527" lon="5.09869">
        <ele>129.43</ele>
        <time>2017-04-30T11:39:44Z</time>
      </trkpt>
      <trkpt lat="50.16516" lon="5.09837">
        <ele>129.43</ele>
        <time>2017-04-30T11:40:01Z</time>
      </trkpt>
      <trkpt lat="50.16505" lon="5.09807">
        <ele>129.92</ele>
        <time>2017-04-30T11:40:17Z</time>
      </trkpt>
      <trkpt lat="50.16501" lon="5.09792">
        <ele>130.88</ele>
        <time>2017-04-30T11:40:30Z</time>
      </trkpt>
      <trkpt lat="50.16492" lon="5.09769">
        <ele>131.36</ele>
        <time>2017-04-30T11:40:45Z</time>
      </trkpt>
      <trkpt lat="50.16486" lon="5.09745">
        <ele>131.36</ele>
        <time>2017-04-30T11:41:00Z</time>
      </trkpt>
      <trkpt lat="50.16484" lon="5.09739">
        <ele>129.92</ele>
        <time>2017-04-30T11:41:04Z</time>
      </trkpt>
      <trkpt lat="50.16477" lon="5.09717">
        <ele>129.43</ele>
        <time>2017-04-30T11:41:18Z</time>
      </trkpt>
      <trkpt lat="50.16472" lon="5.09704">
        <ele>129.43</ele>
        <time>2017-04-30T11:41:30Z</time>
      </trkpt>
      <trkpt lat="50.16461" lon="5.09683">
        <ele>129.43</ele>
        <time>2017-04-30T11:41:46Z</time>
      </trkpt>
      <trkpt lat="50.16454" lon="5.09667">
        <ele>129.43</ele>
        <time>2017-04-30T11:41:58Z</time>
      </trkpt>
      <trkpt lat="50.16446" lon="5.0964">
        <ele>130.4</ele>
        <time>2017-04-30T11:42:14Z</time>
      </trkpt>
      <trkpt lat="50.16441" lon="5.09624">
        <ele>130.88</ele>
        <time>2017-04-30T11:42:25Z</time>
      </trkpt>
      <trkpt lat="50.1644" lon="5.09599">
        <ele>130.88</ele>
        <time>2017-04-30T11:42:39Z</time>
      </trkpt>
      <trkpt lat="50.16448" lon="5.09575">
        <ele>130.88</ele>
        <time>2017-04-30T11:42:57Z</time>
      </trkpt>
      <trkpt lat="50.16455" lon="5.09551">
        <ele>131.36</ele>
        <time>2017-04-30T11:43:12Z</time>
      </trkpt>
      <trkpt lat="50.16461" lon="5.09522">
        <ele>133.28</ele>
        <time>2017-04-30T11:43:29Z</time>
      </trkpt>
      <trkpt lat="50.16461" lon="5.09512">
        <ele>133.28</ele>
        <time>2017-04-30T11:43:45Z</time>
      </trkpt>
      <trkpt lat="50.16459" lon="5.095">
        <ele>133.28</ele>
        <time>2017-04-30T11:44:00Z</time>
      </trkpt>
      <trkpt lat="50.16458" lon="5.09499">
        <ele>131.84</ele>
        <time>2017-04-30T11:44:20Z</time>
      </trkpt>
      <trkpt lat="50.16459" lon="5.09507">
        <ele>131.84</ele>
        <time>2017-04-30T11:44:32Z</time>
      </trkpt>
      <trkpt lat="50.16463" lon="5.0953">
        <ele>131.84</ele>
        <time>2017-04-30T11:44:48Z</time>
      </trkpt>
      <trkpt lat="50.16462" lon="5.09535">
        <ele>131.84</ele>
        <time>2017-04-30T11:44:56Z</time>
      </trkpt>
      <trkpt lat="50.16463" lon="5.09511">
        <ele>131.84</ele>
        <time>2017-04-30T11:45:10Z</time>
      </trkpt>
      <trkpt lat="50.1646" lon="5.09497">
        <ele>131.36</ele>
        <time>2017-04-30T11:45:27Z</time>
      </trkpt>
      <trkpt lat="50.16456" lon="5.09498">
        <ele>132.8</ele>
        <time>2017-04-30T11:45:40Z</time>
      </trkpt>
      <trkpt lat="50.16456" lon="5.09498">
        <ele>132.8</ele>
        <time>2017-04-30T11:46:01Z</time>
      </trkpt>
      <trkpt lat="50.16456" lon="5.09501">
        <ele>132.8</ele>
        <time>2017-04-30T11:46:22Z</time>
      </trkpt>
      <trkpt lat="50.16456" lon="5.09496">
        <ele>131.36</ele>
        <time>2017-04-30T11:46:40Z</time>
      </trkpt>
      <trkpt lat="50.16458" lon="5.09497">
        <ele>131.36</ele>
        <time>2017-04-30T11:47:01Z</time>
      </trkpt>
      <trkpt lat="50.16455" lon="5.09497">
        <ele>131.36</ele>
        <time>2017-04-30T11:47:25Z</time>
      </trkpt>
      <trkpt lat="50.16456" lon="5.09496">
        <ele>131.36</ele>
        <time>2017-04-30T11:47:47Z</time>
      </trkpt>
      <trkpt lat="50.16456" lon="5.09498">
        <ele>132.32</ele>
        <time>2017-04-30T11:48:13Z</time>
      </trkpt>
      <trkpt lat="50.16454" lon="5.09499">
        <ele>132.32</ele>
        <time>2017-04-30T11:48:33Z</time>
      </trkpt>
      <trkpt lat="50.16452" lon="5.09504">
        <ele>133.76</ele>
        <time>2017-04-30T11:48:53Z</time>
      </trkpt>
      <trkpt lat="50.16451" lon="5.09508">
        <ele>133.76</ele>
        <time>2017-04-30T11:49:12Z</time>
      </trkpt>
      <trkpt lat="50.16449" lon="5.0951">
        <ele>131.84</ele>
        <time>2017-04-30T11:49:33Z</time>
      </trkpt>
      <trkpt lat="50.16449" lon="5.09509">
        <ele>133.28</ele>
        <time>2017-04-30T11:50:00Z</time>
      </trkpt>
      <trkpt lat="50.16447" lon="5.09511">
        <ele>133.28</ele>
        <time>2017-04-30T11:50:26Z</time>
      </trkpt>
      <trkpt lat="50.16448" lon="5.0951">
        <ele>131.84</ele>
        <time>2017-04-30T11:50:46Z</time>
      </trkpt>
      <trkpt lat="50.16448" lon="5.09509">
        <ele>133.76</ele>
        <time>2017-04-30T11:51:12Z</time>
      </trkpt>
      <trkpt lat="50.16451" lon="5.09503">
        <ele>133.76</ele>
        <time>2017-04-30T11:51:38Z</time>
      </trkpt>
      <trkpt lat="50.1645" lon="5.09505">
        <ele>134.24</ele>
        <time>2017-04-30T11:52:02Z</time>
      </trkpt>
      <trkpt lat="50.16449" lon="5.09508">
        <ele>134.24</ele>
        <time>2017-04-30T11:52:25Z</time>
      </trkpt>
      <trkpt lat="50.16449" lon="5.09511">
        <ele>134.24</ele>
        <time>2017-04-30T11:52:49Z</time>
      </trkpt>
      <trkpt lat="50.16449" lon="5.09506">
        <ele>134.72</ele>
        <time>2017-04-30T11:53:12Z</time>
      </trkpt>
      <trkpt lat="50.16448" lon="5.09507">
        <ele>134.72</ele>
        <time>2017-04-30T11:53:36Z</time>
      </trkpt>
      <trkpt lat="50.1645" lon="5.09503">
        <ele>135.2</ele>
        <time>2017-04-30T11:54:01Z</time>
      </trkpt>
      <trkpt lat="50.16452" lon="5.09501">
        <ele>135.2</ele>
        <time>2017-04-30T11:54:22Z</time>
      </trkpt>
      <trkpt lat="50.16453" lon="5.09502">
        <ele>135.68</ele>
        <time>2017-04-30T11:54:48Z</time>
      </trkpt>
      <trkpt lat="50.16454" lon="5.09501">
        <ele>135.68</ele>
        <time>2017-04-30T11:55:09Z</time>
      </trkpt>
      <trkpt lat="50.16453" lon="5.09503">
        <ele>136.16</ele>
        <time>2017-04-30T11:55:39Z</time>
      </trkpt>
      <trkpt lat="50.16451" lon="5.09502">
        <ele>136.16</ele>
        <time>2017-04-30T11:56:03Z</time>
      </trkpt>
      <trkpt lat="50.16451" lon="5.09508">
        <ele>134.72</ele>
        <time>2017-04-30T11:56:32Z</time>
      </trkpt>
      <trkpt lat="50.1645" lon="5.09508">
        <ele>134.72</ele>
        <time>2017-04-30T11:56:54Z</time>
      </trkpt>
      <trkpt lat="50.1645" lon="5.09507">
        <ele>134.24</ele>
        <time>2017-04-30T11:57:16Z</time>
      </trkpt>
      <trkpt lat="50.1645" lon="5.09508">
        <ele>134.24</ele>
        <time>2017-04-30T11:57:44Z</time>
      </trkpt>
      <trkpt lat="50.1645" lon="5.09508">
        <ele>134.24</ele>
        <time>2017-04-30T11:57:45Z</time>
      </trkpt>
      <trkpt lat="50.1645" lon="5.09507">
        <ele>133.76</ele>
        <time>2017-04-30T11:58:07Z</time>
      </trkpt>
      <trkpt lat="50.16449" lon="5.09507">
        <ele>135.68</ele>
        <time>2017-04-30T11:58:28Z</time>
      </trkpt>
      <trkpt lat="50.16451" lon="5.09504">
        <ele>134.24</ele>
        <time>2017-04-30T11:58:44Z</time>
      </trkpt>
      <trkpt lat="50.1645" lon="5.09508">
        <ele>133.28</ele>
        <time>2017-04-30T11:59:04Z</time>
      </trkpt>
      <trkpt lat="50.16452" lon="5.09502">
        <ele>135.2</ele>
        <time>2017-04-30T11:59:24Z</time>
      </trkpt>
      <trkpt lat="50.16452" lon="5.09492">
        <ele>135.2</ele>
        <time>2017-04-30T11:59:51Z</time>
      </trkpt>
      <trkpt lat="50.1645" lon="5.09489">
        <ele>135.2</ele>
        <time>2017-04-30T12:00:15Z</time>
      </trkpt>
      <trkpt lat="50.16449" lon="5.09489">
        <ele>135.2</ele>
        <time>2017-04-30T12:00:40Z</time>
      </trkpt>
      <trkpt lat="50.16452" lon="5.09492">
        <ele>135.68</ele>
        <time>2017-04-30T12:00:59Z</time>
      </trkpt>
      <trkpt lat="50.16454" lon="5.09499">
        <ele>135.68</ele>
        <time>2017-04-30T12:01:20Z</time>
      </trkpt>
      <trkpt lat="50.16455" lon="5.09498">
        <ele>136.16</ele>
        <time>2017-04-30T12:01:51Z</time>
      </trkpt>
      <trkpt lat="50.16452" lon="5.095">
        <ele>136.16</ele>
        <time>2017-04-30T12:02:21Z</time>
      </trkpt>
      <trkpt lat="50.16453" lon="5.09502">
        <ele>136.16</ele>
        <time>2017-04-30T12:02:49Z</time>
      </trkpt>
      <trkpt lat="50.16452" lon="5.09503">
        <ele>137.13</ele>
        <time>2017-04-30T12:03:21Z</time>
      </trkpt>
      <trkpt lat="50.16452" lon="5.09501">
        <ele>137.13</ele>
        <time>2017-04-30T12:03:48Z</time>
      </trkpt>
      <trkpt lat="50.16452" lon="5.09502">
        <ele>137.13</ele>
        <time>2017-04-30T12:04:18Z</time>
      </trkpt>
      <trkpt lat="50.16452" lon="5.09501">
        <ele>136.16</ele>
        <time>2017-04-30T12:04:43Z</time>
      </trkpt>
      <trkpt lat="50.16453" lon="5.09501">
        <ele>136.16</ele>
        <time>2017-04-30T12:05:11Z</time>
      </trkpt>
      <trkpt lat="50.16452" lon="5.09504">
        <ele>136.16</ele>
        <time>2017-04-30T12:05:33Z</time>
      </trkpt>
      <trkpt lat="50.16451" lon="5.09499">
        <ele>137.13</ele>
        <time>2017-04-30T12:06:02Z</time>
      </trkpt>
      <trkpt lat="50.16453" lon="5.09495">
        <ele>136.16</ele>
        <time>2017-04-30T12:06:33Z</time>
      </trkpt>
      <trkpt lat="50.16453" lon="5.09496">
        <ele>136.16</ele>
        <time>2017-04-30T12:07:00Z</time>
      </trkpt>
      <trkpt lat="50.1645" lon="5.09501">
        <ele>136.16</ele>
        <time>2017-04-30T12:07:25Z</time>
      </trkpt>
      <trkpt lat="50.16452" lon="5.09502">
        <ele>136.16</ele>
        <time>2017-04-30T12:07:53Z</time>
      </trkpt>
      <trkpt lat="50.16453" lon="5.095">
        <ele>136.16</ele>
        <time>2017-04-30T12:08:25Z</time>
      </trkpt>
      <trkpt lat="50.16452" lon="5.09498">
        <ele>135.68</ele>
        <time>2017-04-30T12:09:01Z</time>
      </trkpt>
      <trkpt lat="50.16451" lon="5.09499">
        <ele>135.68</ele>
        <time>2017-04-30T12:09:25Z</time>
      </trkpt>
      <trkpt lat="50.16451" lon="5.09503">
        <ele>135.68</ele>
        <time>2017-04-30T12:09:54Z</time>
      </trkpt>
      <trkpt lat="50.16448" lon="5.09503">
        <ele>137.13</ele>
        <time>2017-04-30T12:10:21Z</time>
      </trkpt>
      <trkpt lat="50.16448" lon="5.09509">
        <ele>137.13</ele>
        <time>2017-04-30T12:10:44Z</time>
      </trkpt>
      <trkpt lat="50.1645" lon="5.09506">
        <ele>135.68</ele>
        <time>2017-04-30T12:11:06Z</time>
      </trkpt>
      <trkpt lat="50.16451" lon="5.09504">
        <ele>135.68</ele>
        <time>2017-04-30T12:11:29Z</time>
      </trkpt>
      <trkpt lat="50.16455" lon="5.09498">
        <ele>135.68</ele>
        <time>2017-04-30T12:11:52Z</time>
      </trkpt>
      <trkpt lat="50.16452" lon="5.09499">
        <ele>135.68</ele>
        <time>2017-04-30T12:12:07Z</time>
      </trkpt>
      <trkpt lat="50.1645" lon="5.09499">
        <ele>137.13</ele>
        <time>2017-04-30T12:12:30Z</time>
      </trkpt>
      <trkpt lat="50.16456" lon="5.0951">
        <ele>135.68</ele>
        <time>2017-04-30T12:12:43Z</time>
      </trkpt>
      <trkpt lat="50.16464" lon="5.09516">
        <ele>135.68</ele>
        <time>2017-04-30T12:12:57Z</time>
      </trkpt>
      <trkpt lat="50.16472" lon="5.09501">
        <ele>135.68</ele>
        <time>2017-04-30T12:13:13Z</time>
      </trkpt>
      <trkpt lat="50.16485" lon="5.09493">
        <ele>137.61</ele>
        <time>2017-04-30T12:13:32Z</time>
      </trkpt>
      <trkpt lat="50.16491" lon="5.09491">
        <ele>138.09</ele>
        <time>2017-04-30T12:13:49Z</time>
      </trkpt>
      <trkpt lat="50.16494" lon="5.09492">
        <ele>139.05</ele>
        <time>2017-04-30T12:14:14Z</time>
      </trkpt>
      <trkpt lat="50.16497" lon="5.09493">
        <ele>137.61</ele>
        <time>2017-04-30T12:14:29Z</time>
      </trkpt>
      <trkpt lat="50.16496" lon="5.09489">
        <ele>138.09</ele>
        <time>2017-04-30T12:14:48Z</time>
      </trkpt>
      <trkpt lat="50.16495" lon="5.09489">
        <ele>136.64</ele>
        <time>2017-04-30T12:14:59Z</time>
      </trkpt>
      <trkpt lat="50.16495" lon="5.09487">
        <ele>136.64</ele>
        <time>2017-04-30T12:15:28Z</time>
      </trkpt>
      <trkpt lat="50.16491" lon="5.09478">
        <ele>136.64</ele>
        <time>2017-04-30T12:15:59Z</time>
      </trkpt>
      <trkpt lat="50.16491" lon="5.09482">
        <ele>133.28</ele>
        <time>2017-04-30T12:16:06Z</time>
      </trkpt>
      <trkpt lat="50.16491" lon="5.09482">
        <ele>136.64</ele>
        <time>2017-04-30T12:16:07Z</time>
      </trkpt>
      <trkpt lat="50.16492" lon="5.09482">
        <ele>141.45</ele>
        <time>2017-04-30T12:16:09Z</time>
      </trkpt>
      <trkpt lat="50.16491" lon="5.09482">
        <ele>137.61</ele>
        <time>2017-04-30T12:16:10Z</time>
      </trkpt>
      <trkpt lat="50.16492" lon="5.09487">
        <ele>137.13</ele>
        <time>2017-04-30T12:16:36Z</time>
      </trkpt>
      <trkpt lat="50.16496" lon="5.0949">
        <ele>137.13</ele>
        <time>2017-04-30T12:17:19Z</time>
      </trkpt>
      <trkpt lat="50.16495" lon="5.09491">
        <ele>137.13</ele>
        <time>2017-04-30T12:17:55Z</time>
      </trkpt>
      <trkpt lat="50.16491" lon="5.09493">
        <ele>137.61</ele>
        <time>2017-04-30T12:18:38Z</time>
      </trkpt>
      <trkpt lat="50.1649" lon="5.09489">
        <ele>137.61</ele>
        <time>2017-04-30T12:19:17Z</time>
      </trkpt>
      <trkpt lat="50.16492" lon="5.09488">
        <ele>137.61</ele>
        <time>2017-04-30T12:19:52Z</time>
      </trkpt>
      <trkpt lat="50.16492" lon="5.09488">
        <ele>137.61</ele>
        <time>2017-04-30T12:20:16Z</time>
      </trkpt>
      <trkpt lat="50.16495" lon="5.09485">
        <ele>137.13</ele>
        <time>2017-04-30T12:20:55Z</time>
      </trkpt>
      <trkpt lat="50.16495" lon="5.09491">
        <ele>138.57</ele>
        <time>2017-04-30T12:21:25Z</time>
      </trkpt>
      <trkpt lat="50.16497" lon="5.0949">
        <ele>139.05</ele>
        <time>2017-04-30T12:22:05Z</time>
      </trkpt>
      <trkpt lat="50.16495" lon="5.0949">
        <ele>139.05</ele>
        <time>2017-04-30T12:22:46Z</time>
      </trkpt>
      <trkpt lat="50.16498" lon="5.09494">
        <ele>139.05</ele>
        <time>2017-04-30T12:23:24Z</time>
      </trkpt>
      <trkpt lat="50.16497" lon="5.09492">
        <ele>139.05</ele>
        <time>2017-04-30T12:23:59Z</time>
      </trkpt>
      <trkpt lat="50.16496" lon="5.09495">
        <ele>140.01</ele>
        <time>2017-04-30T12:24:36Z</time>
      </trkpt>
      <trkpt lat="50.16494" lon="5.09494">
        <ele>140.01</ele>
        <time>2017-04-30T12:25:13Z</time>
      </trkpt>
      <trkpt lat="50.16494" lon="5.09494">
        <ele>140.97</ele>
        <time>2017-04-30T12:25:48Z</time>
      </trkpt>
      <trkpt lat="50.16496" lon="5.09496">
        <ele>140.97</ele>
        <time>2017-04-30T12:26:15Z</time>
      </trkpt>
      <trkpt lat="50.16497" lon="5.09496">
        <ele>138.57</ele>
        <time>2017-04-30T12:26:50Z</time>
      </trkpt>
      <trkpt lat="50.16497" lon="5.09496">
        <ele>140.01</ele>
        <time>2017-04-30T12:26:53Z</time>
      </trkpt>
      <trkpt lat="50.16496" lon="5.09498">
        <ele>139.53</ele>
        <time>2017-04-30T12:27:25Z</time>
      </trkpt>
      <trkpt lat="50.16499" lon="5.09498">
        <ele>139.53</ele>
        <time>2017-04-30T12:28:06Z</time>
      </trkpt>
      <trkpt lat="50.16501" lon="5.09498">
        <ele>139.53</ele>
        <time>2017-04-30T12:28:39Z</time>
      </trkpt>
      <trkpt lat="50.16497" lon="5.09495">
        <ele>139.53</ele>
        <time>2017-04-30T12:29:06Z</time>
      </trkpt>
      <trkpt lat="50.16498" lon="5.0949">
        <ele>139.53</ele>
        <time>2017-04-30T12:29:35Z</time>
      </trkpt>
      <trkpt lat="50.165" lon="5.09492">
        <ele>139.53</ele>
        <time>2017-04-30T12:30:09Z</time>
      </trkpt>
      <trkpt lat="50.16496" lon="5.09498">
        <ele>139.53</ele>
        <time>2017-04-30T12:30:37Z</time>
      </trkpt>
      <trkpt lat="50.16494" lon="5.09496">
        <ele>139.53</ele>
        <time>2017-04-30T12:31:09Z</time>
      </trkpt>
      <trkpt lat="50.16499" lon="5.09492">
        <ele>139.53</ele>
        <time>2017-04-30T12:31:42Z</time>
      </trkpt>
      <trkpt lat="50.165" lon="5.0949">
        <ele>139.05</ele>
        <time>2017-04-30T12:32:20Z</time>
      </trkpt>
      <trkpt lat="50.16501" lon="5.09494">
        <ele>139.05</ele>
        <time>2017-04-30T12:32:54Z</time>
      </trkpt>
      <trkpt lat="50.16498" lon="5.09494">
        <ele>140.49</ele>
        <time>2017-04-30T12:33:22Z</time>
      </trkpt>
      <trkpt lat="50.16501" lon="5.09496">
        <ele>139.05</ele>
        <time>2017-04-30T12:33:58Z</time>
      </trkpt>
      <trkpt lat="50.165" lon="5.09491">
        <ele>138.57</ele>
        <time>2017-04-30T12:34:34Z</time>
      </trkpt>
      <trkpt lat="50.16497" lon="5.0949">
        <ele>138.09</ele>
        <time>2017-04-30T12:35:04Z</time>
      </trkpt>
      <trkpt lat="50.16495" lon="5.09492">
        <ele>138.09</ele>
        <time>2017-04-30T12:35:38Z</time>
      </trkpt>
      <trkpt lat="50.16496" lon="5.0949">
        <ele>140.01</ele>
        <time>2017-04-30T12:36:16Z</time>
      </trkpt>
      <trkpt lat="50.16498" lon="5.09493">
        <ele>138.57</ele>
        <time>2017-04-30T12:36:46Z</time>
      </trkpt>
      <trkpt lat="50.16498" lon="5.09497">
        <ele>139.53</ele>
        <time>2017-04-30T12:37:24Z</time>
      </trkpt>
      <trkpt lat="50.16496" lon="5.09494">
        <ele>140.01</ele>
        <time>2017-04-30T12:37:56Z</time>
      </trkpt>
      <trkpt lat="50.16498" lon="5.09495">
        <ele>140.01</ele>
        <time>2017-04-30T12:38:31Z</time>
      </trkpt>
      <trkpt lat="50.16495" lon="5.09492">
        <ele>140.49</ele>
        <time>2017-04-30T12:39:04Z</time>
      </trkpt>
      <trkpt lat="50.16494" lon="5.09496">
        <ele>140.97</ele>
        <time>2017-04-30T12:39:25Z</time>
      </trkpt>
      <trkpt lat="50.16495" lon="5.095">
        <ele>140.01</ele>
        <time>2017-04-30T12:39:39Z</time>
      </trkpt>
      <trkpt lat="50.16495" lon="5.09498">
        <ele>140.01</ele>
        <time>2017-04-30T12:40:12Z</time>
      </trkpt>
      <trkpt lat="50.16492" lon="5.095">
        <ele>140.01</ele>
        <time>2017-04-30T12:40:48Z</time>
      </trkpt>
      <trkpt lat="50.16491" lon="5.09499">
        <ele>140.97</ele>
        <time>2017-04-30T12:41:25Z</time>
      </trkpt>
      <trkpt lat="50.1649" lon="5.09502">
        <ele>141.45</ele>
        <time>2017-04-30T12:42:01Z</time>
      </trkpt>
      <trkpt lat="50.16492" lon="5.09497">
        <ele>141.45</ele>
        <time>2017-04-30T12:42:37Z</time>
      </trkpt>
      <trkpt lat="50.1649" lon="5.095">
        <ele>141.45</ele>
        <time>2017-04-30T12:43:17Z</time>
      </trkpt>
      <trkpt lat="50.16489" lon="5.09499">
        <ele>141.45</ele>
        <time>2017-04-30T12:43:45Z</time>
      </trkpt>
      <trkpt lat="50.16491" lon="5.09492">
        <ele>140.97</ele>
        <time>2017-04-30T12:43:56Z</time>
      </trkpt>
      <trkpt lat="50.16491" lon="5.09499">
        <ele>140.49</ele>
        <time>2017-04-30T12:44:29Z</time>
      </trkpt>
      <trkpt lat="50.16493" lon="5.09499">
        <ele>140.49</ele>
        <time>2017-04-30T12:45:03Z</time>
      </trkpt>
      <trkpt lat="50.16493" lon="5.09496">
        <ele>141.45</ele>
        <time>2017-04-30T12:45:36Z</time>
      </trkpt>
      <trkpt lat="50.16494" lon="5.09493">
        <ele>141.45</ele>
        <time>2017-04-30T12:46:09Z</time>
      </trkpt>
      <trkpt lat="50.16494" lon="5.0949">
        <ele>141.45</ele>
        <time>2017-04-30T12:46:45Z</time>
      </trkpt>
      <trkpt lat="50.16495" lon="5.0949">
        <ele>141.45</ele>
        <time>2017-04-30T12:47:15Z</time>
      </trkpt>
      <trkpt lat="50.16494" lon="5.09495">
        <ele>140.97</ele>
        <time>2017-04-30T12:47:53Z</time>
      </trkpt>
      <trkpt lat="50.16498" lon="5.09491">
        <ele>140.97</ele>
        <time>2017-04-30T12:48:38Z</time>
      </trkpt>
      <trkpt lat="50.16493" lon="5.09494">
        <ele>140.49</ele>
        <time>2017-04-30T12:49:14Z</time>
      </trkpt>
      <trkpt lat="50.16495" lon="5.0949">
        <ele>140.97</ele>
        <time>2017-04-30T12:49:41Z</time>
      </trkpt>
      <trkpt lat="50.16495" lon="5.0949">
        <ele>139.53</ele>
        <time>2017-04-30T12:50:07Z</time>
      </trkpt>
      <trkpt lat="50.16495" lon="5.0949">
        <ele>139.53</ele>
        <time>2017-04-30T12:50:08Z</time>
      </trkpt>
      <trkpt lat="50.16496" lon="5.09489">
        <ele>140.97</ele>
        <time>2017-04-30T12:50:28Z</time>
      </trkpt>
      <trkpt lat="50.16491" lon="5.09485">
        <ele>140.49</ele>
        <time>2017-04-30T12:50:58Z</time>
      </trkpt>
      <trkpt lat="50.16491" lon="5.09487">
        <ele>140.49</ele>
        <time>2017-04-30T12:51:32Z</time>
      </trkpt>
      <trkpt lat="50.1649" lon="5.09488">
        <ele>140.49</ele>
        <time>2017-04-30T12:52:16Z</time>
      </trkpt>
      <trkpt lat="50.16493" lon="5.09486">
        <ele>140.01</ele>
        <time>2017-04-30T12:52:55Z</time>
      </trkpt>
      <trkpt lat="50.16496" lon="5.09489">
        <ele>140.97</ele>
        <time>2017-04-30T12:53:26Z</time>
      </trkpt>
      <trkpt lat="50.16499" lon="5.095">
        <ele>139.53</ele>
        <time>2017-04-30T12:54:08Z</time>
      </trkpt>
      <trkpt lat="50.16499" lon="5.09497">
        <ele>140.01</ele>
        <time>2017-04-30T12:54:43Z</time>
      </trkpt>
      <trkpt lat="50.16498" lon="5.09493">
        <ele>140.01</ele>
        <time>2017-04-30T12:55:19Z</time>
      </trkpt>
      <trkpt lat="50.16496" lon="5.09496">
        <ele>141.45</ele>
        <time>2017-04-30T12:55:51Z</time>
      </trkpt>
      <trkpt lat="50.16495" lon="5.09497">
        <ele>141.93</ele>
        <time>2017-04-30T12:56:32Z</time>
      </trkpt>
      <trkpt lat="50.16492" lon="5.09501">
        <ele>141.93</ele>
        <time>2017-04-30T12:57:07Z</time>
      </trkpt>
      <trkpt lat="50.16494" lon="5.09497">
        <ele>141.93</ele>
        <time>2017-04-30T12:57:48Z</time>
      </trkpt>
      <trkpt lat="50.16495" lon="5.09498">
        <ele>141.93</ele>
        <time>2017-04-30T12:58:25Z</time>
      </trkpt>
      <trkpt lat="50.16497" lon="5.09498">
        <ele>141.93</ele>
        <time>2017-04-30T12:58:59Z</time>
      </trkpt>
      <trkpt lat="50.16495" lon="5.09499">
        <ele>141.45</ele>
        <time>2017-04-30T12:59:36Z</time>
      </trkpt>
      <trkpt lat="50.16496" lon="5.09502">
        <ele>140.97</ele>
        <time>2017-04-30T13:00:10Z</time>
      </trkpt>
      <trkpt lat="50.16495" lon="5.09503">
        <ele>140.97</ele>
        <time>2017-04-30T13:00:46Z</time>
      </trkpt>
      <trkpt lat="50.16497" lon="5.09504">
        <ele>140.97</ele>
        <time>2017-04-30T13:01:21Z</time>
      </trkpt>
      <trkpt lat="50.16501" lon="5.09501">
        <ele>140.97</ele>
        <time>2017-04-30T13:01:58Z</time>
      </trkpt>
      <trkpt lat="50.16503" lon="5.09503">
        <ele>140.97</ele>
        <time>2017-04-30T13:02:31Z</time>
      </trkpt>
      <trkpt lat="50.16498" lon="5.09498">
        <ele>142.41</ele>
        <time>2017-04-30T13:03:04Z</time>
      </trkpt>
      <trkpt lat="50.16495" lon="5.09496">
        <ele>142.41</ele>
        <time>2017-04-30T13:03:27Z</time>
      </trkpt>
      <trkpt lat="50.16498" lon="5.09497">
        <ele>141.93</ele>
        <time>2017-04-30T13:04:00Z</time>
      </trkpt>
      <trkpt lat="50.16499" lon="5.09495">
        <ele>141.93</ele>
        <time>2017-04-30T13:04:32Z</time>
      </trkpt>
      <trkpt lat="50.16498" lon="5.09492">
        <ele>141.93</ele>
        <time>2017-04-30T13:05:03Z</time>
      </trkpt>
      <trkpt lat="50.165" lon="5.09491">
        <ele>141.93</ele>
        <time>2017-04-30T13:05:42Z</time>
      </trkpt>
      <trkpt lat="50.16497" lon="5.09496">
        <ele>141.93</ele>
        <time>2017-04-30T13:06:21Z</time>
      </trkpt>
      <trkpt lat="50.16498" lon="5.09496">
        <ele>141.93</ele>
        <time>2017-04-30T13:06:51Z</time>
      </trkpt>
      <trkpt lat="50.16501" lon="5.09497">
        <ele>141.93</ele>
        <time>2017-04-30T13:07:27Z</time>
      </trkpt>
      <trkpt lat="50.16497" lon="5.095">
        <ele>141.93</ele>
        <time>2017-04-30T13:07:56Z</time>
      </trkpt>
      <trkpt lat="50.16496" lon="5.09502">
        <ele>142.41</ele>
        <time>2017-04-30T13:08:29Z</time>
      </trkpt>
      <trkpt lat="50.16498" lon="5.09494">
        <ele>142.41</ele>
        <time>2017-04-30T13:08:53Z</time>
      </trkpt>
      <trkpt lat="50.16497" lon="5.09488">
        <ele>142.89</ele>
        <time>2017-04-30T13:09:16Z</time>
      </trkpt>
      <trkpt lat="50.16496" lon="5.09486">
        <ele>142.89</ele>
        <time>2017-04-30T13:09:38Z</time>
      </trkpt>
      <trkpt lat="50.16495" lon="5.09485">
        <ele>138.57</ele>
        <time>2017-04-30T13:09:46Z</time>
      </trkpt>
      <trkpt lat="50.16495" lon="5.09485">
        <ele>143.37</ele>
        <time>2017-04-30T13:09:47Z</time>
      </trkpt>
      <trkpt lat="50.16496" lon="5.09486">
        <ele>142.41</ele>
        <time>2017-04-30T13:10:00Z</time>
      </trkpt>
      <trkpt lat="50.16501" lon="5.09487">
        <ele>141.93</ele>
        <time>2017-04-30T13:10:16Z</time>
      </trkpt>
      <trkpt lat="50.16503" lon="5.09492">
        <ele>143.37</ele>
        <time>2017-04-30T13:10:28Z</time>
      </trkpt>
      <trkpt lat="50.16506" lon="5.09508">
        <ele>143.37</ele>
        <time>2017-04-30T13:10:59Z</time>
      </trkpt>
      <trkpt lat="50.16503" lon="5.09505">
        <ele>141.93</ele>
        <time>2017-04-30T13:11:06Z</time>
      </trkpt>
      <trkpt lat="50.16497" lon="5.09499">
        <ele>141.45</ele>
        <time>2017-04-30T13:11:24Z</time>
      </trkpt>
      <trkpt lat="50.16496" lon="5.09488">
        <ele>141.45</ele>
        <time>2017-04-30T13:11:44Z</time>
      </trkpt>
      <trkpt lat="50.16493" lon="5.09483">
        <ele>141.45</ele>
        <time>2017-04-30T13:12:03Z</time>
      </trkpt>
      <trkpt lat="50.16491" lon="5.09484">
        <ele>141.45</ele>
        <time>2017-04-30T13:12:19Z</time>
      </trkpt>
      <trkpt lat="50.1649" lon="5.09491">
        <ele>141.45</ele>
        <time>2017-04-30T13:12:39Z</time>
      </trkpt>
      <trkpt lat="50.1649" lon="5.09491">
        <ele>142.41</ele>
        <time>2017-04-30T13:12:42Z</time>
      </trkpt>
      <trkpt lat="50.16484" lon="5.09489">
        <ele>141.45</ele>
        <time>2017-04-30T13:12:58Z</time>
      </trkpt>
      <trkpt lat="50.16475" lon="5.09489">
        <ele>140.01</ele>
        <time>2017-04-30T13:13:14Z</time>
      </trkpt>
      <trkpt lat="50.16477" lon="5.09488">
        <ele>140.01</ele>
        <time>2017-04-30T13:13:34Z</time>
      </trkpt>
      <trkpt lat="50.1648" lon="5.09489">
        <ele>140.97</ele>
        <time>2017-04-30T13:13:42Z</time>
      </trkpt>
      <trkpt lat="50.16479" lon="5.09483">
        <ele>140.97</ele>
        <time>2017-04-30T13:14:00Z</time>
      </trkpt>
      <trkpt lat="50.16477" lon="5.09485">
        <ele>140.97</ele>
        <time>2017-04-30T13:14:17Z</time>
      </trkpt>
      <trkpt lat="50.16476" lon="5.0949">
        <ele>140.97</ele>
        <time>2017-04-30T13:14:32Z</time>
      </trkpt>
      <trkpt lat="50.16474" lon="5.09495">
        <ele>139.53</ele>
        <time>2017-04-30T13:14:48Z</time>
      </trkpt>
      <trkpt lat="50.16473" lon="5.09495">
        <ele>140.97</ele>
        <time>2017-04-30T13:15:11Z</time>
      </trkpt>
      <trkpt lat="50.16473" lon="5.09494">
        <ele>140.97</ele>
        <time>2017-04-30T13:15:31Z</time>
      </trkpt>
      <trkpt lat="50.16477" lon="5.09493">
        <ele>140.97</ele>
        <time>2017-04-30T13:15:49Z</time>
      </trkpt>
      <trkpt lat="50.16472" lon="5.09499">
        <ele>141.45</ele>
        <time>2017-04-30T13:16:05Z</time>
      </trkpt>
      <trkpt lat="50.16465" lon="5.095">
        <ele>140.01</ele>
        <time>2017-04-30T13:16:12Z</time>
      </trkpt>
      <trkpt lat="50.16455" lon="5.09504">
        <ele>139.53</ele>
        <time>2017-04-30T13:16:27Z</time>
      </trkpt>
      <trkpt lat="50.16452" lon="5.09504">
        <ele>140.97</ele>
        <time>2017-04-30T13:16:29Z</time>
      </trkpt>
      <trkpt lat="50.1645" lon="5.095">
        <ele>140.97</ele>
        <time>2017-04-30T13:16:32Z</time>
      </trkpt>
      <trkpt lat="50.16446" lon="5.09493">
        <ele>140.97</ele>
        <time>2017-04-30T13:16:37Z</time>
      </trkpt>
      <trkpt lat="50.16442" lon="5.09475">
        <ele>140.49</ele>
        <time>2017-04-30T13:16:50Z</time>
      </trkpt>
      <trkpt lat="50.16434" lon="5.09447">
        <ele>139.53</ele>
        <time>2017-04-30T13:17:06Z</time>
      </trkpt>
      <trkpt lat="50.16435" lon="5.09422">
        <ele>139.53</ele>
        <time>2017-04-30T13:17:22Z</time>
      </trkpt>
      <trkpt lat="50.16433" lon="5.09407">
        <ele>138.57</ele>
        <time>2017-04-30T13:17:36Z</time>
      </trkpt>
      <trkpt lat="50.16432" lon="5.09369">
        <ele>140.49</ele>
        <time>2017-04-30T13:17:56Z</time>
      </trkpt>
      <trkpt lat="50.16432" lon="5.09347">
        <ele>140.01</ele>
        <time>2017-04-30T13:18:10Z</time>
      </trkpt>
      <trkpt lat="50.16429" lon="5.09317">
        <ele>140.49</ele>
        <time>2017-04-30T13:18:25Z</time>
      </trkpt>
      <trkpt lat="50.16428" lon="5.09301">
        <ele>140.49</ele>
        <time>2017-04-30T13:18:33Z</time>
      </trkpt>
      <trkpt lat="50.16426" lon="5.09273">
        <ele>140.49</ele>
        <time>2017-04-30T13:18:50Z</time>
      </trkpt>
      <trkpt lat="50.16423" lon="5.09247">
        <ele>140.49</ele>
        <time>2017-04-30T13:19:05Z</time>
      </trkpt>
      <trkpt lat="50.16419" lon="5.09219">
        <ele>140.49</ele>
        <time>2017-04-30T13:19:20Z</time>
      </trkpt>
      <trkpt lat="50.1642" lon="5.09215">
        <ele>140.49</ele>
        <time>2017-04-30T13:19:23Z</time>
      </trkpt>
      <trkpt lat="50.1642" lon="5.09185">
        <ele>140.01</ele>
        <time>2017-04-30T13:19:40Z</time>
      </trkpt>
      <trkpt lat="50.16421" lon="5.0918">
        <ele>140.01</ele>
        <time>2017-04-30T13:19:54Z</time>
      </trkpt>
      <trkpt lat="50.16421" lon="5.09164">
        <ele>140.01</ele>
        <time>2017-04-30T13:20:06Z</time>
      </trkpt>
      <trkpt lat="50.1642" lon="5.09145">
        <ele>139.05</ele>
        <time>2017-04-30T13:20:16Z</time>
      </trkpt>
      <trkpt lat="50.16418" lon="5.09135">
        <ele>139.05</ele>
        <time>2017-04-30T13:20:23Z</time>
      </trkpt>
      <trkpt lat="50.16419" lon="5.09133">
        <ele>138.09</ele>
        <time>2017-04-30T13:20:25Z</time>
      </trkpt>
      <trkpt lat="50.16419" lon="5.09131">
        <ele>139.53</ele>
        <time>2017-04-30T13:20:26Z</time>
      </trkpt>
      <trkpt lat="50.16419" lon="5.09124">
        <ele>139.53</ele>
        <time>2017-04-30T13:20:30Z</time>
      </trkpt>
      <trkpt lat="50.16417" lon="5.09084">
        <ele>140.49</ele>
        <time>2017-04-30T13:20:49Z</time>
      </trkpt>
      <trkpt lat="50.16417" lon="5.09051">
        <ele>140.01</ele>
        <time>2017-04-30T13:21:04Z</time>
      </trkpt>
      <trkpt lat="50.16418" lon="5.09015">
        <ele>139.05</ele>
        <time>2017-04-30T13:21:23Z</time>
      </trkpt>
      <trkpt lat="50.16416" lon="5.08991">
        <ele>139.05</ele>
        <time>2017-04-30T13:21:39Z</time>
      </trkpt>
      <trkpt lat="50.16416" lon="5.08959">
        <ele>139.05</ele>
        <time>2017-04-30T13:21:56Z</time>
      </trkpt>
      <trkpt lat="50.16418" lon="5.08924">
        <ele>138.57</ele>
        <time>2017-04-30T13:22:14Z</time>
      </trkpt>
      <trkpt lat="50.16419" lon="5.08892">
        <ele>138.09</ele>
        <time>2017-04-30T13:22:33Z</time>
      </trkpt>
      <trkpt lat="50.16421" lon="5.08857">
        <ele>139.05</ele>
        <time>2017-04-30T13:22:52Z</time>
      </trkpt>
      <trkpt lat="50.16423" lon="5.08837">
        <ele>139.05</ele>
        <time>2017-04-30T13:23:04Z</time>
      </trkpt>
      <trkpt lat="50.16428" lon="5.08801">
        <ele>139.05</ele>
        <time>2017-04-30T13:23:22Z</time>
      </trkpt>
      <trkpt lat="50.16434" lon="5.08765">
        <ele>139.05</ele>
        <time>2017-04-30T13:23:41Z</time>
      </trkpt>
      <trkpt lat="50.16442" lon="5.08732">
        <ele>137.61</ele>
        <time>2017-04-30T13:23:59Z</time>
      </trkpt>
      <trkpt lat="50.16449" lon="5.08698">
        <ele>137.61</ele>
        <time>2017-04-30T13:24:18Z</time>
      </trkpt>
      <trkpt lat="50.16457" lon="5.08664">
        <ele>137.61</ele>
        <time>2017-04-30T13:24:36Z</time>
      </trkpt>
      <trkpt lat="50.16457" lon="5.08663">
        <ele>137.61</ele>
        <time>2017-04-30T13:24:37Z</time>
      </trkpt>
      <trkpt lat="50.16454" lon="5.08657">
        <ele>137.61</ele>
        <time>2017-04-30T13:24:41Z</time>
      </trkpt>
      <trkpt lat="50.16436" lon="5.08644">
        <ele>137.61</ele>
        <time>2017-04-30T13:24:57Z</time>
      </trkpt>
      <trkpt lat="50.16426" lon="5.08636">
        <ele>138.09</ele>
        <time>2017-04-30T13:25:06Z</time>
      </trkpt>
      <trkpt lat="50.16407" lon="5.08621">
        <ele>138.09</ele>
        <time>2017-04-30T13:25:23Z</time>
      </trkpt>
      <trkpt lat="50.16389" lon="5.08606">
        <ele>138.09</ele>
        <time>2017-04-30T13:25:39Z</time>
      </trkpt>
      <trkpt lat="50.16384" lon="5.0859">
        <ele>136.64</ele>
        <time>2017-04-30T13:25:53Z</time>
      </trkpt>
      <trkpt lat="50.16387" lon="5.08578">
        <ele>137.13</ele>
        <time>2017-04-30T13:26:00Z</time>
      </trkpt>
      <trkpt lat="50.16388" lon="5.08575">
        <ele>137.13</ele>
        <time>2017-04-30T13:26:02Z</time>
      </trkpt>
      <trkpt lat="50.16388" lon="5.08567">
        <ele>137.13</ele>
        <time>2017-04-30T13:26:06Z</time>
      </trkpt>
      <trkpt lat="50.16387" lon="5.08558">
        <ele>137.13</ele>
        <time>2017-04-30T13:26:11Z</time>
      </trkpt>
      <trkpt lat="50.16385" lon="5.08554">
        <ele>138.09</ele>
        <time>2017-04-30T13:26:14Z</time>
      </trkpt>
      <trkpt lat="50.16376" lon="5.08546">
        <ele>138.57</ele>
        <time>2017-04-30T13:26:29Z</time>
      </trkpt>
      <trkpt lat="50.16377" lon="5.08543">
        <ele>138.57</ele>
        <time>2017-04-30T13:26:42Z</time>
      </trkpt>
      <trkpt lat="50.16376" lon="5.08545">
        <ele>138.57</ele>
        <time>2017-04-30T13:27:05Z</time>
      </trkpt>
      <trkpt lat="50.16374" lon="5.08544">
        <ele>138.57</ele>
        <time>2017-04-30T13:27:33Z</time>
      </trkpt>
      <trkpt lat="50.16373" lon="5.08542">
        <ele>138.57</ele>
        <time>2017-04-30T13:27:51Z</time>
      </trkpt>
      <trkpt lat="50.16367" lon="5.08538">
        <ele>138.57</ele>
        <time>2017-04-30T13:28:03Z</time>
      </trkpt>
      <trkpt lat="50.16355" lon="5.08528">
        <ele>138.57</ele>
        <time>2017-04-30T13:28:17Z</time>
      </trkpt>
      <trkpt lat="50.16342" lon="5.08518">
        <ele>138.09</ele>
        <time>2017-04-30T13:28:34Z</time>
      </trkpt>
      <trkpt lat="50.16325" lon="5.085">
        <ele>140.49</ele>
        <time>2017-04-30T13:28:52Z</time>
      </trkpt>
      <trkpt lat="50.16307" lon="5.0849">
        <ele>141.45</ele>
        <time>2017-04-30T13:29:08Z</time>
      </trkpt>
      <trkpt lat="50.1629" lon="5.08475">
        <ele>141.93</ele>
        <time>2017-04-30T13:29:25Z</time>
      </trkpt>
      <trkpt lat="50.16286" lon="5.0846">
        <ele>142.41</ele>
        <time>2017-04-30T13:29:34Z</time>
      </trkpt>
      <trkpt lat="50.16283" lon="5.08435">
        <ele>141.93</ele>
        <time>2017-04-30T13:29:48Z</time>
      </trkpt>
      <trkpt lat="50.16278" lon="5.08405">
        <ele>140.49</ele>
        <time>2017-04-30T13:30:02Z</time>
      </trkpt>
      <trkpt lat="50.16272" lon="5.08374">
        <ele>141.45</ele>
        <time>2017-04-30T13:30:17Z</time>
      </trkpt>
      <trkpt lat="50.16266" lon="5.08343">
        <ele>140.01</ele>
        <time>2017-04-30T13:30:34Z</time>
      </trkpt>
      <trkpt lat="50.16261" lon="5.08315">
        <ele>139.53</ele>
        <time>2017-04-30T13:30:49Z</time>
      </trkpt>
      <trkpt lat="50.16253" lon="5.08288">
        <ele>139.05</ele>
        <time>2017-04-30T13:31:04Z</time>
      </trkpt>
      <trkpt lat="50.16245" lon="5.0826">
        <ele>139.05</ele>
        <time>2017-04-30T13:31:20Z</time>
      </trkpt>
      <trkpt lat="50.1624" lon="5.08247">
        <ele>139.05</ele>
        <time>2017-04-30T13:31:28Z</time>
      </trkpt>
      <trkpt lat="50.16231" lon="5.08218">
        <ele>138.57</ele>
        <time>2017-04-30T13:31:44Z</time>
      </trkpt>
      <trkpt lat="50.16219" lon="5.08188">
        <ele>138.57</ele>
        <time>2017-04-30T13:32:01Z</time>
      </trkpt>
      <trkpt lat="50.16211" lon="5.08169">
        <ele>139.53</ele>
        <time>2017-04-30T13:32:14Z</time>
      </trkpt>
      <trkpt lat="50.16201" lon="5.08149">
        <ele>139.53</ele>
        <time>2017-04-30T13:32:28Z</time>
      </trkpt>
      <trkpt lat="50.1619" lon="5.08126">
        <ele>139.53</ele>
        <time>2017-04-30T13:32:44Z</time>
      </trkpt>
      <trkpt lat="50.16182" lon="5.0811">
        <ele>139.53</ele>
        <time>2017-04-30T13:32:58Z</time>
      </trkpt>
      <trkpt lat="50.1617" lon="5.0809">
        <ele>139.53</ele>
        <time>2017-04-30T13:33:14Z</time>
      </trkpt>
      <trkpt lat="50.1616" lon="5.08075">
        <ele>138.09</ele>
        <time>2017-04-30T13:33:27Z</time>
      </trkpt>
      <trkpt lat="50.16146" lon="5.08052">
        <ele>137.61</ele>
        <time>2017-04-30T13:33:42Z</time>
      </trkpt>
      <trkpt lat="50.16133" lon="5.08029">
        <ele>137.13</ele>
        <time>2017-04-30T13:33:57Z</time>
      </trkpt>
      <trkpt lat="50.16129" lon="5.08024">
        <ele>138.57</ele>
        <time>2017-04-30T13:34:01Z</time>
      </trkpt>
      <trkpt lat="50.16112" lon="5.08003">
        <ele>139.05</ele>
        <time>2017-04-30T13:34:18Z</time>
      </trkpt>
      <trkpt lat="50.16094" lon="5.0798">
        <ele>139.05</ele>
        <time>2017-04-30T13:34:34Z</time>
      </trkpt>
      <trkpt lat="50.16077" lon="5.07958">
        <ele>139.05</ele>
        <time>2017-04-30T13:34:50Z</time>
      </trkpt>
      <trkpt lat="50.16063" lon="5.0794">
        <ele>139.05</ele>
        <time>2017-04-30T13:35:06Z</time>
      </trkpt>
      <trkpt lat="50.16049" lon="5.07924">
        <ele>137.61</ele>
        <time>2017-04-30T13:35:21Z</time>
      </trkpt>
      <trkpt lat="50.16035" lon="5.0791">
        <ele>138.57</ele>
        <time>2017-04-30T13:35:35Z</time>
      </trkpt>
      <trkpt lat="50.1602" lon="5.07893">
        <ele>139.05</ele>
        <time>2017-04-30T13:35:52Z</time>
      </trkpt>
      <trkpt lat="50.16002" lon="5.07874">
        <ele>139.53</ele>
        <time>2017-04-30T13:36:11Z</time>
      </trkpt>
      <trkpt lat="50.15999" lon="5.07871">
        <ele>139.53</ele>
        <time>2017-04-30T13:36:14Z</time>
      </trkpt>
      <trkpt lat="50.15992" lon="5.07868">
        <ele>140.01</ele>
        <time>2017-04-30T13:36:19Z</time>
      </trkpt>
      <trkpt lat="50.15977" lon="5.07848">
        <ele>140.01</ele>
        <time>2017-04-30T13:36:34Z</time>
      </trkpt>
      <trkpt lat="50.15966" lon="5.07834">
        <ele>140.49</ele>
        <time>2017-04-30T13:36:49Z</time>
      </trkpt>
      <trkpt lat="50.15958" lon="5.07816">
        <ele>140.49</ele>
        <time>2017-04-30T13:37:02Z</time>
      </trkpt>
      <trkpt lat="50.15954" lon="5.07788">
        <ele>140.49</ele>
        <time>2017-04-30T13:37:18Z</time>
      </trkpt>
      <trkpt lat="50.15943" lon="5.07763">
        <ele>139.53</ele>
        <time>2017-04-30T13:37:37Z</time>
      </trkpt>
      <trkpt lat="50.15927" lon="5.07732">
        <ele>139.53</ele>
        <time>2017-04-30T13:37:56Z</time>
      </trkpt>
      <trkpt lat="50.15918" lon="5.07709">
        <ele>139.53</ele>
        <time>2017-04-30T13:38:06Z</time>
      </trkpt>
      <trkpt lat="50.15917" lon="5.07705">
        <ele>139.53</ele>
        <time>2017-04-30T13:38:08Z</time>
      </trkpt>
      <trkpt lat="50.15909" lon="5.07674">
        <ele>139.53</ele>
        <time>2017-04-30T13:38:24Z</time>
      </trkpt>
      <trkpt lat="50.15905" lon="5.07662">
        <ele>140.49</ele>
        <time>2017-04-30T13:38:32Z</time>
      </trkpt>
      <trkpt lat="50.15896" lon="5.07635">
        <ele>140.97</ele>
        <time>2017-04-30T13:38:48Z</time>
      </trkpt>
      <trkpt lat="50.15893" lon="5.07619">
        <ele>140.97</ele>
        <time>2017-04-30T13:38:59Z</time>
      </trkpt>
      <trkpt lat="50.15888" lon="5.07586">
        <ele>140.49</ele>
        <time>2017-04-30T13:39:16Z</time>
      </trkpt>
      <trkpt lat="50.15883" lon="5.07563">
        <ele>139.05</ele>
        <time>2017-04-30T13:39:29Z</time>
      </trkpt>
      <trkpt lat="50.15876" lon="5.07535">
        <ele>139.05</ele>
        <time>2017-04-30T13:39:44Z</time>
      </trkpt>
      <trkpt lat="50.15873" lon="5.07506">
        <ele>138.09</ele>
        <time>2017-04-30T13:40:01Z</time>
      </trkpt>
      <trkpt lat="50.15873" lon="5.07501">
        <ele>138.09</ele>
        <time>2017-04-30T13:40:03Z</time>
      </trkpt>
      <trkpt lat="50.15868" lon="5.07481">
        <ele>138.09</ele>
        <time>2017-04-30T13:40:14Z</time>
      </trkpt>
      <trkpt lat="50.15864" lon="5.07447">
        <ele>138.57</ele>
        <time>2017-04-30T13:40:29Z</time>
      </trkpt>
      <trkpt lat="50.15859" lon="5.07414">
        <ele>138.57</ele>
        <time>2017-04-30T13:40:46Z</time>
      </trkpt>
      <trkpt lat="50.15859" lon="5.07407">
        <ele>137.13</ele>
        <time>2017-04-30T13:40:50Z</time>
      </trkpt>
      <trkpt lat="50.15855" lon="5.07374">
        <ele>137.13</ele>
        <time>2017-04-30T13:41:07Z</time>
      </trkpt>
      <trkpt lat="50.15853" lon="5.07338">
        <ele>136.64</ele>
        <time>2017-04-30T13:41:25Z</time>
      </trkpt>
      <trkpt lat="50.15853" lon="5.07314">
        <ele>136.64</ele>
        <time>2017-04-30T13:41:37Z</time>
      </trkpt>
      <trkpt lat="50.15841" lon="5.07304">
        <ele>136.16</ele>
        <time>2017-04-30T13:41:52Z</time>
      </trkpt>
      <trkpt lat="50.15834" lon="5.07307">
        <ele>136.64</ele>
        <time>2017-04-30T13:42:10Z</time>
      </trkpt>
      <trkpt lat="50.15827" lon="5.07316">
        <ele>136.64</ele>
        <time>2017-04-30T13:42:24Z</time>
      </trkpt>
      <trkpt lat="50.15826" lon="5.07336">
        <ele>137.13</ele>
        <time>2017-04-30T13:42:39Z</time>
      </trkpt>
      <trkpt lat="50.15828" lon="5.07352">
        <ele>138.09</ele>
        <time>2017-04-30T13:42:52Z</time>
      </trkpt>
      <trkpt lat="50.15832" lon="5.07375">
        <ele>139.05</ele>
        <time>2017-04-30T13:43:06Z</time>
      </trkpt>
      <trkpt lat="50.15834" lon="5.07382">
        <ele>140.49</ele>
        <time>2017-04-30T13:43:11Z</time>
      </trkpt>
      <trkpt lat="50.15834" lon="5.07419">
        <ele>140.97</ele>
        <time>2017-04-30T13:43:28Z</time>
      </trkpt>
      <trkpt lat="50.15837" lon="5.07443">
        <ele>141.93</ele>
        <time>2017-04-30T13:43:43Z</time>
      </trkpt>
      <trkpt lat="50.1584" lon="5.07472">
        <ele>143.37</ele>
        <time>2017-04-30T13:44:01Z</time>
      </trkpt>
      <trkpt lat="50.15838" lon="5.07481">
        <ele>142.89</ele>
        <time>2017-04-30T13:44:16Z</time>
      </trkpt>
      <trkpt lat="50.1584" lon="5.07486">
        <ele>142.89</ele>
        <time>2017-04-30T13:44:37Z</time>
      </trkpt>
      <trkpt lat="50.15853" lon="5.07486">
        <ele>143.37</ele>
        <time>2017-04-30T13:44:53Z</time>
      </trkpt>
      <trkpt lat="50.15861" lon="5.07484">
        <ele>144.82</ele>
        <time>2017-04-30T13:45:03Z</time>
      </trkpt>
      <trkpt lat="50.15875" lon="5.07478">
        <ele>145.78</ele>
        <time>2017-04-30T13:45:18Z</time>
      </trkpt>
      <trkpt lat="50.15893" lon="5.07458">
        <ele>146.74</ele>
        <time>2017-04-30T13:45:37Z</time>
      </trkpt>
      <trkpt lat="50.15914" lon="5.07443">
        <ele>146.74</ele>
        <time>2017-04-30T13:45:56Z</time>
      </trkpt>
      <trkpt lat="50.15916" lon="5.07442">
        <ele>148.18</ele>
        <time>2017-04-30T13:45:58Z</time>
      </trkpt>
      <trkpt lat="50.15918" lon="5.07441">
        <ele>148.18</ele>
        <time>2017-04-30T13:46:00Z</time>
      </trkpt>
      <trkpt lat="50.15942" lon="5.07425">
        <ele>149.14</ele>
        <time>2017-04-30T13:46:21Z</time>
      </trkpt>
      <trkpt lat="50.15958" lon="5.07412">
        <ele>150.1</ele>
        <time>2017-04-30T13:46:37Z</time>
      </trkpt>
      <trkpt lat="50.15973" lon="5.07403">
        <ele>150.1</ele>
        <time>2017-04-30T13:46:52Z</time>
      </trkpt>
      <trkpt lat="50.15984" lon="5.0739">
        <ele>150.58</ele>
        <time>2017-04-30T13:47:04Z</time>
      </trkpt>
      <trkpt lat="50.16001" lon="5.07368">
        <ele>151.06</ele>
        <time>2017-04-30T13:47:21Z</time>
      </trkpt>
      <trkpt lat="50.16016" lon="5.07348">
        <ele>152.03</ele>
        <time>2017-04-30T13:47:37Z</time>
      </trkpt>
      <trkpt lat="50.16032" lon="5.07326">
        <ele>152.51</ele>
        <time>2017-04-30T13:47:55Z</time>
      </trkpt>
      <trkpt lat="50.16045" lon="5.07303">
        <ele>152.99</ele>
        <time>2017-04-30T13:48:12Z</time>
      </trkpt>
      <trkpt lat="50.16056" lon="5.0728">
        <ele>153.95</ele>
        <time>2017-04-30T13:48:28Z</time>
      </trkpt>
      <trkpt lat="50.1607" lon="5.07259">
        <ele>154.43</ele>
        <time>2017-04-30T13:48:46Z</time>
      </trkpt>
      <trkpt lat="50.16075" lon="5.07256">
        <ele>154.43</ele>
        <time>2017-04-30T13:48:50Z</time>
      </trkpt>
      <trkpt lat="50.16105" lon="5.07246">
        <ele>154.91</ele>
        <time>2017-04-30T13:49:10Z</time>
      </trkpt>
      <trkpt lat="50.16108" lon="5.07246">
        <ele>153.47</ele>
        <time>2017-04-30T13:49:13Z</time>
      </trkpt>
      <trkpt lat="50.16111" lon="5.07246">
        <ele>154.43</ele>
        <time>2017-04-30T13:49:26Z</time>
      </trkpt>
      <trkpt lat="50.1612" lon="5.07248">
        <ele>154.43</ele>
        <time>2017-04-30T13:49:40Z</time>
      </trkpt>
      <trkpt lat="50.16137" lon="5.07242">
        <ele>154.43</ele>
        <time>2017-04-30T13:49:55Z</time>
      </trkpt>
      <trkpt lat="50.16163" lon="5.07236">
        <ele>154.43</ele>
        <time>2017-04-30T13:50:15Z</time>
      </trkpt>
      <trkpt lat="50.16185" lon="5.07235">
        <ele>155.39</ele>
        <time>2017-04-30T13:50:33Z</time>
      </trkpt>
      <trkpt lat="50.16206" lon="5.07238">
        <ele>155.87</ele>
        <time>2017-04-30T13:50:49Z</time>
      </trkpt>
      <trkpt lat="50.16225" lon="5.07247">
        <ele>155.87</ele>
        <time>2017-04-30T13:51:06Z</time>
      </trkpt>
      <trkpt lat="50.16234" lon="5.07252">
        <ele>155.87</ele>
        <time>2017-04-30T13:51:13Z</time>
      </trkpt>
      <trkpt lat="50.16243" lon="5.07257">
        <ele>155.87</ele>
        <time>2017-04-30T13:51:20Z</time>
      </trkpt>
      <trkpt lat="50.1626" lon="5.07268">
        <ele>157.79</ele>
        <time>2017-04-30T13:51:37Z</time>
      </trkpt>
      <trkpt lat="50.16276" lon="5.07277">
        <ele>156.35</ele>
        <time>2017-04-30T13:51:52Z</time>
      </trkpt>
      <trkpt lat="50.16295" lon="5.07286">
        <ele>158.75</ele>
        <time>2017-04-30T13:52:09Z</time>
      </trkpt>
      <trkpt lat="50.16316" lon="5.07283">
        <ele>159.72</ele>
        <time>2017-04-30T13:52:27Z</time>
      </trkpt>
      <trkpt lat="50.1633" lon="5.07281">
        <ele>160.2</ele>
        <time>2017-04-30T13:52:43Z</time>
      </trkpt>
      <trkpt lat="50.1635" lon="5.0728">
        <ele>160.68</ele>
        <time>2017-04-30T13:52:59Z</time>
      </trkpt>
      <trkpt lat="50.16371" lon="5.07276">
        <ele>161.16</ele>
        <time>2017-04-30T13:53:17Z</time>
      </trkpt>
      <trkpt lat="50.16391" lon="5.07278">
        <ele>161.64</ele>
        <time>2017-04-30T13:53:33Z</time>
      </trkpt>
      <trkpt lat="50.16412" lon="5.07281">
        <ele>163.08</ele>
        <time>2017-04-30T13:53:50Z</time>
      </trkpt>
      <trkpt lat="50.16431" lon="5.07298">
        <ele>164.04</ele>
        <time>2017-04-30T13:54:08Z</time>
      </trkpt>
      <trkpt lat="50.16451" lon="5.07315">
        <ele>164.04</ele>
        <time>2017-04-30T13:54:26Z</time>
      </trkpt>
      <trkpt lat="50.16473" lon="5.07326">
        <ele>164.52</ele>
        <time>2017-04-30T13:54:45Z</time>
      </trkpt>
      <trkpt lat="50.1649" lon="5.0733">
        <ele>165</ele>
        <time>2017-04-30T13:55:03Z</time>
      </trkpt>
      <trkpt lat="50.16512" lon="5.07338">
        <ele>164.52</ele>
        <time>2017-04-30T13:55:21Z</time>
      </trkpt>
      <trkpt lat="50.16527" lon="5.0734">
        <ele>165</ele>
        <time>2017-04-30T13:55:39Z</time>
      </trkpt>
      <trkpt lat="50.16545" lon="5.07351">
        <ele>165</ele>
        <time>2017-04-30T13:55:54Z</time>
      </trkpt>
      <trkpt lat="50.16564" lon="5.07363">
        <ele>165.48</ele>
        <time>2017-04-30T13:56:11Z</time>
      </trkpt>
      <trkpt lat="50.16578" lon="5.07374">
        <ele>165.48</ele>
        <time>2017-04-30T13:56:25Z</time>
      </trkpt>
      <trkpt lat="50.16597" lon="5.0739">
        <ele>165.48</ele>
        <time>2017-04-30T13:56:43Z</time>
      </trkpt>
      <trkpt lat="50.16618" lon="5.07407">
        <ele>166.45</ele>
        <time>2017-04-30T13:57:04Z</time>
      </trkpt>
      <trkpt lat="50.16632" lon="5.07418">
        <ele>166.45</ele>
        <time>2017-04-30T13:57:18Z</time>
      </trkpt>
      <trkpt lat="50.16635" lon="5.07423">
        <ele>166.93</ele>
        <time>2017-04-30T13:57:34Z</time>
      </trkpt>
      <trkpt lat="50.16645" lon="5.07423">
        <ele>167.41</ele>
        <time>2017-04-30T13:57:44Z</time>
      </trkpt>
      <trkpt lat="50.16659" lon="5.07409">
        <ele>170.29</ele>
        <time>2017-04-30T13:58:03Z</time>
      </trkpt>
      <trkpt lat="50.16659" lon="5.0741">
        <ele>167.89</ele>
        <time>2017-04-30T13:58:05Z</time>
      </trkpt>
      <trkpt lat="50.16664" lon="5.07429">
        <ele>166.45</ele>
        <time>2017-04-30T13:58:17Z</time>
      </trkpt>
      <trkpt lat="50.1666" lon="5.0744">
        <ele>166.45</ele>
        <time>2017-04-30T13:58:25Z</time>
      </trkpt>
      <trkpt lat="50.16657" lon="5.07472">
        <ele>166.45</ele>
        <time>2017-04-30T13:58:44Z</time>
      </trkpt>
      <trkpt lat="50.1666" lon="5.07486">
        <ele>166.45</ele>
        <time>2017-04-30T13:58:51Z</time>
      </trkpt>
      <trkpt lat="50.16662" lon="5.07515">
        <ele>164.52</ele>
        <time>2017-04-30T13:59:08Z</time>
      </trkpt>
      <trkpt lat="50.16663" lon="5.07526">
        <ele>164.04</ele>
        <time>2017-04-30T13:59:14Z</time>
      </trkpt>
      <trkpt lat="50.16664" lon="5.07555">
        <ele>162.6</ele>
        <time>2017-04-30T13:59:29Z</time>
      </trkpt>
      <trkpt lat="50.16665" lon="5.07586">
        <ele>160.2</ele>
        <time>2017-04-30T13:59:46Z</time>
      </trkpt>
      <trkpt lat="50.16667" lon="5.07613">
        <ele>157.79</ele>
        <time>2017-04-30T14:00:02Z</time>
      </trkpt>
      <trkpt lat="50.16667" lon="5.07619">
        <ele>157.79</ele>
        <time>2017-04-30T14:00:06Z</time>
      </trkpt>
      <trkpt lat="50.1667" lon="5.07648">
        <ele>155.87</ele>
        <time>2017-04-30T14:00:23Z</time>
      </trkpt>
      <trkpt lat="50.16672" lon="5.07672">
        <ele>153.47</ele>
        <time>2017-04-30T14:00:38Z</time>
      </trkpt>
      <trkpt lat="50.16671" lon="5.07692">
        <ele>152.51</ele>
        <time>2017-04-30T14:00:51Z</time>
      </trkpt>
      <trkpt lat="50.16672" lon="5.07706">
        <ele>153.47</ele>
        <time>2017-04-30T14:01:01Z</time>
      </trkpt>
      <trkpt lat="50.16672" lon="5.07728">
        <ele>150.58</ele>
        <time>2017-04-30T14:01:15Z</time>
      </trkpt>
      <trkpt lat="50.16673" lon="5.07748">
        <ele>148.18</ele>
        <time>2017-04-30T14:01:30Z</time>
      </trkpt>
      <trkpt lat="50.16673" lon="5.07773">
        <ele>145.78</ele>
        <time>2017-04-30T14:01:45Z</time>
      </trkpt>
      <trkpt lat="50.1667" lon="5.07806">
        <ele>143.37</ele>
        <time>2017-04-30T14:02:04Z</time>
      </trkpt>
      <trkpt lat="50.16664" lon="5.07829">
        <ele>141.45</ele>
        <time>2017-04-30T14:02:18Z</time>
      </trkpt>
      <trkpt lat="50.16659" lon="5.07845">
        <ele>140.49</ele>
        <time>2017-04-30T14:02:28Z</time>
      </trkpt>
      <trkpt lat="50.16658" lon="5.07852">
        <ele>140.49</ele>
        <time>2017-04-30T14:02:32Z</time>
      </trkpt>
      <trkpt lat="50.16661" lon="5.07875">
        <ele>138.09</ele>
        <time>2017-04-30T14:02:48Z</time>
      </trkpt>
      <trkpt lat="50.16664" lon="5.07896">
        <ele>137.13</ele>
        <time>2017-04-30T14:03:02Z</time>
      </trkpt>
      <trkpt lat="50.16668" lon="5.07917">
        <ele>134.72</ele>
        <time>2017-04-30T14:03:19Z</time>
      </trkpt>
      <trkpt lat="50.16669" lon="5.07943">
        <ele>133.76</ele>
        <time>2017-04-30T14:03:33Z</time>
      </trkpt>
      <trkpt lat="50.16666" lon="5.07973">
        <ele>135.68</ele>
        <time>2017-04-30T14:03:50Z</time>
      </trkpt>
      <trkpt lat="50.16673" lon="5.07984">
        <ele>136.16</ele>
        <time>2017-04-30T14:04:03Z</time>
      </trkpt>
      <trkpt lat="50.16679" lon="5.0799">
        <ele>135.68</ele>
        <time>2017-04-30T14:04:18Z</time>
      </trkpt>
      <trkpt lat="50.16685" lon="5.07985">
        <ele>135.68</ele>
        <time>2017-04-30T14:04:32Z</time>
      </trkpt>
      <trkpt lat="50.16696" lon="5.07976">
        <ele>136.16</ele>
        <time>2017-04-30T14:04:45Z</time>
      </trkpt>
      <trkpt lat="50.16699" lon="5.07974">
        <ele>136.16</ele>
        <time>2017-04-30T14:04:48Z</time>
      </trkpt>
      <trkpt lat="50.16715" lon="5.07958">
        <ele>135.68</ele>
        <time>2017-04-30T14:05:04Z</time>
      </trkpt>
      <trkpt lat="50.16721" lon="5.0795">
        <ele>134.24</ele>
        <time>2017-04-30T14:05:10Z</time>
      </trkpt>
      <trkpt lat="50.1673" lon="5.07936">
        <ele>135.68</ele>
        <time>2017-04-30T14:05:22Z</time>
      </trkpt>
      <trkpt lat="50.16742" lon="5.07916">
        <ele>136.64</ele>
        <time>2017-04-30T14:05:37Z</time>
      </trkpt>
      <trkpt lat="50.16743" lon="5.07915">
        <ele>136.64</ele>
        <time>2017-04-30T14:05:38Z</time>
      </trkpt>
      <trkpt lat="50.16756" lon="5.079">
        <ele>137.61</ele>
        <time>2017-04-30T14:05:52Z</time>
      </trkpt>
      <trkpt lat="50.16773" lon="5.07883">
        <ele>139.05</ele>
        <time>2017-04-30T14:06:10Z</time>
      </trkpt>
      <trkpt lat="50.16792" lon="5.07875">
        <ele>140.01</ele>
        <time>2017-04-30T14:06:25Z</time>
      </trkpt>
      <trkpt lat="50.16806" lon="5.07884">
        <ele>140.49</ele>
        <time>2017-04-30T14:06:39Z</time>
      </trkpt>
      <trkpt lat="50.16823" lon="5.07905">
        <ele>140.49</ele>
        <time>2017-04-30T14:06:57Z</time>
      </trkpt>
      <trkpt lat="50.16842" lon="5.07928">
        <ele>140.97</ele>
        <time>2017-04-30T14:07:14Z</time>
      </trkpt>
      <trkpt lat="50.1686" lon="5.07954">
        <ele>140.97</ele>
        <time>2017-04-30T14:07:34Z</time>
      </trkpt>
      <trkpt lat="50.16876" lon="5.07972">
        <ele>141.93</ele>
        <time>2017-04-30T14:07:50Z</time>
      </trkpt>
      <trkpt lat="50.16892" lon="5.07982">
        <ele>143.37</ele>
        <time>2017-04-30T14:08:08Z</time>
      </trkpt>
      <trkpt lat="50.16918" lon="5.07992">
        <ele>144.34</ele>
        <time>2017-04-30T14:08:28Z</time>
      </trkpt>
      <trkpt lat="50.16941" lon="5.07993">
        <ele>144.82</ele>
        <time>2017-04-30T14:08:48Z</time>
      </trkpt>
      <trkpt lat="50.16944" lon="5.07993">
        <ele>145.3</ele>
        <time>2017-04-30T14:08:49Z</time>
      </trkpt>
      <trkpt lat="50.16959" lon="5.0799">
        <ele>145.3</ele>
        <time>2017-04-30T14:09:05Z</time>
      </trkpt>
      <trkpt lat="50.16977" lon="5.07983">
        <ele>145.78</ele>
        <time>2017-04-30T14:09:20Z</time>
      </trkpt>
      <trkpt lat="50.16979" lon="5.07982">
        <ele>145.78</ele>
        <time>2017-04-30T14:09:22Z</time>
      </trkpt>
      <trkpt lat="50.16994" lon="5.07974">
        <ele>145.78</ele>
        <time>2017-04-30T14:09:37Z</time>
      </trkpt>
      <trkpt lat="50.16998" lon="5.07971">
        <ele>145.78</ele>
        <time>2017-04-30T14:09:41Z</time>
      </trkpt>
      <trkpt lat="50.17" lon="5.07969">
        <ele>145.78</ele>
        <time>2017-04-30T14:09:43Z</time>
      </trkpt>
      <trkpt lat="50.17014" lon="5.07959">
        <ele>145.78</ele>
        <time>2017-04-30T14:09:56Z</time>
      </trkpt>
      <trkpt lat="50.17034" lon="5.07947">
        <ele>145.78</ele>
        <time>2017-04-30T14:10:12Z</time>
      </trkpt>
      <trkpt lat="50.17051" lon="5.07938">
        <ele>145.78</ele>
        <time>2017-04-30T14:10:26Z</time>
      </trkpt>
      <trkpt lat="50.17065" lon="5.07932">
        <ele>144.82</ele>
        <time>2017-04-30T14:10:38Z</time>
      </trkpt>
      <trkpt lat="50.17078" lon="5.07926">
        <ele>144.82</ele>
        <time>2017-04-30T14:10:49Z</time>
      </trkpt>
      <trkpt lat="50.17083" lon="5.07922">
        <ele>143.85</ele>
        <time>2017-04-30T14:10:54Z</time>
      </trkpt>
      <trkpt lat="50.17106" lon="5.07911">
        <ele>143.85</ele>
        <time>2017-04-30T14:11:13Z</time>
      </trkpt>
      <trkpt lat="50.17122" lon="5.07901">
        <ele>143.85</ele>
        <time>2017-04-30T14:11:28Z</time>
      </trkpt>
      <trkpt lat="50.17138" lon="5.07892">
        <ele>142.89</ele>
        <time>2017-04-30T14:11:42Z</time>
      </trkpt>
      <trkpt lat="50.17157" lon="5.07882">
        <ele>142.41</ele>
        <time>2017-04-30T14:11:57Z</time>
      </trkpt>
      <trkpt lat="50.17171" lon="5.0787">
        <ele>141.93</ele>
        <time>2017-04-30T14:12:10Z</time>
      </trkpt>
      <trkpt lat="50.17186" lon="5.07855">
        <ele>141.45</ele>
        <time>2017-04-30T14:12:25Z</time>
      </trkpt>
      <trkpt lat="50.17194" lon="5.07847">
        <ele>141.45</ele>
        <time>2017-04-30T14:12:33Z</time>
      </trkpt>
      <trkpt lat="50.17208" lon="5.07829">
        <ele>142.89</ele>
        <time>2017-04-30T14:12:47Z</time>
      </trkpt>
      <trkpt lat="50.17221" lon="5.07813">
        <ele>143.85</ele>
        <time>2017-04-30T14:13:01Z</time>
      </trkpt>
      <trkpt lat="50.17233" lon="5.07799">
        <ele>143.85</ele>
        <time>2017-04-30T14:13:12Z</time>
      </trkpt>
      <trkpt lat="50.17247" lon="5.07787">
        <ele>144.82</ele>
        <time>2017-04-30T14:13:26Z</time>
      </trkpt>
      <trkpt lat="50.17262" lon="5.07768">
        <ele>144.82</ele>
        <time>2017-04-30T14:13:42Z</time>
      </trkpt>
      <trkpt lat="50.17276" lon="5.07746">
        <ele>145.78</ele>
        <time>2017-04-30T14:13:58Z</time>
      </trkpt>
      <trkpt lat="50.17291" lon="5.07731">
        <ele>145.78</ele>
        <time>2017-04-30T14:14:11Z</time>
      </trkpt>
      <trkpt lat="50.17305" lon="5.07713">
        <ele>145.78</ele>
        <time>2017-04-30T14:14:26Z</time>
      </trkpt>
      <trkpt lat="50.1732" lon="5.07695">
        <ele>145.78</ele>
        <time>2017-04-30T14:14:41Z</time>
      </trkpt>
      <trkpt lat="50.17331" lon="5.07677">
        <ele>145.78</ele>
        <time>2017-04-30T14:14:55Z</time>
      </trkpt>
      <trkpt lat="50.17346" lon="5.07656">
        <ele>144.82</ele>
        <time>2017-04-30T14:15:09Z</time>
      </trkpt>
      <trkpt lat="50.17351" lon="5.07652">
        <ele>144.34</ele>
        <time>2017-04-30T14:15:23Z</time>
      </trkpt>
      <trkpt lat="50.17362" lon="5.07636">
        <ele>144.82</ele>
        <time>2017-04-30T14:15:39Z</time>
      </trkpt>
      <trkpt lat="50.17379" lon="5.07615">
        <ele>144.34</ele>
        <time>2017-04-30T14:15:56Z</time>
      </trkpt>
      <trkpt lat="50.17396" lon="5.07599">
        <ele>144.34</ele>
        <time>2017-04-30T14:16:12Z</time>
      </trkpt>
      <trkpt lat="50.17411" lon="5.07592">
        <ele>144.34</ele>
        <time>2017-04-30T14:16:24Z</time>
      </trkpt>
      <trkpt lat="50.1743" lon="5.07591">
        <ele>144.34</ele>
        <time>2017-04-30T14:16:39Z</time>
      </trkpt>
      <trkpt lat="50.1745" lon="5.07587">
        <ele>144.34</ele>
        <time>2017-04-30T14:16:55Z</time>
      </trkpt>
      <trkpt lat="50.1747" lon="5.07572">
        <ele>144.34</ele>
        <time>2017-04-30T14:17:11Z</time>
      </trkpt>
      <trkpt lat="50.17477" lon="5.07566">
        <ele>143.37</ele>
        <time>2017-04-30T14:17:18Z</time>
      </trkpt>
      <trkpt lat="50.17488" lon="5.07551">
        <ele>141.93</ele>
        <time>2017-04-30T14:17:32Z</time>
      </trkpt>
      <trkpt lat="50.17503" lon="5.07536">
        <ele>141.45</ele>
        <time>2017-04-30T14:17:47Z</time>
      </trkpt>
      <trkpt lat="50.17505" lon="5.07533">
        <ele>141.45</ele>
        <time>2017-04-30T14:17:49Z</time>
      </trkpt>
      <trkpt lat="50.17514" lon="5.07525">
        <ele>142.89</ele>
        <time>2017-04-30T14:17:58Z</time>
      </trkpt>
      <trkpt lat="50.17528" lon="5.07513">
        <ele>142.89</ele>
        <time>2017-04-30T14:18:12Z</time>
      </trkpt>
      <trkpt lat="50.17534" lon="5.07511">
        <ele>143.85</ele>
        <time>2017-04-30T14:18:18Z</time>
      </trkpt>
      <trkpt lat="50.17545" lon="5.07514">
        <ele>143.85</ele>
        <time>2017-04-30T14:18:29Z</time>
      </trkpt>
      <trkpt lat="50.17551" lon="5.07513">
        <ele>143.85</ele>
        <time>2017-04-30T14:18:45Z</time>
      </trkpt>
      <trkpt lat="50.17552" lon="5.07514">
        <ele>143.85</ele>
        <time>2017-04-30T14:19:04Z</time>
      </trkpt>
      <trkpt lat="50.1756" lon="5.07519">
        <ele>143.85</ele>
        <time>2017-04-30T14:19:17Z</time>
      </trkpt>
      <trkpt lat="50.17576" lon="5.07526">
        <ele>144.34</ele>
        <time>2017-04-30T14:19:32Z</time>
      </trkpt>
      <trkpt lat="50.17593" lon="5.0754">
        <ele>144.34</ele>
        <time>2017-04-30T14:19:47Z</time>
      </trkpt>
      <trkpt lat="50.17611" lon="5.07555">
        <ele>145.3</ele>
        <time>2017-04-30T14:20:04Z</time>
      </trkpt>
      <trkpt lat="50.17629" lon="5.07567">
        <ele>145.3</ele>
        <time>2017-04-30T14:20:22Z</time>
      </trkpt>
      <trkpt lat="50.17638" lon="5.07576">
        <ele>145.3</ele>
        <time>2017-04-30T14:20:30Z</time>
      </trkpt>
      <trkpt lat="50.17652" lon="5.07591">
        <ele>145.78</ele>
        <time>2017-04-30T14:20:44Z</time>
      </trkpt>
      <trkpt lat="50.17654" lon="5.07594">
        <ele>145.3</ele>
        <time>2017-04-30T14:20:46Z</time>
      </trkpt>
      <trkpt lat="50.17668" lon="5.07616">
        <ele>145.3</ele>
        <time>2017-04-30T14:21:02Z</time>
      </trkpt>
      <trkpt lat="50.17677" lon="5.07631">
        <ele>145.78</ele>
        <time>2017-04-30T14:21:15Z</time>
      </trkpt>
      <trkpt lat="50.17684" lon="5.07656">
        <ele>146.26</ele>
        <time>2017-04-30T14:21:32Z</time>
      </trkpt>
      <trkpt lat="50.17693" lon="5.07671">
        <ele>145.78</ele>
        <time>2017-04-30T14:21:45Z</time>
      </trkpt>
      <trkpt lat="50.17697" lon="5.07688">
        <ele>145.78</ele>
        <time>2017-04-30T14:22:00Z</time>
      </trkpt>
      <trkpt lat="50.17702" lon="5.07709">
        <ele>145.78</ele>
        <time>2017-04-30T14:22:14Z</time>
      </trkpt>
      <trkpt lat="50.17709" lon="5.07725">
        <ele>145.3</ele>
        <time>2017-04-30T14:22:26Z</time>
      </trkpt>
      <trkpt lat="50.17713" lon="5.07743">
        <ele>145.3</ele>
        <time>2017-04-30T14:22:37Z</time>
      </trkpt>
      <trkpt lat="50.17718" lon="5.07769">
        <ele>145.3</ele>
        <time>2017-04-30T14:22:52Z</time>
      </trkpt>
      <trkpt lat="50.17724" lon="5.07793">
        <ele>144.82</ele>
        <time>2017-04-30T14:23:07Z</time>
      </trkpt>
      <trkpt lat="50.17731" lon="5.07817">
        <ele>144.82</ele>
        <time>2017-04-30T14:23:22Z</time>
      </trkpt>
      <trkpt lat="50.17735" lon="5.0784">
        <ele>144.82</ele>
        <time>2017-04-30T14:23:32Z</time>
      </trkpt>
      <trkpt lat="50.17737" lon="5.07847">
        <ele>143.37</ele>
        <time>2017-04-30T14:23:36Z</time>
      </trkpt>
      <trkpt lat="50.17747" lon="5.07873">
        <ele>143.37</ele>
        <time>2017-04-30T14:23:52Z</time>
      </trkpt>
      <trkpt lat="50.17748" lon="5.07882">
        <ele>144.34</ele>
        <time>2017-04-30T14:24:07Z</time>
      </trkpt>
      <trkpt lat="50.17752" lon="5.07888">
        <ele>144.34</ele>
        <time>2017-04-30T14:24:28Z</time>
      </trkpt>
      <trkpt lat="50.17751" lon="5.07892">
        <ele>144.34</ele>
        <time>2017-04-30T14:24:48Z</time>
      </trkpt>
      <trkpt lat="50.17766" lon="5.07882">
        <ele>146.26</ele>
        <time>2017-04-30T14:25:05Z</time>
      </trkpt>
      <trkpt lat="50.17773" lon="5.07866">
        <ele>147.7</ele>
        <time>2017-04-30T14:25:21Z</time>
      </trkpt>
      <trkpt lat="50.17774" lon="5.07846">
        <ele>149.14</ele>
        <time>2017-04-30T14:25:36Z</time>
      </trkpt>
      <trkpt lat="50.1777" lon="5.07824">
        <ele>149.62</ele>
        <time>2017-04-30T14:25:49Z</time>
      </trkpt>
      <trkpt lat="50.17776" lon="5.07802">
        <ele>152.51</ele>
        <time>2017-04-30T14:26:07Z</time>
      </trkpt>
      <trkpt lat="50.17784" lon="5.07805">
        <ele>151.06</ele>
        <time>2017-04-30T14:26:15Z</time>
      </trkpt>
      <trkpt lat="50.17801" lon="5.07809">
        <ele>150.1</ele>
        <time>2017-04-30T14:26:31Z</time>
      </trkpt>
      <trkpt lat="50.17819" lon="5.07817">
        <ele>149.62</ele>
        <time>2017-04-30T14:26:46Z</time>
      </trkpt>
      <trkpt lat="50.17838" lon="5.07824">
        <ele>150.58</ele>
        <time>2017-04-30T14:27:03Z</time>
      </trkpt>
      <trkpt lat="50.17853" lon="5.07829">
        <ele>151.54</ele>
        <time>2017-04-30T14:27:20Z</time>
      </trkpt>
      <trkpt lat="50.17868" lon="5.07841">
        <ele>152.03</ele>
        <time>2017-04-30T14:27:33Z</time>
      </trkpt>
      <trkpt lat="50.17881" lon="5.0785">
        <ele>152.51</ele>
        <time>2017-04-30T14:27:43Z</time>
      </trkpt>
      <trkpt lat="50.17897" lon="5.07864">
        <ele>152.99</ele>
        <time>2017-04-30T14:27:58Z</time>
      </trkpt>
      <trkpt lat="50.17912" lon="5.07881">
        <ele>154.43</ele>
        <time>2017-04-30T14:28:15Z</time>
      </trkpt>
      <trkpt lat="50.17914" lon="5.07884">
        <ele>154.91</ele>
        <time>2017-04-30T14:28:18Z</time>
      </trkpt>
      <trkpt lat="50.17926" lon="5.07895">
        <ele>154.91</ele>
        <time>2017-04-30T14:28:30Z</time>
      </trkpt>
      <trkpt lat="50.17939" lon="5.07915">
        <ele>156.83</ele>
        <time>2017-04-30T14:28:45Z</time>
      </trkpt>
      <trkpt lat="50.17948" lon="5.07942">
        <ele>156.83</ele>
        <time>2017-04-30T14:29:00Z</time>
      </trkpt>
      <trkpt lat="50.17959" lon="5.07968">
        <ele>157.31</ele>
        <time>2017-04-30T14:29:16Z</time>
      </trkpt>
      <trkpt lat="50.17971" lon="5.07994">
        <ele>157.31</ele>
        <time>2017-04-30T14:29:33Z</time>
      </trkpt>
      <trkpt lat="50.1798" lon="5.08013">
        <ele>158.27</ele>
        <time>2017-04-30T14:29:48Z</time>
      </trkpt>
      <trkpt lat="50.17981" lon="5.08016">
        <ele>158.27</ele>
        <time>2017-04-30T14:29:50Z</time>
      </trkpt>
      <trkpt lat="50.17994" lon="5.08037">
        <ele>159.72</ele>
        <time>2017-04-30T14:30:06Z</time>
      </trkpt>
      <trkpt lat="50.18003" lon="5.08057">
        <ele>159.72</ele>
        <time>2017-04-30T14:30:19Z</time>
      </trkpt>
      <trkpt lat="50.18013" lon="5.08079">
        <ele>159.72</ele>
        <time>2017-04-30T14:30:33Z</time>
      </trkpt>
      <trkpt lat="50.18024" lon="5.08109">
        <ele>159.72</ele>
        <time>2017-04-30T14:30:51Z</time>
      </trkpt>
      <trkpt lat="50.18035" lon="5.08135">
        <ele>159.72</ele>
        <time>2017-04-30T14:31:07Z</time>
      </trkpt>
      <trkpt lat="50.18044" lon="5.08159">
        <ele>158.27</ele>
        <time>2017-04-30T14:31:20Z</time>
      </trkpt>
      <trkpt lat="50.18046" lon="5.08164">
        <ele>158.27</ele>
        <time>2017-04-30T14:31:23Z</time>
      </trkpt>
      <trkpt lat="50.18052" lon="5.08177">
        <ele>158.75</ele>
        <time>2017-04-30T14:31:31Z</time>
      </trkpt>
      <trkpt lat="50.18062" lon="5.08202">
        <ele>159.24</ele>
        <time>2017-04-30T14:31:46Z</time>
      </trkpt>
      <trkpt lat="50.18073" lon="5.08233">
        <ele>159.24</ele>
        <time>2017-04-30T14:32:04Z</time>
      </trkpt>
      <trkpt lat="50.18083" lon="5.08255">
        <ele>159.24</ele>
        <time>2017-04-30T14:32:18Z</time>
      </trkpt>
      <trkpt lat="50.18084" lon="5.08262">
        <ele>159.72</ele>
        <time>2017-04-30T14:32:22Z</time>
      </trkpt>
      <trkpt lat="50.18094" lon="5.08287">
        <ele>159.72</ele>
        <time>2017-04-30T14:32:38Z</time>
      </trkpt>
      <trkpt lat="50.18097" lon="5.08294">
        <ele>159.72</ele>
        <time>2017-04-30T14:32:42Z</time>
      </trkpt>
      <trkpt lat="50.1811" lon="5.08331">
        <ele>160.2</ele>
        <time>2017-04-30T14:33:02Z</time>
      </trkpt>
      <trkpt lat="50.18114" lon="5.08347">
        <ele>160.2</ele>
        <time>2017-04-30T14:33:17Z</time>
      </trkpt>
      <trkpt lat="50.18128" lon="5.08377">
        <ele>160.68</ele>
        <time>2017-04-30T14:33:35Z</time>
      </trkpt>
      <trkpt lat="50.18138" lon="5.08404">
        <ele>160.68</ele>
        <time>2017-04-30T14:33:50Z</time>
      </trkpt>
      <trkpt lat="50.18149" lon="5.08435">
        <ele>161.16</ele>
        <time>2017-04-30T14:34:08Z</time>
      </trkpt>
      <trkpt lat="50.1816" lon="5.08461">
        <ele>161.16</ele>
        <time>2017-04-30T14:34:22Z</time>
      </trkpt>
      <trkpt lat="50.18167" lon="5.08482">
        <ele>161.64</ele>
        <time>2017-04-30T14:34:36Z</time>
      </trkpt>
      <trkpt lat="50.18177" lon="5.08496">
        <ele>161.64</ele>
        <time>2017-04-30T14:34:50Z</time>
      </trkpt>
      <trkpt lat="50.18186" lon="5.08511">
        <ele>162.6</ele>
        <time>2017-04-30T14:35:05Z</time>
      </trkpt>
      <trkpt lat="50.18196" lon="5.08535">
        <ele>163.08</ele>
        <time>2017-04-30T14:35:21Z</time>
      </trkpt>
      <trkpt lat="50.18205" lon="5.08552">
        <ele>165</ele>
        <time>2017-04-30T14:35:34Z</time>
      </trkpt>
      <trkpt lat="50.18215" lon="5.08573">
        <ele>165</ele>
        <time>2017-04-30T14:35:48Z</time>
      </trkpt>
      <trkpt lat="50.18226" lon="5.08593">
        <ele>166.45</ele>
        <time>2017-04-30T14:36:02Z</time>
      </trkpt>
      <trkpt lat="50.18241" lon="5.08615">
        <ele>166.45</ele>
        <time>2017-04-30T14:36:18Z</time>
      </trkpt>
      <trkpt lat="50.18255" lon="5.08636">
        <ele>166.45</ele>
        <time>2017-04-30T14:36:34Z</time>
      </trkpt>
      <trkpt lat="50.18264" lon="5.0865">
        <ele>166.45</ele>
        <time>2017-04-30T14:36:44Z</time>
      </trkpt>
      <trkpt lat="50.18267" lon="5.08655">
        <ele>167.41</ele>
        <time>2017-04-30T14:36:48Z</time>
      </trkpt>
      <trkpt lat="50.18273" lon="5.08662">
        <ele>167.41</ele>
        <time>2017-04-30T14:36:54Z</time>
      </trkpt>
      <trkpt lat="50.18276" lon="5.08669">
        <ele>167.89</ele>
        <time>2017-04-30T14:36:59Z</time>
      </trkpt>
      <trkpt lat="50.18283" lon="5.08682">
        <ele>168.37</ele>
        <time>2017-04-30T14:37:08Z</time>
      </trkpt>
      <trkpt lat="50.18289" lon="5.08693">
        <ele>168.37</ele>
        <time>2017-04-30T14:37:16Z</time>
      </trkpt>
      <trkpt lat="50.18297" lon="5.08725">
        <ele>168.37</ele>
        <time>2017-04-30T14:37:35Z</time>
      </trkpt>
      <trkpt lat="50.18303" lon="5.08753">
        <ele>168.37</ele>
        <time>2017-04-30T14:37:52Z</time>
      </trkpt>
      <trkpt lat="50.18305" lon="5.08769">
        <ele>168.37</ele>
        <time>2017-04-30T14:38:07Z</time>
      </trkpt>
      <trkpt lat="50.18307" lon="5.08782">
        <ele>168.85</ele>
        <time>2017-04-30T14:38:26Z</time>
      </trkpt>
      <trkpt lat="50.18312" lon="5.08808">
        <ele>169.33</ele>
        <time>2017-04-30T14:38:44Z</time>
      </trkpt>
      <trkpt lat="50.18317" lon="5.08834">
        <ele>169.33</ele>
        <time>2017-04-30T14:39:01Z</time>
      </trkpt>
      <trkpt lat="50.18318" lon="5.08838">
        <ele>169.81</ele>
        <time>2017-04-30T14:39:17Z</time>
      </trkpt>
      <trkpt lat="50.18319" lon="5.08845">
        <ele>169.81</ele>
        <time>2017-04-30T14:39:34Z</time>
      </trkpt>
      <trkpt lat="50.1832" lon="5.08864">
        <ele>169.81</ele>
        <time>2017-04-30T14:39:49Z</time>
      </trkpt>
      <trkpt lat="50.18323" lon="5.08891">
        <ele>167.89</ele>
        <time>2017-04-30T14:40:02Z</time>
      </trkpt>
      <trkpt lat="50.18324" lon="5.08908">
        <ele>167.89</ele>
        <time>2017-04-30T14:40:12Z</time>
      </trkpt>
      <trkpt lat="50.18321" lon="5.08912">
        <ele>167.89</ele>
        <time>2017-04-30T14:40:15Z</time>
      </trkpt>
      <trkpt lat="50.18319" lon="5.08915">
        <ele>169.33</ele>
        <time>2017-04-30T14:40:18Z</time>
      </trkpt>
      <trkpt lat="50.18303" lon="5.08922">
        <ele>169.33</ele>
        <time>2017-04-30T14:40:34Z</time>
      </trkpt>
      <trkpt lat="50.18298" lon="5.08924">
        <ele>167.89</ele>
        <time>2017-04-30T14:40:38Z</time>
      </trkpt>
      <trkpt lat="50.1829" lon="5.0893">
        <ele>167.89</ele>
        <time>2017-04-30T14:40:52Z</time>
      </trkpt>
      <trkpt lat="50.18285" lon="5.08945">
        <ele>166.45</ele>
        <time>2017-04-30T14:41:16Z</time>
      </trkpt>
      <trkpt lat="50.1828" lon="5.08964">
        <ele>165</ele>
        <time>2017-04-30T14:41:32Z</time>
      </trkpt>
      <trkpt lat="50.18267" lon="5.08983">
        <ele>164.52</ele>
        <time>2017-04-30T14:41:48Z</time>
      </trkpt>
      <trkpt lat="50.18256" lon="5.09004">
        <ele>163.08</ele>
        <time>2017-04-30T14:42:06Z</time>
      </trkpt>
      <trkpt lat="50.1825" lon="5.09008">
        <ele>162.6</ele>
        <time>2017-04-30T14:42:24Z</time>
      </trkpt>
      <trkpt lat="50.18247" lon="5.09021">
        <ele>161.16</ele>
        <time>2017-04-30T14:42:44Z</time>
      </trkpt>
      <trkpt lat="50.18243" lon="5.0903">
        <ele>159.72</ele>
        <time>2017-04-30T14:42:53Z</time>
      </trkpt>
      <trkpt lat="50.18235" lon="5.0905">
        <ele>157.79</ele>
        <time>2017-04-30T14:43:09Z</time>
      </trkpt>
      <trkpt lat="50.18228" lon="5.09068">
        <ele>157.31</ele>
        <time>2017-04-30T14:43:22Z</time>
      </trkpt>
      <trkpt lat="50.1822" lon="5.09087">
        <ele>156.83</ele>
        <time>2017-04-30T14:43:37Z</time>
      </trkpt>
      <trkpt lat="50.18212" lon="5.09107">
        <ele>156.83</ele>
        <time>2017-04-30T14:43:52Z</time>
      </trkpt>
      <trkpt lat="50.18204" lon="5.09121">
        <ele>158.27</ele>
        <time>2017-04-30T14:44:07Z</time>
      </trkpt>
      <trkpt lat="50.18202" lon="5.09123">
        <ele>157.31</ele>
        <time>2017-04-30T14:44:41Z</time>
      </trkpt>
      <trkpt lat="50.18204" lon="5.09116">
        <ele>156.83</ele>
        <time>2017-04-30T14:45:04Z</time>
      </trkpt>
      <trkpt lat="50.18212" lon="5.09109">
        <ele>156.83</ele>
        <time>2017-04-30T14:45:13Z</time>
      </trkpt>
      <trkpt lat="50.18215" lon="5.09106">
        <ele>157.79</ele>
        <time>2017-04-30T14:45:24Z</time>
      </trkpt>
      <trkpt lat="50.18216" lon="5.09107">
        <ele>157.31</ele>
        <time>2017-04-30T14:45:43Z</time>
      </trkpt>
      <trkpt lat="50.18215" lon="5.09109">
        <ele>157.79</ele>
        <time>2017-04-30T14:45:56Z</time>
      </trkpt>
      <trkpt lat="50.18216" lon="5.09104">
        <ele>154.43</ele>
        <time>2017-04-30T14:46:03Z</time>
      </trkpt>
      <trkpt lat="50.18217" lon="5.09103">
        <ele>158.75</ele>
        <time>2017-04-30T14:46:08Z</time>
      </trkpt>
      <trkpt lat="50.18219" lon="5.09105">
        <ele>156.35</ele>
        <time>2017-04-30T14:46:39Z</time>
      </trkpt>
      <trkpt lat="50.18217" lon="5.09105">
        <ele>156.83</ele>
        <time>2017-04-30T14:46:58Z</time>
      </trkpt>
      <trkpt lat="50.18217" lon="5.09106">
        <ele>155.87</ele>
        <time>2017-04-30T14:47:19Z</time>
      </trkpt>
      <trkpt lat="50.18213" lon="5.09108">
        <ele>155.87</ele>
        <time>2017-04-30T14:47:43Z</time>
      </trkpt>
      <trkpt lat="50.18214" lon="5.09108">
        <ele>156.35</ele>
        <time>2017-04-30T14:48:07Z</time>
      </trkpt>
      <trkpt lat="50.18217" lon="5.09106">
        <ele>156.83</ele>
        <time>2017-04-30T14:48:30Z</time>
      </trkpt>
      <trkpt lat="50.18217" lon="5.09105">
        <ele>155.39</ele>
        <time>2017-04-30T14:48:54Z</time>
      </trkpt>
      <trkpt lat="50.18217" lon="5.09105">
        <ele>156.83</ele>
        <time>2017-04-30T14:48:56Z</time>
      </trkpt>
      <trkpt lat="50.18211" lon="5.09107">
        <ele>158.27</ele>
        <time>2017-04-30T14:49:32Z</time>
      </trkpt>
      <trkpt lat="50.18211" lon="5.09107">
        <ele>157.79</ele>
        <time>2017-04-30T14:50:05Z</time>
      </trkpt>
      <trkpt lat="50.18211" lon="5.09107">
        <ele>157.79</ele>
        <time>2017-04-30T14:50:06Z</time>
      </trkpt>
      <trkpt lat="50.18211" lon="5.09108">
        <ele>156.83</ele>
        <time>2017-04-30T14:50:10Z</time>
      </trkpt>
      <trkpt lat="50.18208" lon="5.09112">
        <ele>154.91</ele>
        <time>2017-04-30T14:50:26Z</time>
      </trkpt>
      <trkpt lat="50.18208" lon="5.09112">
        <ele>156.35</ele>
        <time>2017-04-30T14:50:28Z</time>
      </trkpt>
      <trkpt lat="50.1821" lon="5.09109">
        <ele>156.35</ele>
        <time>2017-04-30T14:50:38Z</time>
      </trkpt>
      <trkpt lat="50.18218" lon="5.091">
        <ele>156.35</ele>
        <time>2017-04-30T14:51:10Z</time>
      </trkpt>
      <trkpt lat="50.18211" lon="5.09107">
        <ele>156.35</ele>
        <time>2017-04-30T14:51:40Z</time>
      </trkpt>
      <trkpt lat="50.18214" lon="5.09103">
        <ele>156.83</ele>
        <time>2017-04-30T14:51:49Z</time>
      </trkpt>
      <trkpt lat="50.18218" lon="5.09099">
        <ele>156.35</ele>
        <time>2017-04-30T14:52:24Z</time>
      </trkpt>
      <trkpt lat="50.18217" lon="5.09111">
        <ele>156.83</ele>
        <time>2017-04-30T14:52:51Z</time>
      </trkpt>
      <trkpt lat="50.18213" lon="5.0911">
        <ele>156.83</ele>
        <time>2017-04-30T14:53:31Z</time>
      </trkpt>
      <trkpt lat="50.18213" lon="5.09104">
        <ele>156.35</ele>
        <time>2017-04-30T14:53:59Z</time>
      </trkpt>
      <trkpt lat="50.18214" lon="5.09103">
        <ele>156.35</ele>
        <time>2017-04-30T14:54:29Z</time>
      </trkpt>
      <trkpt lat="50.18213" lon="5.09108">
        <ele>156.35</ele>
        <time>2017-04-30T14:54:58Z</time>
      </trkpt>
      <trkpt lat="50.18211" lon="5.0911">
        <ele>156.83</ele>
        <time>2017-04-30T14:55:29Z</time>
      </trkpt>
      <trkpt lat="50.18212" lon="5.09107">
        <ele>158.27</ele>
        <time>2017-04-30T14:55:58Z</time>
      </trkpt>
      <trkpt lat="50.18209" lon="5.09112">
        <ele>158.27</ele>
        <time>2017-04-30T14:56:18Z</time>
      </trkpt>
      <trkpt lat="50.18196" lon="5.09119">
        <ele>159.24</ele>
        <time>2017-04-30T14:56:37Z</time>
      </trkpt>
      <trkpt lat="50.18189" lon="5.09122">
        <ele>159.24</ele>
        <time>2017-04-30T14:56:44Z</time>
      </trkpt>
      <trkpt lat="50.18176" lon="5.09115">
        <ele>158.75</ele>
        <time>2017-04-30T14:56:59Z</time>
      </trkpt>
      <trkpt lat="50.18175" lon="5.09114">
        <ele>158.75</ele>
        <time>2017-04-30T14:57:01Z</time>
      </trkpt>
      <trkpt lat="50.18166" lon="5.09097">
        <ele>158.75</ele>
        <time>2017-04-30T14:57:15Z</time>
      </trkpt>
      <trkpt lat="50.1816" lon="5.09087">
        <ele>158.75</ele>
        <time>2017-04-30T14:57:28Z</time>
      </trkpt>
      <trkpt lat="50.18159" lon="5.09087">
        <ele>158.75</ele>
        <time>2017-04-30T14:57:30Z</time>
      </trkpt>
      <trkpt lat="50.18157" lon="5.09078">
        <ele>160.2</ele>
        <time>2017-04-30T14:57:37Z</time>
      </trkpt>
      <trkpt lat="50.18155" lon="5.09058">
        <ele>161.16</ele>
        <time>2017-04-30T14:57:50Z</time>
      </trkpt>
      <trkpt lat="50.18154" lon="5.09044">
        <ele>160.2</ele>
        <time>2017-04-30T14:58:00Z</time>
      </trkpt>
      <trkpt lat="50.18149" lon="5.09022">
        <ele>159.72</ele>
        <time>2017-04-30T14:58:12Z</time>
      </trkpt>
      <trkpt lat="50.18145" lon="5.08996">
        <ele>159.72</ele>
        <time>2017-04-30T14:58:26Z</time>
      </trkpt>
      <trkpt lat="50.18142" lon="5.08975">
        <ele>159.72</ele>
        <time>2017-04-30T14:58:38Z</time>
      </trkpt>
      <trkpt lat="50.18129" lon="5.08957">
        <ele>158.75</ele>
        <time>2017-04-30T14:58:56Z</time>
      </trkpt>
      <trkpt lat="50.18123" lon="5.08954">
        <ele>158.75</ele>
        <time>2017-04-30T14:59:06Z</time>
      </trkpt>
      <trkpt lat="50.18119" lon="5.08955">
        <ele>160.2</ele>
        <time>2017-04-30T14:59:10Z</time>
      </trkpt>
      <trkpt lat="50.18104" lon="5.08954">
        <ele>159.72</ele>
        <time>2017-04-30T14:59:24Z</time>
      </trkpt>
      <trkpt lat="50.18093" lon="5.08949">
        <ele>159.72</ele>
        <time>2017-04-30T14:59:37Z</time>
      </trkpt>
      <trkpt lat="50.18091" lon="5.08948">
        <ele>159.72</ele>
        <time>2017-04-30T14:59:38Z</time>
      </trkpt>
      <trkpt lat="50.18081" lon="5.08943">
        <ele>160.2</ele>
        <time>2017-04-30T14:59:48Z</time>
      </trkpt>
      <trkpt lat="50.18077" lon="5.08938">
        <ele>160.68</ele>
        <time>2017-04-30T14:59:53Z</time>
      </trkpt>
      <trkpt lat="50.18073" lon="5.08936">
        <ele>161.16</ele>
        <time>2017-04-30T14:59:55Z</time>
      </trkpt>
      <trkpt lat="50.18046" lon="5.08922">
        <ele>162.12</ele>
        <time>2017-04-30T15:00:13Z</time>
      </trkpt>
      <trkpt lat="50.18039" lon="5.08919">
        <ele>163.08</ele>
        <time>2017-04-30T15:00:19Z</time>
      </trkpt>
      <trkpt lat="50.18029" lon="5.08912">
        <ele>163.56</ele>
        <time>2017-04-30T15:00:29Z</time>
      </trkpt>
      <trkpt lat="50.18013" lon="5.08901">
        <ele>165</ele>
        <time>2017-04-30T15:00:45Z</time>
      </trkpt>
      <trkpt lat="50.17998" lon="5.08887">
        <ele>167.41</ele>
        <time>2017-04-30T15:01:00Z</time>
      </trkpt>
      <trkpt lat="50.17987" lon="5.0888">
        <ele>169.33</ele>
        <time>2017-04-30T15:01:14Z</time>
      </trkpt>
      <trkpt lat="50.17977" lon="5.08872">
        <ele>171.25</ele>
        <time>2017-04-30T15:01:24Z</time>
      </trkpt>
      <trkpt lat="50.17957" lon="5.08861">
        <ele>173.66</ele>
        <time>2017-04-30T15:01:42Z</time>
      </trkpt>
      <trkpt lat="50.17942" lon="5.08857">
        <ele>176.54</ele>
        <time>2017-04-30T15:01:57Z</time>
      </trkpt>
      <trkpt lat="50.1793" lon="5.08853">
        <ele>178.94</ele>
        <time>2017-04-30T15:02:12Z</time>
      </trkpt>
      <trkpt lat="50.17917" lon="5.08853">
        <ele>181.83</ele>
        <time>2017-04-30T15:02:26Z</time>
      </trkpt>
      <trkpt lat="50.179" lon="5.08844">
        <ele>185.19</ele>
        <time>2017-04-30T15:02:42Z</time>
      </trkpt>
      <trkpt lat="50.1789" lon="5.08827">
        <ele>188.08</ele>
        <time>2017-04-30T15:02:56Z</time>
      </trkpt>
      <trkpt lat="50.17894" lon="5.08809">
        <ele>190.48</ele>
        <time>2017-04-30T15:03:09Z</time>
      </trkpt>
      <trkpt lat="50.17894" lon="5.08807">
        <ele>191.44</ele>
        <time>2017-04-30T15:03:13Z</time>
      </trkpt>
      <trkpt lat="50.17892" lon="5.08803">
        <ele>191.44</ele>
        <time>2017-04-30T15:03:18Z</time>
      </trkpt>
      <trkpt lat="50.17889" lon="5.08808">
        <ele>193.84</ele>
        <time>2017-04-30T15:03:28Z</time>
      </trkpt>
      <trkpt lat="50.17884" lon="5.08817">
        <ele>195.77</ele>
        <time>2017-04-30T15:03:38Z</time>
      </trkpt>
      <trkpt lat="50.17873" lon="5.08836">
        <ele>198.65</ele>
        <time>2017-04-30T15:03:51Z</time>
      </trkpt>
      <trkpt lat="50.17872" lon="5.08838">
        <ele>198.65</ele>
        <time>2017-04-30T15:03:52Z</time>
      </trkpt>
      <trkpt lat="50.17865" lon="5.08856">
        <ele>200.57</ele>
        <time>2017-04-30T15:04:06Z</time>
      </trkpt>
      <trkpt lat="50.17867" lon="5.08877">
        <ele>203.46</ele>
        <time>2017-04-30T15:04:21Z</time>
      </trkpt>
      <trkpt lat="50.17864" lon="5.08891">
        <ele>205.38</ele>
        <time>2017-04-30T15:04:33Z</time>
      </trkpt>
      <trkpt lat="50.17863" lon="5.08892">
        <ele>205.38</ele>
        <time>2017-04-30T15:04:34Z</time>
      </trkpt>
      <trkpt lat="50.17859" lon="5.08893">
        <ele>205.86</ele>
        <time>2017-04-30T15:04:40Z</time>
      </trkpt>
      <trkpt lat="50.17856" lon="5.08895">
        <ele>206.82</ele>
        <time>2017-04-30T15:04:45Z</time>
      </trkpt>
      <trkpt lat="50.17854" lon="5.08893">
        <ele>207.3</ele>
        <time>2017-04-30T15:04:47Z</time>
      </trkpt>
      <trkpt lat="50.17854" lon="5.08891">
        <ele>208.26</ele>
        <time>2017-04-30T15:04:48Z</time>
      </trkpt>
      <trkpt lat="50.17853" lon="5.0889">
        <ele>208.74</ele>
        <time>2017-04-30T15:04:52Z</time>
      </trkpt>
      <trkpt lat="50.17852" lon="5.08887">
        <ele>208.74</ele>
        <time>2017-04-30T15:04:53Z</time>
      </trkpt>
      <trkpt lat="50.17852" lon="5.08885">
        <ele>209.22</ele>
        <time>2017-04-30T15:04:54Z</time>
      </trkpt>
      <trkpt lat="50.17851" lon="5.08882">
        <ele>209.22</ele>
        <time>2017-04-30T15:04:59Z</time>
      </trkpt>
      <trkpt lat="50.17848" lon="5.08877">
        <ele>210.67</ele>
        <time>2017-04-30T15:05:05Z</time>
      </trkpt>
      <trkpt lat="50.17847" lon="5.08874">
        <ele>210.67</ele>
        <time>2017-04-30T15:05:06Z</time>
      </trkpt>
      <trkpt lat="50.17843" lon="5.08868">
        <ele>212.11</ele>
        <time>2017-04-30T15:05:12Z</time>
      </trkpt>
      <trkpt lat="50.17842" lon="5.08866">
        <ele>212.59</ele>
        <time>2017-04-30T15:05:13Z</time>
      </trkpt>
      <trkpt lat="50.17841" lon="5.08864">
        <ele>212.59</ele>
        <time>2017-04-30T15:05:14Z</time>
      </trkpt>
      <trkpt lat="50.17839" lon="5.08861">
        <ele>213.55</ele>
        <time>2017-04-30T15:05:19Z</time>
      </trkpt>
      <trkpt lat="50.17838" lon="5.08859">
        <ele>214.03</ele>
        <time>2017-04-30T15:05:20Z</time>
      </trkpt>
      <trkpt lat="50.17838" lon="5.08858">
        <ele>214.03</ele>
        <time>2017-04-30T15:05:21Z</time>
      </trkpt>
      <trkpt lat="50.17835" lon="5.08855">
        <ele>215.47</ele>
        <time>2017-04-30T15:05:26Z</time>
      </trkpt>
      <trkpt lat="50.17833" lon="5.08855">
        <ele>215.47</ele>
        <time>2017-04-30T15:05:27Z</time>
      </trkpt>
      <trkpt lat="50.17832" lon="5.08855">
        <ele>215.95</ele>
        <time>2017-04-30T15:05:28Z</time>
      </trkpt>
      <trkpt lat="50.17828" lon="5.0885">
        <ele>216.91</ele>
        <time>2017-04-30T15:05:35Z</time>
      </trkpt>
      <trkpt lat="50.17827" lon="5.08848">
        <ele>216.91</ele>
        <time>2017-04-30T15:05:36Z</time>
      </trkpt>
      <trkpt lat="50.17826" lon="5.08846">
        <ele>217.4</ele>
        <time>2017-04-30T15:05:37Z</time>
      </trkpt>
      <trkpt lat="50.17819" lon="5.08844">
        <ele>218.36</ele>
        <time>2017-04-30T15:05:43Z</time>
      </trkpt>
      <trkpt lat="50.17808" lon="5.08843">
        <ele>219.32</ele>
        <time>2017-04-30T15:05:54Z</time>
      </trkpt>
      <trkpt lat="50.17804" lon="5.08841">
        <ele>220.76</ele>
        <time>2017-04-30T15:05:57Z</time>
      </trkpt>
      <trkpt lat="50.178" lon="5.08839">
        <ele>221.72</ele>
        <time>2017-04-30T15:06:02Z</time>
      </trkpt>
      <trkpt lat="50.17798" lon="5.08838">
        <ele>221.72</ele>
        <time>2017-04-30T15:06:03Z</time>
      </trkpt>
      <trkpt lat="50.17784" lon="5.08835">
        <ele>224.12</ele>
        <time>2017-04-30T15:06:15Z</time>
      </trkpt>
      <trkpt lat="50.1777" lon="5.08832">
        <ele>226.05</ele>
        <time>2017-04-30T15:06:27Z</time>
      </trkpt>
      <trkpt lat="50.17761" lon="5.08832">
        <ele>227.01</ele>
        <time>2017-04-30T15:06:35Z</time>
      </trkpt>
      <trkpt lat="50.1776" lon="5.08833">
        <ele>227.01</ele>
        <time>2017-04-30T15:06:36Z</time>
      </trkpt>
      <trkpt lat="50.17753" lon="5.08831">
        <ele>227.97</ele>
        <time>2017-04-30T15:06:43Z</time>
      </trkpt>
      <trkpt lat="50.17751" lon="5.0883">
        <ele>228.45</ele>
        <time>2017-04-30T15:06:44Z</time>
      </trkpt>
      <trkpt lat="50.17746" lon="5.08829">
        <ele>229.41</ele>
        <time>2017-04-30T15:06:49Z</time>
      </trkpt>
      <trkpt lat="50.17744" lon="5.08829">
        <ele>229.41</ele>
        <time>2017-04-30T15:06:50Z</time>
      </trkpt>
      <trkpt lat="50.17742" lon="5.08828">
        <ele>229.41</ele>
        <time>2017-04-30T15:06:51Z</time>
      </trkpt>
      <trkpt lat="50.17737" lon="5.08829">
        <ele>230.37</ele>
        <time>2017-04-30T15:06:56Z</time>
      </trkpt>
      <trkpt lat="50.17735" lon="5.0883">
        <ele>230.37</ele>
        <time>2017-04-30T15:06:57Z</time>
      </trkpt>
      <trkpt lat="50.17733" lon="5.08829">
        <ele>230.37</ele>
        <time>2017-04-30T15:06:58Z</time>
      </trkpt>
      <trkpt lat="50.17724" lon="5.08828">
        <ele>231.81</ele>
        <time>2017-04-30T15:07:06Z</time>
      </trkpt>
      <trkpt lat="50.17719" lon="5.08827">
        <ele>232.78</ele>
        <time>2017-04-30T15:07:13Z</time>
      </trkpt>
      <trkpt lat="50.17713" lon="5.08827">
        <ele>233.26</ele>
        <time>2017-04-30T15:07:19Z</time>
      </trkpt>
      <trkpt lat="50.17712" lon="5.08826">
        <ele>233.26</ele>
        <time>2017-04-30T15:07:20Z</time>
      </trkpt>
      <trkpt lat="50.1771" lon="5.08825">
        <ele>233.26</ele>
        <time>2017-04-30T15:07:21Z</time>
      </trkpt>
      <trkpt lat="50.17707" lon="5.08824">
        <ele>233.74</ele>
        <time>2017-04-30T15:07:22Z</time>
      </trkpt>
      <trkpt lat="50.17701" lon="5.08824">
        <ele>234.22</ele>
        <time>2017-04-30T15:07:25Z</time>
      </trkpt>
      <trkpt lat="50.17698" lon="5.08824">
        <ele>234.22</ele>
        <time>2017-04-30T15:07:26Z</time>
      </trkpt>
      <trkpt lat="50.17696" lon="5.08824">
        <ele>234.22</ele>
        <time>2017-04-30T15:07:27Z</time>
      </trkpt>
      <trkpt lat="50.17694" lon="5.08825">
        <ele>234.22</ele>
        <time>2017-04-30T15:07:28Z</time>
      </trkpt>
      <trkpt lat="50.17685" lon="5.08824">
        <ele>235.66</ele>
        <time>2017-04-30T15:07:38Z</time>
      </trkpt>
      <trkpt lat="50.17677" lon="5.08823">
        <ele>236.62</ele>
        <time>2017-04-30T15:07:45Z</time>
      </trkpt>
      <trkpt lat="50.17676" lon="5.08823">
        <ele>236.62</ele>
        <time>2017-04-30T15:07:46Z</time>
      </trkpt>
      <trkpt lat="50.17671" lon="5.08819">
        <ele>237.1</ele>
        <time>2017-04-30T15:07:56Z</time>
      </trkpt>
      <trkpt lat="50.17667" lon="5.08822">
        <ele>237.1</ele>
        <time>2017-04-30T15:08:06Z</time>
      </trkpt>
      <trkpt lat="50.17665" lon="5.08819">
        <ele>238.06</ele>
        <time>2017-04-30T15:08:37Z</time>
      </trkpt>
      <trkpt lat="50.17665" lon="5.08817">
        <ele>238.06</ele>
        <time>2017-04-30T15:08:57Z</time>
      </trkpt>
      <trkpt lat="50.17663" lon="5.08818">
        <ele>238.54</ele>
        <time>2017-04-30T15:09:22Z</time>
      </trkpt>
      <trkpt lat="50.17662" lon="5.08818">
        <ele>237.1</ele>
        <time>2017-04-30T15:09:27Z</time>
      </trkpt>
      <trkpt lat="50.17662" lon="5.08818">
        <ele>240.47</ele>
        <time>2017-04-30T15:09:30Z</time>
      </trkpt>
      <trkpt lat="50.17659" lon="5.08821">
        <ele>238.54</ele>
        <time>2017-04-30T15:09:49Z</time>
      </trkpt>
      <trkpt lat="50.17664" lon="5.08821">
        <ele>238.54</ele>
        <time>2017-04-30T15:10:15Z</time>
      </trkpt>
      <trkpt lat="50.1766" lon="5.08824">
        <ele>238.54</ele>
        <time>2017-04-30T15:10:41Z</time>
      </trkpt>
      <trkpt lat="50.17657" lon="5.08825">
        <ele>239.02</ele>
        <time>2017-04-30T15:11:06Z</time>
      </trkpt>
      <trkpt lat="50.17658" lon="5.08823">
        <ele>239.51</ele>
        <time>2017-04-30T15:11:24Z</time>
      </trkpt>
      <trkpt lat="50.17658" lon="5.08819">
        <ele>239.51</ele>
        <time>2017-04-30T15:11:46Z</time>
      </trkpt>
      <trkpt lat="50.17657" lon="5.08821">
        <ele>238.06</ele>
        <time>2017-04-30T15:11:59Z</time>
      </trkpt>
      <trkpt lat="50.17657" lon="5.08822">
        <ele>239.51</ele>
        <time>2017-04-30T15:12:13Z</time>
      </trkpt>
      <trkpt lat="50.17655" lon="5.08826">
        <ele>239.99</ele>
        <time>2017-04-30T15:12:25Z</time>
      </trkpt>
      <trkpt lat="50.17654" lon="5.08832">
        <ele>238.54</ele>
        <time>2017-04-30T15:12:34Z</time>
      </trkpt>
      <trkpt lat="50.17656" lon="5.08814">
        <ele>239.51</ele>
        <time>2017-04-30T15:13:08Z</time>
      </trkpt>
      <trkpt lat="50.1766" lon="5.08816">
        <ele>239.02</ele>
        <time>2017-04-30T15:13:23Z</time>
      </trkpt>
      <trkpt lat="50.17653" lon="5.08824">
        <ele>238.54</ele>
        <time>2017-04-30T15:13:54Z</time>
      </trkpt>
      <trkpt lat="50.17639" lon="5.08823">
        <ele>237.1</ele>
        <time>2017-04-30T15:14:08Z</time>
      </trkpt>
      <trkpt lat="50.17624" lon="5.08821">
        <ele>235.66</ele>
        <time>2017-04-30T15:14:22Z</time>
      </trkpt>
      <trkpt lat="50.17609" lon="5.0882">
        <ele>234.22</ele>
        <time>2017-04-30T15:14:35Z</time>
      </trkpt>
      <trkpt lat="50.17596" lon="5.08818">
        <ele>232.78</ele>
        <time>2017-04-30T15:14:50Z</time>
      </trkpt>
      <trkpt lat="50.17583" lon="5.08819">
        <ele>230.85</ele>
        <time>2017-04-30T15:15:03Z</time>
      </trkpt>
      <trkpt lat="50.17578" lon="5.08819">
        <ele>229.41</ele>
        <time>2017-04-30T15:15:08Z</time>
      </trkpt>
      <trkpt lat="50.17564" lon="5.08817">
        <ele>227.01</ele>
        <time>2017-04-30T15:15:23Z</time>
      </trkpt>
      <trkpt lat="50.17554" lon="5.08815">
        <ele>224.12</ele>
        <time>2017-04-30T15:15:33Z</time>
      </trkpt>
      <trkpt lat="50.1755" lon="5.08815">
        <ele>225.57</ele>
        <time>2017-04-30T15:15:39Z</time>
      </trkpt>
      <trkpt lat="50.17545" lon="5.08815">
        <ele>222.2</ele>
        <time>2017-04-30T15:15:45Z</time>
      </trkpt>
      <trkpt lat="50.17529" lon="5.08819">
        <ele>218.84</ele>
        <time>2017-04-30T15:16:00Z</time>
      </trkpt>
      <trkpt lat="50.1752" lon="5.08821">
        <ele>217.4</ele>
        <time>2017-04-30T15:16:11Z</time>
      </trkpt>
      <trkpt lat="50.17506" lon="5.08824">
        <ele>214.99</ele>
        <time>2017-04-30T15:16:26Z</time>
      </trkpt>
      <trkpt lat="50.17489" lon="5.08829">
        <ele>212.11</ele>
        <time>2017-04-30T15:16:42Z</time>
      </trkpt>
      <trkpt lat="50.17475" lon="5.08833">
        <ele>209.22</ele>
        <time>2017-04-30T15:16:56Z</time>
      </trkpt>
      <trkpt lat="50.17461" lon="5.08837">
        <ele>206.82</ele>
        <time>2017-04-30T15:17:10Z</time>
      </trkpt>
      <trkpt lat="50.17445" lon="5.08838">
        <ele>203.94</ele>
        <time>2017-04-30T15:17:25Z</time>
      </trkpt>
      <trkpt lat="50.17428" lon="5.08839">
        <ele>201.53</ele>
        <time>2017-04-30T15:17:41Z</time>
      </trkpt>
      <trkpt lat="50.1741" lon="5.08843">
        <ele>198.17</ele>
        <time>2017-04-30T15:17:58Z</time>
      </trkpt>
      <trkpt lat="50.17398" lon="5.08845">
        <ele>196.73</ele>
        <time>2017-04-30T15:18:10Z</time>
      </trkpt>
      <trkpt lat="50.1738" lon="5.08836">
        <ele>194.8</ele>
        <time>2017-04-30T15:18:25Z</time>
      </trkpt>
      <trkpt lat="50.17359" lon="5.08828">
        <ele>192.88</ele>
        <time>2017-04-30T15:18:41Z</time>
      </trkpt>
      <trkpt lat="50.1734" lon="5.08824">
        <ele>190.96</ele>
        <time>2017-04-30T15:18:57Z</time>
      </trkpt>
      <trkpt lat="50.17334" lon="5.08823">
        <ele>190</ele>
        <time>2017-04-30T15:19:01Z</time>
      </trkpt>
      <trkpt lat="50.17323" lon="5.08817">
        <ele>189.04</ele>
        <time>2017-04-30T15:19:13Z</time>
      </trkpt>
      <trkpt lat="50.17321" lon="5.08815">
        <ele>188.56</ele>
        <time>2017-04-30T15:19:16Z</time>
      </trkpt>
      <trkpt lat="50.17309" lon="5.08808">
        <ele>187.11</ele>
        <time>2017-04-30T15:19:28Z</time>
      </trkpt>
      <trkpt lat="50.17294" lon="5.08803">
        <ele>185.19</ele>
        <time>2017-04-30T15:19:42Z</time>
      </trkpt>
      <trkpt lat="50.17292" lon="5.08802">
        <ele>185.19</ele>
        <time>2017-04-30T15:19:43Z</time>
      </trkpt>
      <trkpt lat="50.17273" lon="5.08796">
        <ele>183.27</ele>
        <time>2017-04-30T15:19:59Z</time>
      </trkpt>
      <trkpt lat="50.17265" lon="5.08792">
        <ele>182.79</ele>
        <time>2017-04-30T15:20:03Z</time>
      </trkpt>
      <trkpt lat="50.17254" lon="5.08786">
        <ele>181.35</ele>
        <time>2017-04-30T15:20:14Z</time>
      </trkpt>
      <trkpt lat="50.17247" lon="5.08784">
        <ele>180.87</ele>
        <time>2017-04-30T15:20:21Z</time>
      </trkpt>
      <trkpt lat="50.17234" lon="5.08779">
        <ele>179.42</ele>
        <time>2017-04-30T15:20:33Z</time>
      </trkpt>
      <trkpt lat="50.17229" lon="5.08779">
        <ele>179.42</ele>
        <time>2017-04-30T15:20:37Z</time>
      </trkpt>
      <trkpt lat="50.17213" lon="5.0877">
        <ele>177.5</ele>
        <time>2017-04-30T15:20:52Z</time>
      </trkpt>
      <trkpt lat="50.1721" lon="5.08768">
        <ele>177.5</ele>
        <time>2017-04-30T15:20:55Z</time>
      </trkpt>
      <trkpt lat="50.17207" lon="5.08768">
        <ele>177.02</ele>
        <time>2017-04-30T15:20:57Z</time>
      </trkpt>
      <trkpt lat="50.17206" lon="5.08768">
        <ele>176.54</ele>
        <time>2017-04-30T15:20:58Z</time>
      </trkpt>
      <trkpt lat="50.17205" lon="5.08767">
        <ele>176.54</ele>
        <time>2017-04-30T15:20:59Z</time>
      </trkpt>
      <trkpt lat="50.17188" lon="5.0876">
        <ele>174.62</ele>
        <time>2017-04-30T15:21:14Z</time>
      </trkpt>
      <trkpt lat="50.17172" lon="5.08754">
        <ele>173.66</ele>
        <time>2017-04-30T15:21:28Z</time>
      </trkpt>
      <trkpt lat="50.17161" lon="5.08747">
        <ele>172.21</ele>
        <time>2017-04-30T15:21:42Z</time>
      </trkpt>
      <trkpt lat="50.17148" lon="5.0874">
        <ele>171.25</ele>
        <time>2017-04-30T15:21:55Z</time>
      </trkpt>
      <trkpt lat="50.17135" lon="5.08734">
        <ele>169.81</ele>
        <time>2017-04-30T15:22:08Z</time>
      </trkpt>
      <trkpt lat="50.17121" lon="5.08727">
        <ele>169.33</ele>
        <time>2017-04-30T15:22:21Z</time>
      </trkpt>
      <trkpt lat="50.17107" lon="5.08719">
        <ele>167.41</ele>
        <time>2017-04-30T15:22:36Z</time>
      </trkpt>
      <trkpt lat="50.17089" lon="5.0871">
        <ele>164.52</ele>
        <time>2017-04-30T15:22:52Z</time>
      </trkpt>
      <trkpt lat="50.17074" lon="5.08705">
        <ele>163.08</ele>
        <time>2017-04-30T15:23:07Z</time>
      </trkpt>
      <trkpt lat="50.17062" lon="5.08693">
        <ele>162.12</ele>
        <time>2017-04-30T15:23:21Z</time>
      </trkpt>
      <trkpt lat="50.1705" lon="5.08685">
        <ele>159.72</ele>
        <time>2017-04-30T15:23:36Z</time>
      </trkpt>
      <trkpt lat="50.17036" lon="5.08679">
        <ele>156.83</ele>
        <time>2017-04-30T15:23:51Z</time>
      </trkpt>
      <trkpt lat="50.17022" lon="5.08672">
        <ele>155.39</ele>
        <time>2017-04-30T15:24:04Z</time>
      </trkpt>
      <trkpt lat="50.17007" lon="5.08665">
        <ele>152.99</ele>
        <time>2017-04-30T15:24:20Z</time>
      </trkpt>
      <trkpt lat="50.16987" lon="5.0867">
        <ele>151.06</ele>
        <time>2017-04-30T15:24:35Z</time>
      </trkpt>
      <trkpt lat="50.16985" lon="5.0867">
        <ele>151.06</ele>
        <time>2017-04-30T15:24:36Z</time>
      </trkpt>
      <trkpt lat="50.16971" lon="5.08676">
        <ele>150.1</ele>
        <time>2017-04-30T15:24:49Z</time>
      </trkpt>
      <trkpt lat="50.16958" lon="5.08681">
        <ele>148.18</ele>
        <time>2017-04-30T15:25:02Z</time>
      </trkpt>
      <trkpt lat="50.16943" lon="5.08685">
        <ele>146.74</ele>
        <time>2017-04-30T15:25:16Z</time>
      </trkpt>
      <trkpt lat="50.16942" lon="5.08684">
        <ele>146.74</ele>
        <time>2017-04-30T15:25:17Z</time>
      </trkpt>
      <trkpt lat="50.1694" lon="5.08684">
        <ele>146.74</ele>
        <time>2017-04-30T15:25:18Z</time>
      </trkpt>
      <trkpt lat="50.16939" lon="5.08684">
        <ele>146.74</ele>
        <time>2017-04-30T15:25:19Z</time>
      </trkpt>
      <trkpt lat="50.16937" lon="5.08684">
        <ele>146.74</ele>
        <time>2017-04-30T15:25:20Z</time>
      </trkpt>
      <trkpt lat="50.16915" lon="5.08685">
        <ele>145.3</ele>
        <time>2017-04-30T15:25:35Z</time>
      </trkpt>
      <trkpt lat="50.16898" lon="5.08687">
        <ele>143.85</ele>
        <time>2017-04-30T15:25:48Z</time>
      </trkpt>
      <trkpt lat="50.16879" lon="5.08691">
        <ele>141.93</ele>
        <time>2017-04-30T15:26:04Z</time>
      </trkpt>
      <trkpt lat="50.16859" lon="5.08701">
        <ele>141.93</ele>
        <time>2017-04-30T15:26:21Z</time>
      </trkpt>
      <trkpt lat="50.16843" lon="5.08719">
        <ele>141.93</ele>
        <time>2017-04-30T15:26:37Z</time>
      </trkpt>
      <trkpt lat="50.1683" lon="5.08745">
        <ele>141.93</ele>
        <time>2017-04-30T15:26:55Z</time>
      </trkpt>
      <trkpt lat="50.16819" lon="5.0877">
        <ele>143.85</ele>
        <time>2017-04-30T15:27:12Z</time>
      </trkpt>
      <trkpt lat="50.16807" lon="5.08798">
        <ele>144.82</ele>
        <time>2017-04-30T15:27:29Z</time>
      </trkpt>
      <trkpt lat="50.16795" lon="5.08809">
        <ele>145.3</ele>
        <time>2017-04-30T15:27:42Z</time>
      </trkpt>
      <trkpt lat="50.16787" lon="5.0881">
        <ele>145.3</ele>
        <time>2017-04-30T15:27:48Z</time>
      </trkpt>
      <trkpt lat="50.16768" lon="5.0882">
        <ele>144.34</ele>
        <time>2017-04-30T15:28:06Z</time>
      </trkpt>
      <trkpt lat="50.16758" lon="5.08828">
        <ele>144.34</ele>
        <time>2017-04-30T15:28:22Z</time>
      </trkpt>
      <trkpt lat="50.16752" lon="5.08833">
        <ele>144.34</ele>
        <time>2017-04-30T15:28:35Z</time>
      </trkpt>
      <trkpt lat="50.16739" lon="5.08843">
        <ele>142.41</ele>
        <time>2017-04-30T15:28:49Z</time>
      </trkpt>
      <trkpt lat="50.16723" lon="5.08855">
        <ele>142.41</ele>
        <time>2017-04-30T15:29:04Z</time>
      </trkpt>
      <trkpt lat="50.16706" lon="5.08862">
        <ele>141.93</ele>
        <time>2017-04-30T15:29:21Z</time>
      </trkpt>
      <trkpt lat="50.16703" lon="5.08861">
        <ele>141.93</ele>
        <time>2017-04-30T15:29:24Z</time>
      </trkpt>
      <trkpt lat="50.16687" lon="5.08855">
        <ele>140.97</ele>
        <time>2017-04-30T15:29:39Z</time>
      </trkpt>
      <trkpt lat="50.16676" lon="5.08855">
        <ele>140.97</ele>
        <time>2017-04-30T15:29:48Z</time>
      </trkpt>
      <trkpt lat="50.16667" lon="5.08858">
        <ele>140.49</ele>
        <time>2017-04-30T15:29:55Z</time>
      </trkpt>
      <trkpt lat="50.1665" lon="5.08867">
        <ele>140.01</ele>
        <time>2017-04-30T15:30:08Z</time>
      </trkpt>
      <trkpt lat="50.16637" lon="5.08886">
        <ele>140.01</ele>
        <time>2017-04-30T15:30:23Z</time>
      </trkpt>
      <trkpt lat="50.16621" lon="5.08906">
        <ele>140.01</ele>
        <time>2017-04-30T15:30:39Z</time>
      </trkpt>
      <trkpt lat="50.16606" lon="5.08928">
        <ele>139.05</ele>
        <time>2017-04-30T15:30:57Z</time>
      </trkpt>
      <trkpt lat="50.16593" lon="5.08947">
        <ele>139.05</ele>
        <time>2017-04-30T15:31:13Z</time>
      </trkpt>
      <trkpt lat="50.16581" lon="5.08968">
        <ele>139.05</ele>
        <time>2017-04-30T15:31:27Z</time>
      </trkpt>
      <trkpt lat="50.16577" lon="5.0899">
        <ele>138.09</ele>
        <time>2017-04-30T15:31:39Z</time>
      </trkpt>
      <trkpt lat="50.16574" lon="5.09022">
        <ele>134.72</ele>
        <time>2017-04-30T15:31:56Z</time>
      </trkpt>
      <trkpt lat="50.16571" lon="5.0905">
        <ele>137.13</ele>
        <time>2017-04-30T15:32:10Z</time>
      </trkpt>
      <trkpt lat="50.16572" lon="5.09074">
        <ele>136.16</ele>
        <time>2017-04-30T15:32:24Z</time>
      </trkpt>
      <trkpt lat="50.16574" lon="5.09092">
        <ele>136.64</ele>
        <time>2017-04-30T15:32:33Z</time>
      </trkpt>
      <trkpt lat="50.16574" lon="5.09098">
        <ele>134.72</ele>
        <time>2017-04-30T15:32:36Z</time>
      </trkpt>
      <trkpt lat="50.16574" lon="5.09106">
        <ele>136.16</ele>
        <time>2017-04-30T15:32:40Z</time>
      </trkpt>
      <trkpt lat="50.16574" lon="5.09143">
        <ele>136.16</ele>
        <time>2017-04-30T15:32:59Z</time>
      </trkpt>
      <trkpt lat="50.16567" lon="5.09179">
        <ele>136.64</ele>
        <time>2017-04-30T15:33:16Z</time>
      </trkpt>
      <trkpt lat="50.16565" lon="5.092">
        <ele>135.68</ele>
        <time>2017-04-30T15:33:27Z</time>
      </trkpt>
      <trkpt lat="50.16563" lon="5.09227">
        <ele>137.13</ele>
        <time>2017-04-30T15:33:42Z</time>
      </trkpt>
      <trkpt lat="50.16561" lon="5.09234">
        <ele>137.13</ele>
        <time>2017-04-30T15:33:55Z</time>
      </trkpt>
      <trkpt lat="50.16562" lon="5.09236">
        <ele>137.13</ele>
        <time>2017-04-30T15:34:12Z</time>
      </trkpt>
      <trkpt lat="50.16562" lon="5.09237">
        <ele>136.16</ele>
        <time>2017-04-30T15:34:30Z</time>
      </trkpt>
      <trkpt lat="50.16562" lon="5.09237">
        <ele>137.13</ele>
        <time>2017-04-30T15:34:37Z</time>
      </trkpt>
      <trkpt lat="50.16561" lon="5.09241">
        <ele>138.09</ele>
        <time>2017-04-30T15:34:56Z</time>
      </trkpt>
    </trkseg>
  </trk>
</gpx>